<?xml version="1.0" encoding="UTF-8" standalone="no" ?>
<gpx xmlns="http://www.topografix.com/GPX/1/1" xmlns:xsi="http://www.w3.org/2001/XMLSchema-instance" xsi:schemaLocation="http://www.topografix.com/GPX/1/1 http://www.topografix.com/GPX/1/1/gpx.xsd" version="1.1" creator="VisuGPX - https://www.visugpx.com">
  <metadata>
    <name>La Clape mix circuits 5 et 6</name>
    <desc><![CDATA[Parcours mélangeant les circuits 5 et 6 du site VTT de la FFC.
]]></desc>
  </metadata>
  <trk>
    <name><![CDATA[La Clape 22 02 2012]]></name>
    <trkseg>
      <trkpt lat="43.10879" lon="3.0905">
        <ele>51</ele>
        <time>2012-02-22T08:24:45Z</time>
      </trkpt>
      <trkpt lat="43.10879" lon="3.0905">
        <ele>51</ele>
        <time>2012-02-22T08:24:52Z</time>
      </trkpt>
      <trkpt lat="43.1088" lon="3.09047">
        <ele>51</ele>
        <time>2012-02-22T08:24:59Z</time>
      </trkpt>
      <trkpt lat="43.10881" lon="3.09047">
        <ele>51</ele>
        <time>2012-02-22T08:25:06Z</time>
      </trkpt>
      <trkpt lat="43.10881" lon="3.09048">
        <ele>52</ele>
        <time>2012-02-22T08:25:11Z</time>
      </trkpt>
      <trkpt lat="43.10881" lon="3.09048">
        <ele>52</ele>
        <time>2012-02-22T08:25:18Z</time>
      </trkpt>
      <trkpt lat="43.10881" lon="3.09048">
        <ele>52</ele>
        <time>2012-02-22T08:25:24Z</time>
      </trkpt>
      <trkpt lat="43.10881" lon="3.09048">
        <ele>52</ele>
        <time>2012-02-22T08:25:31Z</time>
      </trkpt>
      <trkpt lat="43.10881" lon="3.09048">
        <ele>52</ele>
        <time>2012-02-22T08:25:38Z</time>
      </trkpt>
      <trkpt lat="43.10881" lon="3.09048">
        <ele>52</ele>
        <time>2012-02-22T08:25:44Z</time>
      </trkpt>
      <trkpt lat="43.10881" lon="3.09048">
        <ele>52</ele>
        <time>2012-02-22T08:25:51Z</time>
      </trkpt>
      <trkpt lat="43.10881" lon="3.09048">
        <ele>52</ele>
        <time>2012-02-22T08:25:58Z</time>
      </trkpt>
      <trkpt lat="43.10881" lon="3.09048">
        <ele>52</ele>
        <time>2012-02-22T08:26:04Z</time>
      </trkpt>
      <trkpt lat="43.10881" lon="3.09048">
        <ele>52</ele>
        <time>2012-02-22T08:26:11Z</time>
      </trkpt>
      <trkpt lat="43.10881" lon="3.09048">
        <ele>52</ele>
        <time>2012-02-22T08:26:18Z</time>
      </trkpt>
      <trkpt lat="43.10881" lon="3.09048">
        <ele>52</ele>
        <time>2012-02-22T08:26:24Z</time>
      </trkpt>
      <trkpt lat="43.10881" lon="3.09048">
        <ele>52</ele>
        <time>2012-02-22T08:26:31Z</time>
      </trkpt>
      <trkpt lat="43.10881" lon="3.09048">
        <ele>52</ele>
        <time>2012-02-22T08:26:38Z</time>
      </trkpt>
      <trkpt lat="43.10881" lon="3.09048">
        <ele>52</ele>
        <time>2012-02-22T08:26:44Z</time>
      </trkpt>
      <trkpt lat="43.10881" lon="3.09048">
        <ele>52</ele>
        <time>2012-02-22T08:26:51Z</time>
      </trkpt>
      <trkpt lat="43.10881" lon="3.09048">
        <ele>52</ele>
        <time>2012-02-22T08:26:58Z</time>
      </trkpt>
      <trkpt lat="43.10881" lon="3.09048">
        <ele>53</ele>
        <time>2012-02-22T08:27:04Z</time>
      </trkpt>
      <trkpt lat="43.10881" lon="3.09048">
        <ele>53</ele>
        <time>2012-02-22T08:27:11Z</time>
      </trkpt>
      <trkpt lat="43.10881" lon="3.09048">
        <ele>53</ele>
        <time>2012-02-22T08:27:18Z</time>
      </trkpt>
      <trkpt lat="43.10881" lon="3.09048">
        <ele>53</ele>
        <time>2012-02-22T08:27:24Z</time>
      </trkpt>
      <trkpt lat="43.10881" lon="3.09048">
        <ele>53</ele>
        <time>2012-02-22T08:27:31Z</time>
      </trkpt>
      <trkpt lat="43.10881" lon="3.09048">
        <ele>53</ele>
        <time>2012-02-22T08:27:38Z</time>
      </trkpt>
      <trkpt lat="43.10881" lon="3.09048">
        <ele>53</ele>
        <time>2012-02-22T08:27:44Z</time>
      </trkpt>
      <trkpt lat="43.10881" lon="3.09048">
        <ele>53</ele>
        <time>2012-02-22T08:27:51Z</time>
      </trkpt>
      <trkpt lat="43.10881" lon="3.09048">
        <ele>53</ele>
        <time>2012-02-22T08:27:58Z</time>
      </trkpt>
      <trkpt lat="43.10881" lon="3.09048">
        <ele>53</ele>
        <time>2012-02-22T08:28:04Z</time>
      </trkpt>
      <trkpt lat="43.10881" lon="3.09048">
        <ele>53</ele>
        <time>2012-02-22T08:28:11Z</time>
      </trkpt>
      <trkpt lat="43.10881" lon="3.09048">
        <ele>53</ele>
        <time>2012-02-22T08:28:18Z</time>
      </trkpt>
      <trkpt lat="43.10881" lon="3.09048">
        <ele>53</ele>
        <time>2012-02-22T08:28:24Z</time>
      </trkpt>
      <trkpt lat="43.10881" lon="3.09048">
        <ele>53</ele>
        <time>2012-02-22T08:28:31Z</time>
      </trkpt>
      <trkpt lat="43.1088" lon="3.09048">
        <ele>54</ele>
        <time>2012-02-22T08:28:38Z</time>
      </trkpt>
      <trkpt lat="43.1088" lon="3.09048">
        <ele>54</ele>
        <time>2012-02-22T08:28:44Z</time>
      </trkpt>
      <trkpt lat="43.1088" lon="3.09048">
        <ele>54</ele>
        <time>2012-02-22T08:28:51Z</time>
      </trkpt>
      <trkpt lat="43.1088" lon="3.09048">
        <ele>54</ele>
        <time>2012-02-22T08:28:58Z</time>
      </trkpt>
      <trkpt lat="43.1088" lon="3.09048">
        <ele>54</ele>
        <time>2012-02-22T08:29:04Z</time>
      </trkpt>
      <trkpt lat="43.1088" lon="3.09048">
        <ele>54</ele>
        <time>2012-02-22T08:29:11Z</time>
      </trkpt>
      <trkpt lat="43.1088" lon="3.09048">
        <ele>54</ele>
        <time>2012-02-22T08:29:18Z</time>
      </trkpt>
      <trkpt lat="43.1088" lon="3.09048">
        <ele>54</ele>
        <time>2012-02-22T08:29:24Z</time>
      </trkpt>
      <trkpt lat="43.1088" lon="3.09048">
        <ele>54</ele>
        <time>2012-02-22T08:29:31Z</time>
      </trkpt>
      <trkpt lat="43.1088" lon="3.09048">
        <ele>54</ele>
        <time>2012-02-22T08:29:38Z</time>
      </trkpt>
      <trkpt lat="43.1088" lon="3.09048">
        <ele>54</ele>
        <time>2012-02-22T08:29:44Z</time>
      </trkpt>
      <trkpt lat="43.1088" lon="3.09048">
        <ele>54</ele>
        <time>2012-02-22T08:29:51Z</time>
      </trkpt>
      <trkpt lat="43.1088" lon="3.09048">
        <ele>54</ele>
        <time>2012-02-22T08:29:58Z</time>
      </trkpt>
      <trkpt lat="43.1088" lon="3.09048">
        <ele>54</ele>
        <time>2012-02-22T08:30:04Z</time>
      </trkpt>
      <trkpt lat="43.10881" lon="3.09051">
        <ele>55</ele>
        <time>2012-02-22T08:30:11Z</time>
      </trkpt>
      <trkpt lat="43.10878" lon="3.09052">
        <ele>53</ele>
        <time>2012-02-22T08:30:18Z</time>
      </trkpt>
      <trkpt lat="43.1088" lon="3.09051">
        <ele>52</ele>
        <time>2012-02-22T08:30:24Z</time>
      </trkpt>
      <trkpt lat="43.1088" lon="3.09048">
        <ele>51</ele>
        <time>2012-02-22T08:30:31Z</time>
      </trkpt>
      <trkpt lat="43.10879" lon="3.09053">
        <ele>50</ele>
        <time>2012-02-22T08:30:38Z</time>
      </trkpt>
      <trkpt lat="43.1088" lon="3.09053">
        <ele>51</ele>
        <time>2012-02-22T08:30:44Z</time>
      </trkpt>
      <trkpt lat="43.10881" lon="3.09052">
        <ele>52</ele>
        <time>2012-02-22T08:30:51Z</time>
      </trkpt>
      <trkpt lat="43.1088" lon="3.0905">
        <ele>51</ele>
        <time>2012-02-22T08:30:58Z</time>
      </trkpt>
      <trkpt lat="43.10879" lon="3.09051">
        <ele>50</ele>
        <time>2012-02-22T08:31:04Z</time>
      </trkpt>
      <trkpt lat="43.10879" lon="3.09051">
        <ele>50</ele>
        <time>2012-02-22T08:31:11Z</time>
      </trkpt>
      <trkpt lat="43.10879" lon="3.09051">
        <ele>50</ele>
        <time>2012-02-22T08:31:18Z</time>
      </trkpt>
      <trkpt lat="43.10879" lon="3.09051">
        <ele>50</ele>
        <time>2012-02-22T08:31:24Z</time>
      </trkpt>
      <trkpt lat="43.10879" lon="3.09051">
        <ele>50</ele>
        <time>2012-02-22T08:31:31Z</time>
      </trkpt>
      <trkpt lat="43.10877" lon="3.09054">
        <ele>53</ele>
        <time>2012-02-22T08:31:38Z</time>
      </trkpt>
      <trkpt lat="43.10879" lon="3.09054">
        <ele>51</ele>
        <time>2012-02-22T08:31:44Z</time>
      </trkpt>
      <trkpt lat="43.10879" lon="3.09053">
        <ele>49</ele>
        <time>2012-02-22T08:31:51Z</time>
      </trkpt>
      <trkpt lat="43.10879" lon="3.09053">
        <ele>49</ele>
        <time>2012-02-22T08:31:58Z</time>
      </trkpt>
      <trkpt lat="43.10879" lon="3.09053">
        <ele>49</ele>
        <time>2012-02-22T08:32:04Z</time>
      </trkpt>
      <trkpt lat="43.10879" lon="3.09051">
        <ele>51</ele>
        <time>2012-02-22T08:32:11Z</time>
      </trkpt>
      <trkpt lat="43.10879" lon="3.09052">
        <ele>55</ele>
        <time>2012-02-22T08:32:18Z</time>
      </trkpt>
      <trkpt lat="43.10879" lon="3.09054">
        <ele>56</ele>
        <time>2012-02-22T08:32:24Z</time>
      </trkpt>
      <trkpt lat="43.1088" lon="3.09053">
        <ele>56</ele>
        <time>2012-02-22T08:32:31Z</time>
      </trkpt>
      <trkpt lat="43.10879" lon="3.09051">
        <ele>55</ele>
        <time>2012-02-22T08:32:38Z</time>
      </trkpt>
      <trkpt lat="43.1088" lon="3.09051">
        <ele>56</ele>
        <time>2012-02-22T08:32:44Z</time>
      </trkpt>
      <trkpt lat="43.10882" lon="3.09056">
        <ele>54</ele>
        <time>2012-02-22T08:32:51Z</time>
      </trkpt>
      <trkpt lat="43.1089" lon="3.09053">
        <ele>52</ele>
        <time>2012-02-22T08:32:58Z</time>
      </trkpt>
      <trkpt lat="43.10887" lon="3.0904">
        <ele>53</ele>
        <time>2012-02-22T08:33:04Z</time>
      </trkpt>
      <trkpt lat="43.10879" lon="3.09025">
        <ele>56</ele>
        <time>2012-02-22T08:33:11Z</time>
      </trkpt>
      <trkpt lat="43.10872" lon="3.09012">
        <ele>58</ele>
        <time>2012-02-22T08:33:18Z</time>
      </trkpt>
      <trkpt lat="43.10864" lon="3.08995">
        <ele>56</ele>
        <time>2012-02-22T08:33:24Z</time>
      </trkpt>
      <trkpt lat="43.10854" lon="3.08974">
        <ele>56</ele>
        <time>2012-02-22T08:33:31Z</time>
      </trkpt>
      <trkpt lat="43.10846" lon="3.08959">
        <ele>57</ele>
        <time>2012-02-22T08:33:38Z</time>
      </trkpt>
      <trkpt lat="43.10843" lon="3.08944">
        <ele>59</ele>
        <time>2012-02-22T08:33:44Z</time>
      </trkpt>
      <trkpt lat="43.10834" lon="3.0892">
        <ele>61</ele>
        <time>2012-02-22T08:33:51Z</time>
      </trkpt>
      <trkpt lat="43.10823" lon="3.08891">
        <ele>64</ele>
        <time>2012-02-22T08:33:58Z</time>
      </trkpt>
      <trkpt lat="43.10812" lon="3.08867">
        <ele>65</ele>
        <time>2012-02-22T08:34:04Z</time>
      </trkpt>
      <trkpt lat="43.108" lon="3.0884">
        <ele>66</ele>
        <time>2012-02-22T08:34:11Z</time>
      </trkpt>
      <trkpt lat="43.10795" lon="3.08808">
        <ele>65</ele>
        <time>2012-02-22T08:34:18Z</time>
      </trkpt>
      <trkpt lat="43.10805" lon="3.08785">
        <ele>61</ele>
        <time>2012-02-22T08:34:24Z</time>
      </trkpt>
      <trkpt lat="43.10821" lon="3.08757">
        <ele>58</ele>
        <time>2012-02-22T08:34:31Z</time>
      </trkpt>
      <trkpt lat="43.10835" lon="3.0873">
        <ele>55</ele>
        <time>2012-02-22T08:34:38Z</time>
      </trkpt>
      <trkpt lat="43.10847" lon="3.08709">
        <ele>53</ele>
        <time>2012-02-22T08:34:44Z</time>
      </trkpt>
      <trkpt lat="43.10865" lon="3.08692">
        <ele>54</ele>
        <time>2012-02-22T08:34:51Z</time>
      </trkpt>
      <trkpt lat="43.10883" lon="3.08675">
        <ele>56</ele>
        <time>2012-02-22T08:34:58Z</time>
      </trkpt>
      <trkpt lat="43.10895" lon="3.08654">
        <ele>56</ele>
        <time>2012-02-22T08:35:04Z</time>
      </trkpt>
      <trkpt lat="43.10883" lon="3.0863">
        <ele>57</ele>
        <time>2012-02-22T08:35:11Z</time>
      </trkpt>
      <trkpt lat="43.10873" lon="3.08605">
        <ele>58</ele>
        <time>2012-02-22T08:35:18Z</time>
      </trkpt>
      <trkpt lat="43.10882" lon="3.08578">
        <ele>62</ele>
        <time>2012-02-22T08:35:24Z</time>
      </trkpt>
      <trkpt lat="43.10892" lon="3.08547">
        <ele>60</ele>
        <time>2012-02-22T08:35:31Z</time>
      </trkpt>
      <trkpt lat="43.10901" lon="3.08521">
        <ele>62</ele>
        <time>2012-02-22T08:35:38Z</time>
      </trkpt>
      <trkpt lat="43.10902" lon="3.08495">
        <ele>61</ele>
        <time>2012-02-22T08:35:44Z</time>
      </trkpt>
      <trkpt lat="43.10887" lon="3.0847">
        <ele>59</ele>
        <time>2012-02-22T08:35:51Z</time>
      </trkpt>
      <trkpt lat="43.10879" lon="3.08442">
        <ele>60</ele>
        <time>2012-02-22T08:35:58Z</time>
      </trkpt>
      <trkpt lat="43.10877" lon="3.08418">
        <ele>59</ele>
        <time>2012-02-22T08:36:04Z</time>
      </trkpt>
      <trkpt lat="43.10873" lon="3.08389">
        <ele>59</ele>
        <time>2012-02-22T08:36:11Z</time>
      </trkpt>
      <trkpt lat="43.1086" lon="3.08363">
        <ele>61</ele>
        <time>2012-02-22T08:36:18Z</time>
      </trkpt>
      <trkpt lat="43.10847" lon="3.08341">
        <ele>59</ele>
        <time>2012-02-22T08:36:24Z</time>
      </trkpt>
      <trkpt lat="43.1083" lon="3.08323">
        <ele>62</ele>
        <time>2012-02-22T08:36:31Z</time>
      </trkpt>
      <trkpt lat="43.10809" lon="3.08303">
        <ele>62</ele>
        <time>2012-02-22T08:36:38Z</time>
      </trkpt>
      <trkpt lat="43.10785" lon="3.083">
        <ele>58</ele>
        <time>2012-02-22T08:36:44Z</time>
      </trkpt>
      <trkpt lat="43.10757" lon="3.08295">
        <ele>59</ele>
        <time>2012-02-22T08:36:51Z</time>
      </trkpt>
      <trkpt lat="43.10735" lon="3.08281">
        <ele>62</ele>
        <time>2012-02-22T08:36:58Z</time>
      </trkpt>
      <trkpt lat="43.10713" lon="3.08284">
        <ele>61</ele>
        <time>2012-02-22T08:37:04Z</time>
      </trkpt>
      <trkpt lat="43.10688" lon="3.0829">
        <ele>60</ele>
        <time>2012-02-22T08:37:11Z</time>
      </trkpt>
      <trkpt lat="43.10664" lon="3.08302">
        <ele>58</ele>
        <time>2012-02-22T08:37:18Z</time>
      </trkpt>
      <trkpt lat="43.10645" lon="3.08325">
        <ele>56</ele>
        <time>2012-02-22T08:37:24Z</time>
      </trkpt>
      <trkpt lat="43.1062" lon="3.08346">
        <ele>56</ele>
        <time>2012-02-22T08:37:31Z</time>
      </trkpt>
      <trkpt lat="43.10594" lon="3.08354">
        <ele>59</ele>
        <time>2012-02-22T08:37:38Z</time>
      </trkpt>
      <trkpt lat="43.10574" lon="3.08375">
        <ele>59</ele>
        <time>2012-02-22T08:37:44Z</time>
      </trkpt>
      <trkpt lat="43.10555" lon="3.08399">
        <ele>57</ele>
        <time>2012-02-22T08:37:51Z</time>
      </trkpt>
      <trkpt lat="43.10532" lon="3.08424">
        <ele>55</ele>
        <time>2012-02-22T08:37:58Z</time>
      </trkpt>
      <trkpt lat="43.10513" lon="3.08426">
        <ele>60</ele>
        <time>2012-02-22T08:38:04Z</time>
      </trkpt>
      <trkpt lat="43.10493" lon="3.08414">
        <ele>60</ele>
        <time>2012-02-22T08:38:11Z</time>
      </trkpt>
      <trkpt lat="43.1048" lon="3.08393">
        <ele>59</ele>
        <time>2012-02-22T08:38:18Z</time>
      </trkpt>
      <trkpt lat="43.10485" lon="3.08368">
        <ele>57</ele>
        <time>2012-02-22T08:38:24Z</time>
      </trkpt>
      <trkpt lat="43.10495" lon="3.08342">
        <ele>55</ele>
        <time>2012-02-22T08:38:31Z</time>
      </trkpt>
      <trkpt lat="43.10505" lon="3.08317">
        <ele>54</ele>
        <time>2012-02-22T08:38:38Z</time>
      </trkpt>
      <trkpt lat="43.10513" lon="3.08294">
        <ele>54</ele>
        <time>2012-02-22T08:38:44Z</time>
      </trkpt>
      <trkpt lat="43.10525" lon="3.08271">
        <ele>53</ele>
        <time>2012-02-22T08:38:51Z</time>
      </trkpt>
      <trkpt lat="43.10535" lon="3.08244">
        <ele>55</ele>
        <time>2012-02-22T08:38:58Z</time>
      </trkpt>
      <trkpt lat="43.10544" lon="3.0822">
        <ele>54</ele>
        <time>2012-02-22T08:39:04Z</time>
      </trkpt>
      <trkpt lat="43.10554" lon="3.08192">
        <ele>55</ele>
        <time>2012-02-22T08:39:11Z</time>
      </trkpt>
      <trkpt lat="43.10566" lon="3.08169">
        <ele>54</ele>
        <time>2012-02-22T08:39:18Z</time>
      </trkpt>
      <trkpt lat="43.10575" lon="3.08151">
        <ele>54</ele>
        <time>2012-02-22T08:39:24Z</time>
      </trkpt>
      <trkpt lat="43.10587" lon="3.08121">
        <ele>54</ele>
        <time>2012-02-22T08:39:31Z</time>
      </trkpt>
      <trkpt lat="43.10602" lon="3.08095">
        <ele>55</ele>
        <time>2012-02-22T08:39:38Z</time>
      </trkpt>
      <trkpt lat="43.10613" lon="3.08073">
        <ele>56</ele>
        <time>2012-02-22T08:39:44Z</time>
      </trkpt>
      <trkpt lat="43.10626" lon="3.08051">
        <ele>54</ele>
        <time>2012-02-22T08:39:51Z</time>
      </trkpt>
      <trkpt lat="43.10641" lon="3.0803">
        <ele>54</ele>
        <time>2012-02-22T08:39:58Z</time>
      </trkpt>
      <trkpt lat="43.10652" lon="3.08003">
        <ele>56</ele>
        <time>2012-02-22T08:40:04Z</time>
      </trkpt>
      <trkpt lat="43.1067" lon="3.07984">
        <ele>56</ele>
        <time>2012-02-22T08:40:11Z</time>
      </trkpt>
      <trkpt lat="43.10689" lon="3.07959">
        <ele>54</ele>
        <time>2012-02-22T08:40:18Z</time>
      </trkpt>
      <trkpt lat="43.10706" lon="3.07944">
        <ele>54</ele>
        <time>2012-02-22T08:40:24Z</time>
      </trkpt>
      <trkpt lat="43.10722" lon="3.07926">
        <ele>54</ele>
        <time>2012-02-22T08:40:31Z</time>
      </trkpt>
      <trkpt lat="43.10736" lon="3.07903">
        <ele>53</ele>
        <time>2012-02-22T08:40:38Z</time>
      </trkpt>
      <trkpt lat="43.10749" lon="3.07883">
        <ele>54</ele>
        <time>2012-02-22T08:40:44Z</time>
      </trkpt>
      <trkpt lat="43.10763" lon="3.07861">
        <ele>54</ele>
        <time>2012-02-22T08:40:51Z</time>
      </trkpt>
      <trkpt lat="43.10781" lon="3.07841">
        <ele>55</ele>
        <time>2012-02-22T08:40:58Z</time>
      </trkpt>
      <trkpt lat="43.10796" lon="3.07819">
        <ele>55</ele>
        <time>2012-02-22T08:41:04Z</time>
      </trkpt>
      <trkpt lat="43.1081" lon="3.07795">
        <ele>54</ele>
        <time>2012-02-22T08:41:11Z</time>
      </trkpt>
      <trkpt lat="43.10826" lon="3.0777">
        <ele>53</ele>
        <time>2012-02-22T08:41:18Z</time>
      </trkpt>
      <trkpt lat="43.10842" lon="3.07748">
        <ele>53</ele>
        <time>2012-02-22T08:41:24Z</time>
      </trkpt>
      <trkpt lat="43.10858" lon="3.07719">
        <ele>53</ele>
        <time>2012-02-22T08:41:31Z</time>
      </trkpt>
      <trkpt lat="43.10877" lon="3.0769">
        <ele>54</ele>
        <time>2012-02-22T08:41:38Z</time>
      </trkpt>
      <trkpt lat="43.10891" lon="3.07666">
        <ele>53</ele>
        <time>2012-02-22T08:41:44Z</time>
      </trkpt>
      <trkpt lat="43.10906" lon="3.07637">
        <ele>55</ele>
        <time>2012-02-22T08:41:51Z</time>
      </trkpt>
      <trkpt lat="43.10922" lon="3.0761">
        <ele>56</ele>
        <time>2012-02-22T08:41:58Z</time>
      </trkpt>
      <trkpt lat="43.10937" lon="3.0759">
        <ele>56</ele>
        <time>2012-02-22T08:42:04Z</time>
      </trkpt>
      <trkpt lat="43.10951" lon="3.0756">
        <ele>57</ele>
        <time>2012-02-22T08:42:11Z</time>
      </trkpt>
      <trkpt lat="43.10961" lon="3.07527">
        <ele>56</ele>
        <time>2012-02-22T08:42:18Z</time>
      </trkpt>
      <trkpt lat="43.10967" lon="3.07501">
        <ele>56</ele>
        <time>2012-02-22T08:42:24Z</time>
      </trkpt>
      <trkpt lat="43.10971" lon="3.07466">
        <ele>56</ele>
        <time>2012-02-22T08:42:31Z</time>
      </trkpt>
      <trkpt lat="43.10975" lon="3.07432">
        <ele>56</ele>
        <time>2012-02-22T08:42:38Z</time>
      </trkpt>
      <trkpt lat="43.1098" lon="3.07399">
        <ele>57</ele>
        <time>2012-02-22T08:42:44Z</time>
      </trkpt>
      <trkpt lat="43.10982" lon="3.07361">
        <ele>56</ele>
        <time>2012-02-22T08:42:51Z</time>
      </trkpt>
      <trkpt lat="43.10987" lon="3.07325">
        <ele>56</ele>
        <time>2012-02-22T08:42:58Z</time>
      </trkpt>
      <trkpt lat="43.10993" lon="3.07296">
        <ele>55</ele>
        <time>2012-02-22T08:43:04Z</time>
      </trkpt>
      <trkpt lat="43.10997" lon="3.0726">
        <ele>55</ele>
        <time>2012-02-22T08:43:11Z</time>
      </trkpt>
      <trkpt lat="43.11003" lon="3.0722">
        <ele>56</ele>
        <time>2012-02-22T08:43:18Z</time>
      </trkpt>
      <trkpt lat="43.11008" lon="3.0719">
        <ele>56</ele>
        <time>2012-02-22T08:43:24Z</time>
      </trkpt>
      <trkpt lat="43.11013" lon="3.07152">
        <ele>54</ele>
        <time>2012-02-22T08:43:31Z</time>
      </trkpt>
      <trkpt lat="43.11016" lon="3.07116">
        <ele>54</ele>
        <time>2012-02-22T08:43:38Z</time>
      </trkpt>
      <trkpt lat="43.1102" lon="3.07087">
        <ele>55</ele>
        <time>2012-02-22T08:43:44Z</time>
      </trkpt>
      <trkpt lat="43.11024" lon="3.0705">
        <ele>55</ele>
        <time>2012-02-22T08:43:51Z</time>
      </trkpt>
      <trkpt lat="43.1103" lon="3.07012">
        <ele>55</ele>
        <time>2012-02-22T08:43:58Z</time>
      </trkpt>
      <trkpt lat="43.11033" lon="3.06978">
        <ele>56</ele>
        <time>2012-02-22T08:44:04Z</time>
      </trkpt>
      <trkpt lat="43.11038" lon="3.06943">
        <ele>57</ele>
        <time>2012-02-22T08:44:11Z</time>
      </trkpt>
      <trkpt lat="43.11044" lon="3.06908">
        <ele>57</ele>
        <time>2012-02-22T08:44:18Z</time>
      </trkpt>
      <trkpt lat="43.1105" lon="3.06877">
        <ele>57</ele>
        <time>2012-02-22T08:44:24Z</time>
      </trkpt>
      <trkpt lat="43.11056" lon="3.06841">
        <ele>56</ele>
        <time>2012-02-22T08:44:31Z</time>
      </trkpt>
      <trkpt lat="43.11059" lon="3.06803">
        <ele>55</ele>
        <time>2012-02-22T08:44:38Z</time>
      </trkpt>
      <trkpt lat="43.11066" lon="3.06774">
        <ele>54</ele>
        <time>2012-02-22T08:44:44Z</time>
      </trkpt>
      <trkpt lat="43.11069" lon="3.06739">
        <ele>54</ele>
        <time>2012-02-22T08:44:51Z</time>
      </trkpt>
      <trkpt lat="43.11072" lon="3.06704">
        <ele>55</ele>
        <time>2012-02-22T08:44:58Z</time>
      </trkpt>
      <trkpt lat="43.11073" lon="3.06674">
        <ele>55</ele>
        <time>2012-02-22T08:45:04Z</time>
      </trkpt>
      <trkpt lat="43.11077" lon="3.06643">
        <ele>55</ele>
        <time>2012-02-22T08:45:11Z</time>
      </trkpt>
      <trkpt lat="43.11079" lon="3.06632">
        <ele>54</ele>
        <time>2012-02-22T08:45:18Z</time>
      </trkpt>
      <trkpt lat="43.1108" lon="3.06629">
        <ele>53</ele>
        <time>2012-02-22T08:45:24Z</time>
      </trkpt>
      <trkpt lat="43.1108" lon="3.06627">
        <ele>54</ele>
        <time>2012-02-22T08:45:31Z</time>
      </trkpt>
      <trkpt lat="43.11078" lon="3.06623">
        <ele>55</ele>
        <time>2012-02-22T08:45:38Z</time>
      </trkpt>
      <trkpt lat="43.11076" lon="3.06609">
        <ele>55</ele>
        <time>2012-02-22T08:45:44Z</time>
      </trkpt>
      <trkpt lat="43.11083" lon="3.0659">
        <ele>51</ele>
        <time>2012-02-22T08:45:51Z</time>
      </trkpt>
      <trkpt lat="43.11094" lon="3.06582">
        <ele>52</ele>
        <time>2012-02-22T08:45:58Z</time>
      </trkpt>
      <trkpt lat="43.11107" lon="3.06589">
        <ele>52</ele>
        <time>2012-02-22T08:46:04Z</time>
      </trkpt>
      <trkpt lat="43.11121" lon="3.06604">
        <ele>52</ele>
        <time>2012-02-22T08:46:11Z</time>
      </trkpt>
      <trkpt lat="43.11137" lon="3.06632">
        <ele>55</ele>
        <time>2012-02-22T08:46:18Z</time>
      </trkpt>
      <trkpt lat="43.11151" lon="3.06654">
        <ele>55</ele>
        <time>2012-02-22T08:46:24Z</time>
      </trkpt>
      <trkpt lat="43.11169" lon="3.06681">
        <ele>54</ele>
        <time>2012-02-22T08:46:31Z</time>
      </trkpt>
      <trkpt lat="43.1119" lon="3.0671">
        <ele>55</ele>
        <time>2012-02-22T08:46:38Z</time>
      </trkpt>
      <trkpt lat="43.11208" lon="3.06735">
        <ele>55</ele>
        <time>2012-02-22T08:46:44Z</time>
      </trkpt>
      <trkpt lat="43.11227" lon="3.06764">
        <ele>54</ele>
        <time>2012-02-22T08:46:51Z</time>
      </trkpt>
      <trkpt lat="43.11247" lon="3.06793">
        <ele>54</ele>
        <time>2012-02-22T08:46:58Z</time>
      </trkpt>
      <trkpt lat="43.11263" lon="3.06805">
        <ele>53</ele>
        <time>2012-02-22T08:47:04Z</time>
      </trkpt>
      <trkpt lat="43.11275" lon="3.06775">
        <ele>53</ele>
        <time>2012-02-22T08:47:11Z</time>
      </trkpt>
      <trkpt lat="43.11278" lon="3.06738">
        <ele>54</ele>
        <time>2012-02-22T08:47:18Z</time>
      </trkpt>
      <trkpt lat="43.11277" lon="3.06711">
        <ele>55</ele>
        <time>2012-02-22T08:47:24Z</time>
      </trkpt>
      <trkpt lat="43.11265" lon="3.06678">
        <ele>55</ele>
        <time>2012-02-22T08:47:31Z</time>
      </trkpt>
      <trkpt lat="43.11245" lon="3.06648">
        <ele>52</ele>
        <time>2012-02-22T08:47:38Z</time>
      </trkpt>
      <trkpt lat="43.11234" lon="3.06623">
        <ele>51</ele>
        <time>2012-02-22T08:47:44Z</time>
      </trkpt>
      <trkpt lat="43.1123" lon="3.06586">
        <ele>51</ele>
        <time>2012-02-22T08:47:51Z</time>
      </trkpt>
      <trkpt lat="43.11239" lon="3.0655">
        <ele>48</ele>
        <time>2012-02-22T08:47:58Z</time>
      </trkpt>
      <trkpt lat="43.11255" lon="3.06527">
        <ele>48</ele>
        <time>2012-02-22T08:48:04Z</time>
      </trkpt>
      <trkpt lat="43.11281" lon="3.06514">
        <ele>48</ele>
        <time>2012-02-22T08:48:11Z</time>
      </trkpt>
      <trkpt lat="43.11306" lon="3.06497">
        <ele>48</ele>
        <time>2012-02-22T08:48:18Z</time>
      </trkpt>
      <trkpt lat="43.1132" lon="3.06468">
        <ele>48</ele>
        <time>2012-02-22T08:48:24Z</time>
      </trkpt>
      <trkpt lat="43.1134" lon="3.06446">
        <ele>48</ele>
        <time>2012-02-22T08:48:31Z</time>
      </trkpt>
      <trkpt lat="43.11365" lon="3.06432">
        <ele>48</ele>
        <time>2012-02-22T08:48:38Z</time>
      </trkpt>
      <trkpt lat="43.11388" lon="3.06423">
        <ele>48</ele>
        <time>2012-02-22T08:48:44Z</time>
      </trkpt>
      <trkpt lat="43.11413" lon="3.06409">
        <ele>48</ele>
        <time>2012-02-22T08:48:51Z</time>
      </trkpt>
      <trkpt lat="43.11422" lon="3.06373">
        <ele>50</ele>
        <time>2012-02-22T08:48:58Z</time>
      </trkpt>
      <trkpt lat="43.11416" lon="3.0634">
        <ele>52</ele>
        <time>2012-02-22T08:49:04Z</time>
      </trkpt>
      <trkpt lat="43.11432" lon="3.0631">
        <ele>52</ele>
        <time>2012-02-22T08:49:11Z</time>
      </trkpt>
      <trkpt lat="43.11449" lon="3.06292">
        <ele>51</ele>
        <time>2012-02-22T08:49:18Z</time>
      </trkpt>
      <trkpt lat="43.11466" lon="3.06272">
        <ele>50</ele>
        <time>2012-02-22T08:49:24Z</time>
      </trkpt>
      <trkpt lat="43.11493" lon="3.06268">
        <ele>48</ele>
        <time>2012-02-22T08:49:31Z</time>
      </trkpt>
      <trkpt lat="43.11512" lon="3.06275">
        <ele>49</ele>
        <time>2012-02-22T08:49:38Z</time>
      </trkpt>
      <trkpt lat="43.1152" lon="3.06285">
        <ele>53</ele>
        <time>2012-02-22T08:49:44Z</time>
      </trkpt>
      <trkpt lat="43.11533" lon="3.06296">
        <ele>57</ele>
        <time>2012-02-22T08:49:51Z</time>
      </trkpt>
      <trkpt lat="43.11545" lon="3.06308">
        <ele>61</ele>
        <time>2012-02-22T08:49:58Z</time>
      </trkpt>
      <trkpt lat="43.11558" lon="3.06316">
        <ele>65</ele>
        <time>2012-02-22T08:50:04Z</time>
      </trkpt>
      <trkpt lat="43.11576" lon="3.06322">
        <ele>72</ele>
        <time>2012-02-22T08:50:11Z</time>
      </trkpt>
      <trkpt lat="43.11592" lon="3.06324">
        <ele>73</ele>
        <time>2012-02-22T08:50:18Z</time>
      </trkpt>
      <trkpt lat="43.1161" lon="3.06324">
        <ele>68</ele>
        <time>2012-02-22T08:50:24Z</time>
      </trkpt>
      <trkpt lat="43.1163" lon="3.06331">
        <ele>65</ele>
        <time>2012-02-22T08:50:31Z</time>
      </trkpt>
      <trkpt lat="43.11645" lon="3.06343">
        <ele>65</ele>
        <time>2012-02-22T08:50:38Z</time>
      </trkpt>
      <trkpt lat="43.11655" lon="3.06359">
        <ele>65</ele>
        <time>2012-02-22T08:50:43Z</time>
      </trkpt>
      <trkpt lat="43.11662" lon="3.0638">
        <ele>66</ele>
        <time>2012-02-22T08:50:50Z</time>
      </trkpt>
      <trkpt lat="43.11677" lon="3.06393">
        <ele>69</ele>
        <time>2012-02-22T08:50:57Z</time>
      </trkpt>
      <trkpt lat="43.11688" lon="3.06408">
        <ele>71</ele>
        <time>2012-02-22T08:51:03Z</time>
      </trkpt>
      <trkpt lat="43.117" lon="3.06428">
        <ele>75</ele>
        <time>2012-02-22T08:51:10Z</time>
      </trkpt>
      <trkpt lat="43.11706" lon="3.06442">
        <ele>76</ele>
        <time>2012-02-22T08:51:15Z</time>
      </trkpt>
      <trkpt lat="43.11718" lon="3.06465">
        <ele>77</ele>
        <time>2012-02-22T08:51:22Z</time>
      </trkpt>
      <trkpt lat="43.11728" lon="3.06489">
        <ele>76</ele>
        <time>2012-02-22T08:51:29Z</time>
      </trkpt>
      <trkpt lat="43.1174" lon="3.06507">
        <ele>77</ele>
        <time>2012-02-22T08:51:35Z</time>
      </trkpt>
      <trkpt lat="43.11755" lon="3.06526">
        <ele>78</ele>
        <time>2012-02-22T08:51:42Z</time>
      </trkpt>
      <trkpt lat="43.11772" lon="3.0655">
        <ele>77</ele>
        <time>2012-02-22T08:51:49Z</time>
      </trkpt>
      <trkpt lat="43.11783" lon="3.0657">
        <ele>78</ele>
        <time>2012-02-22T08:51:55Z</time>
      </trkpt>
      <trkpt lat="43.118" lon="3.06593">
        <ele>78</ele>
        <time>2012-02-22T08:52:02Z</time>
      </trkpt>
      <trkpt lat="43.118" lon="3.06623">
        <ele>77</ele>
        <time>2012-02-22T08:52:09Z</time>
      </trkpt>
      <trkpt lat="43.11788" lon="3.06647">
        <ele>78</ele>
        <time>2012-02-22T08:52:15Z</time>
      </trkpt>
      <trkpt lat="43.11782" lon="3.06685">
        <ele>77</ele>
        <time>2012-02-22T08:52:22Z</time>
      </trkpt>
      <trkpt lat="43.11794" lon="3.06712">
        <ele>75</ele>
        <time>2012-02-22T08:52:29Z</time>
      </trkpt>
      <trkpt lat="43.11811" lon="3.06717">
        <ele>74</ele>
        <time>2012-02-22T08:52:35Z</time>
      </trkpt>
      <trkpt lat="43.11802" lon="3.06744">
        <ele>74</ele>
        <time>2012-02-22T08:52:42Z</time>
      </trkpt>
      <trkpt lat="43.11771" lon="3.06822">
        <ele>70</ele>
        <time>2012-02-22T08:52:49Z</time>
      </trkpt>
      <trkpt lat="43.11764" lon="3.06869">
        <ele>65</ele>
        <time>2012-02-22T08:52:55Z</time>
      </trkpt>
      <trkpt lat="43.11779" lon="3.06875">
        <ele>63</ele>
        <time>2012-02-22T08:53:02Z</time>
      </trkpt>
      <trkpt lat="43.11806" lon="3.06895">
        <ele>62</ele>
        <time>2012-02-22T08:53:09Z</time>
      </trkpt>
      <trkpt lat="43.11823" lon="3.06924">
        <ele>62</ele>
        <time>2012-02-22T08:53:15Z</time>
      </trkpt>
      <trkpt lat="43.11815" lon="3.06978">
        <ele>61</ele>
        <time>2012-02-22T08:53:22Z</time>
      </trkpt>
      <trkpt lat="43.11802" lon="3.07038">
        <ele>59</ele>
        <time>2012-02-22T08:53:29Z</time>
      </trkpt>
      <trkpt lat="43.11791" lon="3.07091">
        <ele>57</ele>
        <time>2012-02-22T08:53:35Z</time>
      </trkpt>
      <trkpt lat="43.11773" lon="3.07146">
        <ele>56</ele>
        <time>2012-02-22T08:53:42Z</time>
      </trkpt>
      <trkpt lat="43.11745" lon="3.07185">
        <ele>56</ele>
        <time>2012-02-22T08:53:49Z</time>
      </trkpt>
      <trkpt lat="43.11715" lon="3.07208">
        <ele>55</ele>
        <time>2012-02-22T08:53:55Z</time>
      </trkpt>
      <trkpt lat="43.11698" lon="3.07258">
        <ele>54</ele>
        <time>2012-02-22T08:54:02Z</time>
      </trkpt>
      <trkpt lat="43.1169" lon="3.07306">
        <ele>54</ele>
        <time>2012-02-22T08:54:09Z</time>
      </trkpt>
      <trkpt lat="43.11701" lon="3.0731">
        <ele>51</ele>
        <time>2012-02-22T08:54:15Z</time>
      </trkpt>
      <trkpt lat="43.11719" lon="3.07315">
        <ele>51</ele>
        <time>2012-02-22T08:54:22Z</time>
      </trkpt>
      <trkpt lat="43.11741" lon="3.07321">
        <ele>50</ele>
        <time>2012-02-22T08:54:29Z</time>
      </trkpt>
      <trkpt lat="43.11763" lon="3.07328">
        <ele>52</ele>
        <time>2012-02-22T08:54:35Z</time>
      </trkpt>
      <trkpt lat="43.11787" lon="3.07336">
        <ele>52</ele>
        <time>2012-02-22T08:54:42Z</time>
      </trkpt>
      <trkpt lat="43.11812" lon="3.07342">
        <ele>53</ele>
        <time>2012-02-22T08:54:49Z</time>
      </trkpt>
      <trkpt lat="43.11829" lon="3.07348">
        <ele>53</ele>
        <time>2012-02-22T08:54:55Z</time>
      </trkpt>
      <trkpt lat="43.11846" lon="3.07361">
        <ele>54</ele>
        <time>2012-02-22T08:55:02Z</time>
      </trkpt>
      <trkpt lat="43.11864" lon="3.07369">
        <ele>54</ele>
        <time>2012-02-22T08:55:09Z</time>
      </trkpt>
      <trkpt lat="43.11873" lon="3.0737">
        <ele>54</ele>
        <time>2012-02-22T08:55:15Z</time>
      </trkpt>
      <trkpt lat="43.11888" lon="3.07355">
        <ele>52</ele>
        <time>2012-02-22T08:55:22Z</time>
      </trkpt>
      <trkpt lat="43.11905" lon="3.0734">
        <ele>54</ele>
        <time>2012-02-22T08:55:29Z</time>
      </trkpt>
      <trkpt lat="43.1192" lon="3.07334">
        <ele>56</ele>
        <time>2012-02-22T08:55:35Z</time>
      </trkpt>
      <trkpt lat="43.11939" lon="3.0733">
        <ele>57</ele>
        <time>2012-02-22T08:55:42Z</time>
      </trkpt>
      <trkpt lat="43.11956" lon="3.07322">
        <ele>59</ele>
        <time>2012-02-22T08:55:49Z</time>
      </trkpt>
      <trkpt lat="43.11971" lon="3.07314">
        <ele>60</ele>
        <time>2012-02-22T08:55:55Z</time>
      </trkpt>
      <trkpt lat="43.11983" lon="3.07303">
        <ele>62</ele>
        <time>2012-02-22T08:56:02Z</time>
      </trkpt>
      <trkpt lat="43.11982" lon="3.07297">
        <ele>65</ele>
        <time>2012-02-22T08:56:09Z</time>
      </trkpt>
      <trkpt lat="43.1198" lon="3.07287">
        <ele>66</ele>
        <time>2012-02-22T08:56:15Z</time>
      </trkpt>
      <trkpt lat="43.11981" lon="3.07289">
        <ele>66</ele>
        <time>2012-02-22T08:56:22Z</time>
      </trkpt>
      <trkpt lat="43.11981" lon="3.07287">
        <ele>65</ele>
        <time>2012-02-22T08:56:29Z</time>
      </trkpt>
      <trkpt lat="43.11979" lon="3.07286">
        <ele>65</ele>
        <time>2012-02-22T08:56:35Z</time>
      </trkpt>
      <trkpt lat="43.11983" lon="3.07293">
        <ele>64</ele>
        <time>2012-02-22T08:56:42Z</time>
      </trkpt>
      <trkpt lat="43.11985" lon="3.07296">
        <ele>68</ele>
        <time>2012-02-22T08:56:49Z</time>
      </trkpt>
      <trkpt lat="43.11981" lon="3.07307">
        <ele>69</ele>
        <time>2012-02-22T08:56:55Z</time>
      </trkpt>
      <trkpt lat="43.11961" lon="3.07322">
        <ele>69</ele>
        <time>2012-02-22T08:57:02Z</time>
      </trkpt>
      <trkpt lat="43.11935" lon="3.07331">
        <ele>67</ele>
        <time>2012-02-22T08:57:09Z</time>
      </trkpt>
      <trkpt lat="43.11905" lon="3.07339">
        <ele>63</ele>
        <time>2012-02-22T08:57:15Z</time>
      </trkpt>
      <trkpt lat="43.11873" lon="3.07366">
        <ele>60</ele>
        <time>2012-02-22T08:57:22Z</time>
      </trkpt>
      <trkpt lat="43.11867" lon="3.07376">
        <ele>61</ele>
        <time>2012-02-22T08:57:29Z</time>
      </trkpt>
      <trkpt lat="43.11866" lon="3.07378">
        <ele>63</ele>
        <time>2012-02-22T08:57:35Z</time>
      </trkpt>
      <trkpt lat="43.11843" lon="3.07395">
        <ele>59</ele>
        <time>2012-02-22T08:57:42Z</time>
      </trkpt>
      <trkpt lat="43.11829" lon="3.07421">
        <ele>58</ele>
        <time>2012-02-22T08:57:49Z</time>
      </trkpt>
      <trkpt lat="43.1182" lon="3.07441">
        <ele>56</ele>
        <time>2012-02-22T08:57:55Z</time>
      </trkpt>
      <trkpt lat="43.11824" lon="3.07442">
        <ele>55</ele>
        <time>2012-02-22T08:58:02Z</time>
      </trkpt>
      <trkpt lat="43.11838" lon="3.07426">
        <ele>54</ele>
        <time>2012-02-22T08:58:09Z</time>
      </trkpt>
      <trkpt lat="43.11853" lon="3.07414">
        <ele>54</ele>
        <time>2012-02-22T08:58:15Z</time>
      </trkpt>
      <trkpt lat="43.11873" lon="3.07417">
        <ele>53</ele>
        <time>2012-02-22T08:58:22Z</time>
      </trkpt>
      <trkpt lat="43.11894" lon="3.07419">
        <ele>52</ele>
        <time>2012-02-22T08:58:29Z</time>
      </trkpt>
      <trkpt lat="43.11912" lon="3.07421">
        <ele>52</ele>
        <time>2012-02-22T08:58:35Z</time>
      </trkpt>
      <trkpt lat="43.11933" lon="3.07423">
        <ele>53</ele>
        <time>2012-02-22T08:58:42Z</time>
      </trkpt>
      <trkpt lat="43.11953" lon="3.07418">
        <ele>52</ele>
        <time>2012-02-22T08:58:49Z</time>
      </trkpt>
      <trkpt lat="43.11972" lon="3.07415">
        <ele>52</ele>
        <time>2012-02-22T08:58:55Z</time>
      </trkpt>
      <trkpt lat="43.11992" lon="3.0741">
        <ele>54</ele>
        <time>2012-02-22T08:59:02Z</time>
      </trkpt>
      <trkpt lat="43.12012" lon="3.07416">
        <ele>56</ele>
        <time>2012-02-22T08:59:09Z</time>
      </trkpt>
      <trkpt lat="43.12029" lon="3.07425">
        <ele>58</ele>
        <time>2012-02-22T08:59:15Z</time>
      </trkpt>
      <trkpt lat="43.12049" lon="3.07433">
        <ele>58</ele>
        <time>2012-02-22T08:59:22Z</time>
      </trkpt>
      <trkpt lat="43.12068" lon="3.07441">
        <ele>58</ele>
        <time>2012-02-22T08:59:29Z</time>
      </trkpt>
      <trkpt lat="43.12084" lon="3.07448">
        <ele>56</ele>
        <time>2012-02-22T08:59:35Z</time>
      </trkpt>
      <trkpt lat="43.12105" lon="3.07453">
        <ele>55</ele>
        <time>2012-02-22T08:59:42Z</time>
      </trkpt>
      <trkpt lat="43.12124" lon="3.0747">
        <ele>57</ele>
        <time>2012-02-22T08:59:49Z</time>
      </trkpt>
      <trkpt lat="43.12137" lon="3.07479">
        <ele>59</ele>
        <time>2012-02-22T08:59:55Z</time>
      </trkpt>
      <trkpt lat="43.12151" lon="3.07494">
        <ele>62</ele>
        <time>2012-02-22T09:00:02Z</time>
      </trkpt>
      <trkpt lat="43.1217" lon="3.07494">
        <ele>62</ele>
        <time>2012-02-22T09:00:09Z</time>
      </trkpt>
      <trkpt lat="43.12184" lon="3.07491">
        <ele>64</ele>
        <time>2012-02-22T09:00:15Z</time>
      </trkpt>
      <trkpt lat="43.12201" lon="3.07476">
        <ele>64</ele>
        <time>2012-02-22T09:00:22Z</time>
      </trkpt>
      <trkpt lat="43.12214" lon="3.07465">
        <ele>64</ele>
        <time>2012-02-22T09:00:29Z</time>
      </trkpt>
      <trkpt lat="43.1222" lon="3.07472">
        <ele>64</ele>
        <time>2012-02-22T09:00:35Z</time>
      </trkpt>
      <trkpt lat="43.12239" lon="3.07502">
        <ele>65</ele>
        <time>2012-02-22T09:00:42Z</time>
      </trkpt>
      <trkpt lat="43.12258" lon="3.07521">
        <ele>67</ele>
        <time>2012-02-22T09:00:49Z</time>
      </trkpt>
      <trkpt lat="43.12269" lon="3.07521">
        <ele>67</ele>
        <time>2012-02-22T09:00:55Z</time>
      </trkpt>
      <trkpt lat="43.12286" lon="3.07509">
        <ele>67</ele>
        <time>2012-02-22T09:01:02Z</time>
      </trkpt>
      <trkpt lat="43.12302" lon="3.07506">
        <ele>68</ele>
        <time>2012-02-22T09:01:09Z</time>
      </trkpt>
      <trkpt lat="43.12311" lon="3.07499">
        <ele>69</ele>
        <time>2012-02-22T09:01:15Z</time>
      </trkpt>
      <trkpt lat="43.12321" lon="3.07515">
        <ele>74</ele>
        <time>2012-02-22T09:01:22Z</time>
      </trkpt>
      <trkpt lat="43.12319" lon="3.0754">
        <ele>73</ele>
        <time>2012-02-22T09:01:29Z</time>
      </trkpt>
      <trkpt lat="43.12319" lon="3.07561">
        <ele>74</ele>
        <time>2012-02-22T09:01:35Z</time>
      </trkpt>
      <trkpt lat="43.12317" lon="3.07588">
        <ele>75</ele>
        <time>2012-02-22T09:01:42Z</time>
      </trkpt>
      <trkpt lat="43.12314" lon="3.07614">
        <ele>78</ele>
        <time>2012-02-22T09:01:49Z</time>
      </trkpt>
      <trkpt lat="43.12307" lon="3.07634">
        <ele>79</ele>
        <time>2012-02-22T09:01:55Z</time>
      </trkpt>
      <trkpt lat="43.12302" lon="3.07659">
        <ele>80</ele>
        <time>2012-02-22T09:02:02Z</time>
      </trkpt>
      <trkpt lat="43.12294" lon="3.07683">
        <ele>82</ele>
        <time>2012-02-22T09:02:09Z</time>
      </trkpt>
      <trkpt lat="43.12288" lon="3.07708">
        <ele>82</ele>
        <time>2012-02-22T09:02:15Z</time>
      </trkpt>
      <trkpt lat="43.12286" lon="3.07735">
        <ele>82</ele>
        <time>2012-02-22T09:02:22Z</time>
      </trkpt>
      <trkpt lat="43.12286" lon="3.07759">
        <ele>85</ele>
        <time>2012-02-22T09:02:29Z</time>
      </trkpt>
      <trkpt lat="43.12288" lon="3.07783">
        <ele>86</ele>
        <time>2012-02-22T09:02:35Z</time>
      </trkpt>
      <trkpt lat="43.12297" lon="3.07805">
        <ele>87</ele>
        <time>2012-02-22T09:02:42Z</time>
      </trkpt>
      <trkpt lat="43.12304" lon="3.07832">
        <ele>88</ele>
        <time>2012-02-22T09:02:49Z</time>
      </trkpt>
      <trkpt lat="43.12308" lon="3.07853">
        <ele>88</ele>
        <time>2012-02-22T09:02:55Z</time>
      </trkpt>
      <trkpt lat="43.12321" lon="3.07874">
        <ele>90</ele>
        <time>2012-02-22T09:03:02Z</time>
      </trkpt>
      <trkpt lat="43.12328" lon="3.07902">
        <ele>91</ele>
        <time>2012-02-22T09:03:09Z</time>
      </trkpt>
      <trkpt lat="43.12334" lon="3.07934">
        <ele>90</ele>
        <time>2012-02-22T09:03:15Z</time>
      </trkpt>
      <trkpt lat="43.12341" lon="3.07961">
        <ele>89</ele>
        <time>2012-02-22T09:03:22Z</time>
      </trkpt>
      <trkpt lat="43.12353" lon="3.07977">
        <ele>88</ele>
        <time>2012-02-22T09:03:29Z</time>
      </trkpt>
      <trkpt lat="43.12366" lon="3.0799">
        <ele>87</ele>
        <time>2012-02-22T09:03:35Z</time>
      </trkpt>
      <trkpt lat="43.12382" lon="3.08012">
        <ele>87</ele>
        <time>2012-02-22T09:03:42Z</time>
      </trkpt>
      <trkpt lat="43.12393" lon="3.0802">
        <ele>87</ele>
        <time>2012-02-22T09:03:49Z</time>
      </trkpt>
      <trkpt lat="43.12411" lon="3.08018">
        <ele>87</ele>
        <time>2012-02-22T09:03:55Z</time>
      </trkpt>
      <trkpt lat="43.12421" lon="3.08019">
        <ele>88</ele>
        <time>2012-02-22T09:04:02Z</time>
      </trkpt>
      <trkpt lat="43.12428" lon="3.08029">
        <ele>92</ele>
        <time>2012-02-22T09:04:09Z</time>
      </trkpt>
      <trkpt lat="43.12437" lon="3.08039">
        <ele>95</ele>
        <time>2012-02-22T09:04:15Z</time>
      </trkpt>
      <trkpt lat="43.12449" lon="3.08045">
        <ele>98</ele>
        <time>2012-02-22T09:04:22Z</time>
      </trkpt>
      <trkpt lat="43.12461" lon="3.08058">
        <ele>100</ele>
        <time>2012-02-22T09:04:29Z</time>
      </trkpt>
      <trkpt lat="43.12469" lon="3.08064">
        <ele>102</ele>
        <time>2012-02-22T09:04:35Z</time>
      </trkpt>
      <trkpt lat="43.12483" lon="3.08078">
        <ele>102</ele>
        <time>2012-02-22T09:04:42Z</time>
      </trkpt>
      <trkpt lat="43.12494" lon="3.08086">
        <ele>102</ele>
        <time>2012-02-22T09:04:49Z</time>
      </trkpt>
      <trkpt lat="43.12502" lon="3.08091">
        <ele>104</ele>
        <time>2012-02-22T09:04:55Z</time>
      </trkpt>
      <trkpt lat="43.1251" lon="3.081">
        <ele>107</ele>
        <time>2012-02-22T09:05:02Z</time>
      </trkpt>
      <trkpt lat="43.12521" lon="3.08111">
        <ele>110</ele>
        <time>2012-02-22T09:05:09Z</time>
      </trkpt>
      <trkpt lat="43.12537" lon="3.08124">
        <ele>110</ele>
        <time>2012-02-22T09:05:15Z</time>
      </trkpt>
      <trkpt lat="43.12552" lon="3.0814">
        <ele>109</ele>
        <time>2012-02-22T09:05:22Z</time>
      </trkpt>
      <trkpt lat="43.12566" lon="3.08155">
        <ele>109</ele>
        <time>2012-02-22T09:05:29Z</time>
      </trkpt>
      <trkpt lat="43.12574" lon="3.08164">
        <ele>112</ele>
        <time>2012-02-22T09:05:35Z</time>
      </trkpt>
      <trkpt lat="43.12587" lon="3.08179">
        <ele>112</ele>
        <time>2012-02-22T09:05:42Z</time>
      </trkpt>
      <trkpt lat="43.12601" lon="3.0819">
        <ele>111</ele>
        <time>2012-02-22T09:05:49Z</time>
      </trkpt>
      <trkpt lat="43.12615" lon="3.08198">
        <ele>109</ele>
        <time>2012-02-22T09:05:55Z</time>
      </trkpt>
      <trkpt lat="43.12629" lon="3.08216">
        <ele>111</ele>
        <time>2012-02-22T09:06:02Z</time>
      </trkpt>
      <trkpt lat="43.12634" lon="3.08228">
        <ele>112</ele>
        <time>2012-02-22T09:06:09Z</time>
      </trkpt>
      <trkpt lat="43.1263" lon="3.08236">
        <ele>115</ele>
        <time>2012-02-22T09:06:15Z</time>
      </trkpt>
      <trkpt lat="43.12624" lon="3.08253">
        <ele>116</ele>
        <time>2012-02-22T09:06:22Z</time>
      </trkpt>
      <trkpt lat="43.12618" lon="3.08294">
        <ele>117</ele>
        <time>2012-02-22T09:06:29Z</time>
      </trkpt>
      <trkpt lat="43.12611" lon="3.08336">
        <ele>118</ele>
        <time>2012-02-22T09:06:35Z</time>
      </trkpt>
      <trkpt lat="43.12608" lon="3.08378">
        <ele>118</ele>
        <time>2012-02-22T09:06:42Z</time>
      </trkpt>
      <trkpt lat="43.12605" lon="3.08417">
        <ele>117</ele>
        <time>2012-02-22T09:06:49Z</time>
      </trkpt>
      <trkpt lat="43.12597" lon="3.08455">
        <ele>116</ele>
        <time>2012-02-22T09:06:55Z</time>
      </trkpt>
      <trkpt lat="43.12577" lon="3.08491">
        <ele>113</ele>
        <time>2012-02-22T09:07:02Z</time>
      </trkpt>
      <trkpt lat="43.12539" lon="3.08509">
        <ele>111</ele>
        <time>2012-02-22T09:07:09Z</time>
      </trkpt>
      <trkpt lat="43.12514" lon="3.085">
        <ele>110</ele>
        <time>2012-02-22T09:07:15Z</time>
      </trkpt>
      <trkpt lat="43.12494" lon="3.08498">
        <ele>109</ele>
        <time>2012-02-22T09:07:22Z</time>
      </trkpt>
      <trkpt lat="43.12484" lon="3.08509">
        <ele>108</ele>
        <time>2012-02-22T09:07:29Z</time>
      </trkpt>
      <trkpt lat="43.12484" lon="3.08535">
        <ele>109</ele>
        <time>2012-02-22T09:07:35Z</time>
      </trkpt>
      <trkpt lat="43.12478" lon="3.0856">
        <ele>107</ele>
        <time>2012-02-22T09:07:42Z</time>
      </trkpt>
      <trkpt lat="43.12475" lon="3.08579">
        <ele>106</ele>
        <time>2012-02-22T09:07:49Z</time>
      </trkpt>
      <trkpt lat="43.12475" lon="3.08577">
        <ele>107</ele>
        <time>2012-02-22T09:07:55Z</time>
      </trkpt>
      <trkpt lat="43.12476" lon="3.08576">
        <ele>107</ele>
        <time>2012-02-22T09:08:02Z</time>
      </trkpt>
      <trkpt lat="43.1248" lon="3.08581">
        <ele>107</ele>
        <time>2012-02-22T09:08:09Z</time>
      </trkpt>
      <trkpt lat="43.1248" lon="3.08582">
        <ele>107</ele>
        <time>2012-02-22T09:08:15Z</time>
      </trkpt>
      <trkpt lat="43.12479" lon="3.08581">
        <ele>107</ele>
        <time>2012-02-22T09:08:22Z</time>
      </trkpt>
      <trkpt lat="43.1248" lon="3.08582">
        <ele>107</ele>
        <time>2012-02-22T09:08:29Z</time>
      </trkpt>
      <trkpt lat="43.1248" lon="3.08582">
        <ele>107</ele>
        <time>2012-02-22T09:08:35Z</time>
      </trkpt>
      <trkpt lat="43.12479" lon="3.08579">
        <ele>107</ele>
        <time>2012-02-22T09:08:42Z</time>
      </trkpt>
      <trkpt lat="43.12479" lon="3.08579">
        <ele>107</ele>
        <time>2012-02-22T09:08:49Z</time>
      </trkpt>
      <trkpt lat="43.12479" lon="3.08579">
        <ele>107</ele>
        <time>2012-02-22T09:08:55Z</time>
      </trkpt>
      <trkpt lat="43.12479" lon="3.08579">
        <ele>107</ele>
        <time>2012-02-22T09:09:02Z</time>
      </trkpt>
      <trkpt lat="43.12479" lon="3.08579">
        <ele>107</ele>
        <time>2012-02-22T09:09:09Z</time>
      </trkpt>
      <trkpt lat="43.12479" lon="3.08579">
        <ele>107</ele>
        <time>2012-02-22T09:09:15Z</time>
      </trkpt>
      <trkpt lat="43.12479" lon="3.08579">
        <ele>107</ele>
        <time>2012-02-22T09:09:22Z</time>
      </trkpt>
      <trkpt lat="43.12479" lon="3.08579">
        <ele>107</ele>
        <time>2012-02-22T09:09:29Z</time>
      </trkpt>
      <trkpt lat="43.12479" lon="3.08579">
        <ele>107</ele>
        <time>2012-02-22T09:09:35Z</time>
      </trkpt>
      <trkpt lat="43.12479" lon="3.08579">
        <ele>107</ele>
        <time>2012-02-22T09:09:42Z</time>
      </trkpt>
      <trkpt lat="43.12475" lon="3.08581">
        <ele>109</ele>
        <time>2012-02-22T09:09:49Z</time>
      </trkpt>
      <trkpt lat="43.12481" lon="3.08598">
        <ele>108</ele>
        <time>2012-02-22T09:09:55Z</time>
      </trkpt>
      <trkpt lat="43.12479" lon="3.08631">
        <ele>108</ele>
        <time>2012-02-22T09:10:02Z</time>
      </trkpt>
      <trkpt lat="43.12481" lon="3.08658">
        <ele>108</ele>
        <time>2012-02-22T09:10:09Z</time>
      </trkpt>
      <trkpt lat="43.12485" lon="3.08679">
        <ele>108</ele>
        <time>2012-02-22T09:10:15Z</time>
      </trkpt>
      <trkpt lat="43.12485" lon="3.08682">
        <ele>108</ele>
        <time>2012-02-22T09:10:22Z</time>
      </trkpt>
      <trkpt lat="43.12485" lon="3.08689">
        <ele>108</ele>
        <time>2012-02-22T09:10:29Z</time>
      </trkpt>
      <trkpt lat="43.12488" lon="3.08709">
        <ele>107</ele>
        <time>2012-02-22T09:10:35Z</time>
      </trkpt>
      <trkpt lat="43.12498" lon="3.08737">
        <ele>107</ele>
        <time>2012-02-22T09:10:42Z</time>
      </trkpt>
      <trkpt lat="43.12499" lon="3.08761">
        <ele>107</ele>
        <time>2012-02-22T09:10:49Z</time>
      </trkpt>
      <trkpt lat="43.12499" lon="3.08787">
        <ele>106</ele>
        <time>2012-02-22T09:10:55Z</time>
      </trkpt>
      <trkpt lat="43.12498" lon="3.08827">
        <ele>102</ele>
        <time>2012-02-22T09:11:02Z</time>
      </trkpt>
      <trkpt lat="43.12515" lon="3.08863">
        <ele>101</ele>
        <time>2012-02-22T09:11:09Z</time>
      </trkpt>
      <trkpt lat="43.12519" lon="3.08895">
        <ele>100</ele>
        <time>2012-02-22T09:11:15Z</time>
      </trkpt>
      <trkpt lat="43.12529" lon="3.0892">
        <ele>98</ele>
        <time>2012-02-22T09:11:22Z</time>
      </trkpt>
      <trkpt lat="43.12542" lon="3.08947">
        <ele>96</ele>
        <time>2012-02-22T09:11:29Z</time>
      </trkpt>
      <trkpt lat="43.12558" lon="3.08972">
        <ele>95</ele>
        <time>2012-02-22T09:11:35Z</time>
      </trkpt>
      <trkpt lat="43.12574" lon="3.09001">
        <ele>92</ele>
        <time>2012-02-22T09:11:42Z</time>
      </trkpt>
      <trkpt lat="43.12587" lon="3.09044">
        <ele>92</ele>
        <time>2012-02-22T09:11:49Z</time>
      </trkpt>
      <trkpt lat="43.1259" lon="3.09106">
        <ele>90</ele>
        <time>2012-02-22T09:11:55Z</time>
      </trkpt>
      <trkpt lat="43.12573" lon="3.09163">
        <ele>85</ele>
        <time>2012-02-22T09:12:02Z</time>
      </trkpt>
      <trkpt lat="43.12579" lon="3.0921">
        <ele>84</ele>
        <time>2012-02-22T09:12:09Z</time>
      </trkpt>
      <trkpt lat="43.12569" lon="3.0925">
        <ele>79</ele>
        <time>2012-02-22T09:12:15Z</time>
      </trkpt>
      <trkpt lat="43.12555" lon="3.09288">
        <ele>77</ele>
        <time>2012-02-22T09:12:22Z</time>
      </trkpt>
      <trkpt lat="43.12535" lon="3.09328">
        <ele>75</ele>
        <time>2012-02-22T09:12:29Z</time>
      </trkpt>
      <trkpt lat="43.12518" lon="3.09369">
        <ele>75</ele>
        <time>2012-02-22T09:12:35Z</time>
      </trkpt>
      <trkpt lat="43.12508" lon="3.09415">
        <ele>74</ele>
        <time>2012-02-22T09:12:42Z</time>
      </trkpt>
      <trkpt lat="43.12498" lon="3.0946">
        <ele>73</ele>
        <time>2012-02-22T09:12:49Z</time>
      </trkpt>
      <trkpt lat="43.12485" lon="3.09495">
        <ele>72</ele>
        <time>2012-02-22T09:12:55Z</time>
      </trkpt>
      <trkpt lat="43.12496" lon="3.09521">
        <ele>70</ele>
        <time>2012-02-22T09:13:02Z</time>
      </trkpt>
      <trkpt lat="43.12522" lon="3.09521">
        <ele>71</ele>
        <time>2012-02-22T09:13:09Z</time>
      </trkpt>
      <trkpt lat="43.12543" lon="3.09525">
        <ele>70</ele>
        <time>2012-02-22T09:13:15Z</time>
      </trkpt>
      <trkpt lat="43.12566" lon="3.09531">
        <ele>72</ele>
        <time>2012-02-22T09:13:22Z</time>
      </trkpt>
      <trkpt lat="43.12588" lon="3.09533">
        <ele>72</ele>
        <time>2012-02-22T09:13:29Z</time>
      </trkpt>
      <trkpt lat="43.12606" lon="3.09536">
        <ele>74</ele>
        <time>2012-02-22T09:13:35Z</time>
      </trkpt>
      <trkpt lat="43.12628" lon="3.09538">
        <ele>75</ele>
        <time>2012-02-22T09:13:42Z</time>
      </trkpt>
      <trkpt lat="43.12642" lon="3.09538">
        <ele>76</ele>
        <time>2012-02-22T09:13:49Z</time>
      </trkpt>
      <trkpt lat="43.12657" lon="3.09539">
        <ele>77</ele>
        <time>2012-02-22T09:13:55Z</time>
      </trkpt>
      <trkpt lat="43.1267" lon="3.09546">
        <ele>78</ele>
        <time>2012-02-22T09:14:02Z</time>
      </trkpt>
      <trkpt lat="43.12685" lon="3.09566">
        <ele>78</ele>
        <time>2012-02-22T09:14:09Z</time>
      </trkpt>
      <trkpt lat="43.12692" lon="3.09583">
        <ele>78</ele>
        <time>2012-02-22T09:14:15Z</time>
      </trkpt>
      <trkpt lat="43.12702" lon="3.096">
        <ele>79</ele>
        <time>2012-02-22T09:14:22Z</time>
      </trkpt>
      <trkpt lat="43.12712" lon="3.09619">
        <ele>81</ele>
        <time>2012-02-22T09:14:29Z</time>
      </trkpt>
      <trkpt lat="43.12715" lon="3.0964">
        <ele>83</ele>
        <time>2012-02-22T09:14:35Z</time>
      </trkpt>
      <trkpt lat="43.12717" lon="3.09672">
        <ele>83</ele>
        <time>2012-02-22T09:14:42Z</time>
      </trkpt>
      <trkpt lat="43.12719" lon="3.09707">
        <ele>83</ele>
        <time>2012-02-22T09:14:49Z</time>
      </trkpt>
      <trkpt lat="43.12733" lon="3.0973">
        <ele>84</ele>
        <time>2012-02-22T09:14:55Z</time>
      </trkpt>
      <trkpt lat="43.12755" lon="3.09746">
        <ele>84</ele>
        <time>2012-02-22T09:15:02Z</time>
      </trkpt>
      <trkpt lat="43.12779" lon="3.09762">
        <ele>84</ele>
        <time>2012-02-22T09:15:09Z</time>
      </trkpt>
      <trkpt lat="43.12796" lon="3.09779">
        <ele>84</ele>
        <time>2012-02-22T09:15:15Z</time>
      </trkpt>
      <trkpt lat="43.12811" lon="3.09808">
        <ele>85</ele>
        <time>2012-02-22T09:15:22Z</time>
      </trkpt>
      <trkpt lat="43.12807" lon="3.09847">
        <ele>85</ele>
        <time>2012-02-22T09:15:29Z</time>
      </trkpt>
      <trkpt lat="43.12792" lon="3.09891">
        <ele>85</ele>
        <time>2012-02-22T09:15:35Z</time>
      </trkpt>
      <trkpt lat="43.12793" lon="3.09949">
        <ele>85</ele>
        <time>2012-02-22T09:15:42Z</time>
      </trkpt>
      <trkpt lat="43.12801" lon="3.09986">
        <ele>85</ele>
        <time>2012-02-22T09:15:48Z</time>
      </trkpt>
      <trkpt lat="43.12806" lon="3.10003">
        <ele>86</ele>
        <time>2012-02-22T09:15:53Z</time>
      </trkpt>
      <trkpt lat="43.12826" lon="3.10048">
        <ele>84</ele>
        <time>2012-02-22T09:16:00Z</time>
      </trkpt>
      <trkpt lat="43.12836" lon="3.1011">
        <ele>83</ele>
        <time>2012-02-22T09:16:07Z</time>
      </trkpt>
      <trkpt lat="43.12849" lon="3.10154">
        <ele>83</ele>
        <time>2012-02-22T09:16:13Z</time>
      </trkpt>
      <trkpt lat="43.12859" lon="3.10213">
        <ele>81</ele>
        <time>2012-02-22T09:16:20Z</time>
      </trkpt>
      <trkpt lat="43.12855" lon="3.10251">
        <ele>79</ele>
        <time>2012-02-22T09:16:27Z</time>
      </trkpt>
      <trkpt lat="43.12868" lon="3.10262">
        <ele>76</ele>
        <time>2012-02-22T09:16:33Z</time>
      </trkpt>
      <trkpt lat="43.12892" lon="3.10266">
        <ele>76</ele>
        <time>2012-02-22T09:16:40Z</time>
      </trkpt>
      <trkpt lat="43.12915" lon="3.10277">
        <ele>76</ele>
        <time>2012-02-22T09:16:47Z</time>
      </trkpt>
      <trkpt lat="43.1293" lon="3.10284">
        <ele>76</ele>
        <time>2012-02-22T09:16:53Z</time>
      </trkpt>
      <trkpt lat="43.12953" lon="3.10283">
        <ele>77</ele>
        <time>2012-02-22T09:17:00Z</time>
      </trkpt>
      <trkpt lat="43.12978" lon="3.10279">
        <ele>78</ele>
        <time>2012-02-22T09:17:07Z</time>
      </trkpt>
      <trkpt lat="43.12996" lon="3.10286">
        <ele>78</ele>
        <time>2012-02-22T09:17:13Z</time>
      </trkpt>
      <trkpt lat="43.13017" lon="3.1029">
        <ele>79</ele>
        <time>2012-02-22T09:17:20Z</time>
      </trkpt>
      <trkpt lat="43.13037" lon="3.10287">
        <ele>78</ele>
        <time>2012-02-22T09:17:27Z</time>
      </trkpt>
      <trkpt lat="43.1305" lon="3.10286">
        <ele>80</ele>
        <time>2012-02-22T09:17:33Z</time>
      </trkpt>
      <trkpt lat="43.1306" lon="3.1027">
        <ele>81</ele>
        <time>2012-02-22T09:17:40Z</time>
      </trkpt>
      <trkpt lat="43.13068" lon="3.10247">
        <ele>83</ele>
        <time>2012-02-22T09:17:47Z</time>
      </trkpt>
      <trkpt lat="43.13074" lon="3.10234">
        <ele>83</ele>
        <time>2012-02-22T09:17:53Z</time>
      </trkpt>
      <trkpt lat="43.13079" lon="3.10223">
        <ele>85</ele>
        <time>2012-02-22T09:18:00Z</time>
      </trkpt>
      <trkpt lat="43.13082" lon="3.10218">
        <ele>86</ele>
        <time>2012-02-22T09:18:07Z</time>
      </trkpt>
      <trkpt lat="43.13082" lon="3.10215">
        <ele>86</ele>
        <time>2012-02-22T09:18:13Z</time>
      </trkpt>
      <trkpt lat="43.13082" lon="3.10214">
        <ele>85</ele>
        <time>2012-02-22T09:18:20Z</time>
      </trkpt>
      <trkpt lat="43.13082" lon="3.10214">
        <ele>85</ele>
        <time>2012-02-22T09:18:27Z</time>
      </trkpt>
      <trkpt lat="43.13083" lon="3.10215">
        <ele>84</ele>
        <time>2012-02-22T09:18:33Z</time>
      </trkpt>
      <trkpt lat="43.13088" lon="3.10214">
        <ele>82</ele>
        <time>2012-02-22T09:18:40Z</time>
      </trkpt>
      <trkpt lat="43.13099" lon="3.10212">
        <ele>82</ele>
        <time>2012-02-22T09:18:47Z</time>
      </trkpt>
      <trkpt lat="43.13111" lon="3.10211">
        <ele>86</ele>
        <time>2012-02-22T09:18:53Z</time>
      </trkpt>
      <trkpt lat="43.13127" lon="3.10213">
        <ele>85</ele>
        <time>2012-02-22T09:19:00Z</time>
      </trkpt>
      <trkpt lat="43.1315" lon="3.10222">
        <ele>82</ele>
        <time>2012-02-22T09:19:07Z</time>
      </trkpt>
      <trkpt lat="43.13175" lon="3.10239">
        <ele>81</ele>
        <time>2012-02-22T09:19:13Z</time>
      </trkpt>
      <trkpt lat="43.13196" lon="3.10252">
        <ele>82</ele>
        <time>2012-02-22T09:19:20Z</time>
      </trkpt>
      <trkpt lat="43.13216" lon="3.10266">
        <ele>82</ele>
        <time>2012-02-22T09:19:27Z</time>
      </trkpt>
      <trkpt lat="43.13234" lon="3.10279">
        <ele>82</ele>
        <time>2012-02-22T09:19:33Z</time>
      </trkpt>
      <trkpt lat="43.13256" lon="3.10281">
        <ele>85</ele>
        <time>2012-02-22T09:19:40Z</time>
      </trkpt>
      <trkpt lat="43.13274" lon="3.10278">
        <ele>86</ele>
        <time>2012-02-22T09:19:47Z</time>
      </trkpt>
      <trkpt lat="43.13287" lon="3.10277">
        <ele>86</ele>
        <time>2012-02-22T09:19:53Z</time>
      </trkpt>
      <trkpt lat="43.13302" lon="3.10274">
        <ele>86</ele>
        <time>2012-02-22T09:20:00Z</time>
      </trkpt>
      <trkpt lat="43.13315" lon="3.1027">
        <ele>84</ele>
        <time>2012-02-22T09:20:07Z</time>
      </trkpt>
      <trkpt lat="43.13318" lon="3.10268">
        <ele>85</ele>
        <time>2012-02-22T09:20:13Z</time>
      </trkpt>
      <trkpt lat="43.1333" lon="3.1026">
        <ele>87</ele>
        <time>2012-02-22T09:20:20Z</time>
      </trkpt>
      <trkpt lat="43.13341" lon="3.10257">
        <ele>86</ele>
        <time>2012-02-22T09:20:27Z</time>
      </trkpt>
      <trkpt lat="43.1335" lon="3.10255">
        <ele>90</ele>
        <time>2012-02-22T09:20:33Z</time>
      </trkpt>
      <trkpt lat="43.13357" lon="3.10254">
        <ele>94</ele>
        <time>2012-02-22T09:20:38Z</time>
      </trkpt>
      <trkpt lat="43.13368" lon="3.10254">
        <ele>97</ele>
        <time>2012-02-22T09:20:43Z</time>
      </trkpt>
      <trkpt lat="43.13386" lon="3.10249">
        <ele>98</ele>
        <time>2012-02-22T09:20:48Z</time>
      </trkpt>
      <trkpt lat="43.13421" lon="3.10235">
        <ele>97</ele>
        <time>2012-02-22T09:20:55Z</time>
      </trkpt>
      <trkpt lat="43.13435" lon="3.10208">
        <ele>96</ele>
        <time>2012-02-22T09:21:02Z</time>
      </trkpt>
      <trkpt lat="43.13445" lon="3.10183">
        <ele>95</ele>
        <time>2012-02-22T09:21:08Z</time>
      </trkpt>
      <trkpt lat="43.13444" lon="3.10163">
        <ele>91</ele>
        <time>2012-02-22T09:21:15Z</time>
      </trkpt>
      <trkpt lat="43.13449" lon="3.10155">
        <ele>91</ele>
        <time>2012-02-22T09:21:22Z</time>
      </trkpt>
      <trkpt lat="43.1345" lon="3.10143">
        <ele>90</ele>
        <time>2012-02-22T09:21:28Z</time>
      </trkpt>
      <trkpt lat="43.13458" lon="3.10136">
        <ele>91</ele>
        <time>2012-02-22T09:21:35Z</time>
      </trkpt>
      <trkpt lat="43.13463" lon="3.10116">
        <ele>90</ele>
        <time>2012-02-22T09:21:42Z</time>
      </trkpt>
      <trkpt lat="43.13464" lon="3.10109">
        <ele>91</ele>
        <time>2012-02-22T09:21:48Z</time>
      </trkpt>
      <trkpt lat="43.13467" lon="3.10109">
        <ele>95</ele>
        <time>2012-02-22T09:21:55Z</time>
      </trkpt>
      <trkpt lat="43.1347" lon="3.10109">
        <ele>95</ele>
        <time>2012-02-22T09:22:02Z</time>
      </trkpt>
      <trkpt lat="43.13469" lon="3.10108">
        <ele>95</ele>
        <time>2012-02-22T09:22:08Z</time>
      </trkpt>
      <trkpt lat="43.13469" lon="3.10108">
        <ele>95</ele>
        <time>2012-02-22T09:22:15Z</time>
      </trkpt>
      <trkpt lat="43.13479" lon="3.10102">
        <ele>96</ele>
        <time>2012-02-22T09:22:22Z</time>
      </trkpt>
      <trkpt lat="43.13492" lon="3.10099">
        <ele>95</ele>
        <time>2012-02-22T09:22:28Z</time>
      </trkpt>
      <trkpt lat="43.13513" lon="3.10091">
        <ele>93</ele>
        <time>2012-02-22T09:22:35Z</time>
      </trkpt>
      <trkpt lat="43.13532" lon="3.10091">
        <ele>91</ele>
        <time>2012-02-22T09:22:42Z</time>
      </trkpt>
      <trkpt lat="43.1354" lon="3.10111">
        <ele>95</ele>
        <time>2012-02-22T09:22:48Z</time>
      </trkpt>
      <trkpt lat="43.13549" lon="3.10143">
        <ele>96</ele>
        <time>2012-02-22T09:22:55Z</time>
      </trkpt>
      <trkpt lat="43.13566" lon="3.10161">
        <ele>97</ele>
        <time>2012-02-22T09:23:02Z</time>
      </trkpt>
      <trkpt lat="43.13576" lon="3.10165">
        <ele>95</ele>
        <time>2012-02-22T09:23:08Z</time>
      </trkpt>
      <trkpt lat="43.13579" lon="3.10155">
        <ele>94</ele>
        <time>2012-02-22T09:23:15Z</time>
      </trkpt>
      <trkpt lat="43.1357" lon="3.10139">
        <ele>94</ele>
        <time>2012-02-22T09:23:22Z</time>
      </trkpt>
      <trkpt lat="43.13571" lon="3.10121">
        <ele>94</ele>
        <time>2012-02-22T09:23:28Z</time>
      </trkpt>
      <trkpt lat="43.13576" lon="3.10095">
        <ele>94</ele>
        <time>2012-02-22T09:23:35Z</time>
      </trkpt>
      <trkpt lat="43.13589" lon="3.10076">
        <ele>95</ele>
        <time>2012-02-22T09:23:42Z</time>
      </trkpt>
      <trkpt lat="43.136" lon="3.10071">
        <ele>98</ele>
        <time>2012-02-22T09:23:48Z</time>
      </trkpt>
      <trkpt lat="43.13608" lon="3.10065">
        <ele>101</ele>
        <time>2012-02-22T09:23:55Z</time>
      </trkpt>
      <trkpt lat="43.13614" lon="3.1006">
        <ele>104</ele>
        <time>2012-02-22T09:24:02Z</time>
      </trkpt>
      <trkpt lat="43.13617" lon="3.10061">
        <ele>104</ele>
        <time>2012-02-22T09:24:08Z</time>
      </trkpt>
      <trkpt lat="43.13617" lon="3.10061">
        <ele>104</ele>
        <time>2012-02-22T09:24:15Z</time>
      </trkpt>
      <trkpt lat="43.13617" lon="3.10061">
        <ele>104</ele>
        <time>2012-02-22T09:24:22Z</time>
      </trkpt>
      <trkpt lat="43.13616" lon="3.10061">
        <ele>108</ele>
        <time>2012-02-22T09:24:28Z</time>
      </trkpt>
      <trkpt lat="43.13617" lon="3.10061">
        <ele>108</ele>
        <time>2012-02-22T09:24:35Z</time>
      </trkpt>
      <trkpt lat="43.13617" lon="3.10061">
        <ele>108</ele>
        <time>2012-02-22T09:24:42Z</time>
      </trkpt>
      <trkpt lat="43.13617" lon="3.10061">
        <ele>108</ele>
        <time>2012-02-22T09:24:48Z</time>
      </trkpt>
      <trkpt lat="43.13617" lon="3.10061">
        <ele>108</ele>
        <time>2012-02-22T09:24:55Z</time>
      </trkpt>
      <trkpt lat="43.13617" lon="3.1006">
        <ele>108</ele>
        <time>2012-02-22T09:25:02Z</time>
      </trkpt>
      <trkpt lat="43.13617" lon="3.1006">
        <ele>108</ele>
        <time>2012-02-22T09:25:08Z</time>
      </trkpt>
      <trkpt lat="43.13617" lon="3.10061">
        <ele>108</ele>
        <time>2012-02-22T09:25:15Z</time>
      </trkpt>
      <trkpt lat="43.13613" lon="3.10061">
        <ele>107</ele>
        <time>2012-02-22T09:25:22Z</time>
      </trkpt>
      <trkpt lat="43.1361" lon="3.1006">
        <ele>106</ele>
        <time>2012-02-22T09:25:28Z</time>
      </trkpt>
      <trkpt lat="43.13607" lon="3.10061">
        <ele>103</ele>
        <time>2012-02-22T09:25:35Z</time>
      </trkpt>
      <trkpt lat="43.13608" lon="3.10062">
        <ele>104</ele>
        <time>2012-02-22T09:25:42Z</time>
      </trkpt>
      <trkpt lat="43.13611" lon="3.10059">
        <ele>106</ele>
        <time>2012-02-22T09:25:48Z</time>
      </trkpt>
      <trkpt lat="43.13616" lon="3.10059">
        <ele>107</ele>
        <time>2012-02-22T09:25:55Z</time>
      </trkpt>
      <trkpt lat="43.1362" lon="3.10048">
        <ele>107</ele>
        <time>2012-02-22T09:26:02Z</time>
      </trkpt>
      <trkpt lat="43.13628" lon="3.10042">
        <ele>109</ele>
        <time>2012-02-22T09:26:08Z</time>
      </trkpt>
      <trkpt lat="43.13638" lon="3.10028">
        <ele>110</ele>
        <time>2012-02-22T09:26:15Z</time>
      </trkpt>
      <trkpt lat="43.13651" lon="3.10017">
        <ele>109</ele>
        <time>2012-02-22T09:26:22Z</time>
      </trkpt>
      <trkpt lat="43.13652" lon="3.10003">
        <ele>106</ele>
        <time>2012-02-22T09:26:28Z</time>
      </trkpt>
      <trkpt lat="43.13652" lon="3.09981">
        <ele>104</ele>
        <time>2012-02-22T09:26:35Z</time>
      </trkpt>
      <trkpt lat="43.1366" lon="3.0997">
        <ele>105</ele>
        <time>2012-02-22T09:26:42Z</time>
      </trkpt>
      <trkpt lat="43.13671" lon="3.0996">
        <ele>106</ele>
        <time>2012-02-22T09:26:48Z</time>
      </trkpt>
      <trkpt lat="43.13678" lon="3.09959">
        <ele>109</ele>
        <time>2012-02-22T09:26:55Z</time>
      </trkpt>
      <trkpt lat="43.13685" lon="3.09964">
        <ele>110</ele>
        <time>2012-02-22T09:27:02Z</time>
      </trkpt>
      <trkpt lat="43.13694" lon="3.09969">
        <ele>110</ele>
        <time>2012-02-22T09:27:08Z</time>
      </trkpt>
      <trkpt lat="43.13705" lon="3.0998">
        <ele>112</ele>
        <time>2012-02-22T09:27:15Z</time>
      </trkpt>
      <trkpt lat="43.13716" lon="3.09971">
        <ele>111</ele>
        <time>2012-02-22T09:27:22Z</time>
      </trkpt>
      <trkpt lat="43.13725" lon="3.09969">
        <ele>109</ele>
        <time>2012-02-22T09:27:28Z</time>
      </trkpt>
      <trkpt lat="43.13735" lon="3.09962">
        <ele>111</ele>
        <time>2012-02-22T09:27:35Z</time>
      </trkpt>
      <trkpt lat="43.13745" lon="3.09957">
        <ele>115</ele>
        <time>2012-02-22T09:27:42Z</time>
      </trkpt>
      <trkpt lat="43.1375" lon="3.09953">
        <ele>117</ele>
        <time>2012-02-22T09:27:48Z</time>
      </trkpt>
      <trkpt lat="43.13763" lon="3.09948">
        <ele>118</ele>
        <time>2012-02-22T09:27:55Z</time>
      </trkpt>
      <trkpt lat="43.13772" lon="3.09952">
        <ele>119</ele>
        <time>2012-02-22T09:28:02Z</time>
      </trkpt>
      <trkpt lat="43.13777" lon="3.09959">
        <ele>121</ele>
        <time>2012-02-22T09:28:08Z</time>
      </trkpt>
      <trkpt lat="43.13788" lon="3.09969">
        <ele>123</ele>
        <time>2012-02-22T09:28:15Z</time>
      </trkpt>
      <trkpt lat="43.13797" lon="3.09978">
        <ele>123</ele>
        <time>2012-02-22T09:28:22Z</time>
      </trkpt>
      <trkpt lat="43.13807" lon="3.09987">
        <ele>123</ele>
        <time>2012-02-22T09:28:28Z</time>
      </trkpt>
      <trkpt lat="43.13817" lon="3.09999">
        <ele>123</ele>
        <time>2012-02-22T09:28:35Z</time>
      </trkpt>
      <trkpt lat="43.1383" lon="3.10004">
        <ele>122</ele>
        <time>2012-02-22T09:28:42Z</time>
      </trkpt>
      <trkpt lat="43.1384" lon="3.10003">
        <ele>122</ele>
        <time>2012-02-22T09:28:48Z</time>
      </trkpt>
      <trkpt lat="43.13851" lon="3.10004">
        <ele>124</ele>
        <time>2012-02-22T09:28:55Z</time>
      </trkpt>
      <trkpt lat="43.13861" lon="3.10006">
        <ele>127</ele>
        <time>2012-02-22T09:29:02Z</time>
      </trkpt>
      <trkpt lat="43.13872" lon="3.10012">
        <ele>127</ele>
        <time>2012-02-22T09:29:08Z</time>
      </trkpt>
      <trkpt lat="43.13884" lon="3.10004">
        <ele>130</ele>
        <time>2012-02-22T09:29:15Z</time>
      </trkpt>
      <trkpt lat="43.1389" lon="3.09996">
        <ele>133</ele>
        <time>2012-02-22T09:29:22Z</time>
      </trkpt>
      <trkpt lat="43.13896" lon="3.09989">
        <ele>134</ele>
        <time>2012-02-22T09:29:28Z</time>
      </trkpt>
      <trkpt lat="43.13903" lon="3.09974">
        <ele>134</ele>
        <time>2012-02-22T09:29:35Z</time>
      </trkpt>
      <trkpt lat="43.13909" lon="3.09965">
        <ele>136</ele>
        <time>2012-02-22T09:29:42Z</time>
      </trkpt>
      <trkpt lat="43.13916" lon="3.09952">
        <ele>138</ele>
        <time>2012-02-22T09:29:48Z</time>
      </trkpt>
      <trkpt lat="43.13919" lon="3.09941">
        <ele>142</ele>
        <time>2012-02-22T09:29:55Z</time>
      </trkpt>
      <trkpt lat="43.13925" lon="3.09924">
        <ele>143</ele>
        <time>2012-02-22T09:30:02Z</time>
      </trkpt>
      <trkpt lat="43.13929" lon="3.09907">
        <ele>141</ele>
        <time>2012-02-22T09:30:08Z</time>
      </trkpt>
      <trkpt lat="43.13932" lon="3.0989">
        <ele>142</ele>
        <time>2012-02-22T09:30:15Z</time>
      </trkpt>
      <trkpt lat="43.13942" lon="3.09874">
        <ele>142</ele>
        <time>2012-02-22T09:30:22Z</time>
      </trkpt>
      <trkpt lat="43.13947" lon="3.09857">
        <ele>140</ele>
        <time>2012-02-22T09:30:28Z</time>
      </trkpt>
      <trkpt lat="43.13953" lon="3.09834">
        <ele>139</ele>
        <time>2012-02-22T09:30:35Z</time>
      </trkpt>
      <trkpt lat="43.13959" lon="3.0982">
        <ele>140</ele>
        <time>2012-02-22T09:30:42Z</time>
      </trkpt>
      <trkpt lat="43.13971" lon="3.09805">
        <ele>139</ele>
        <time>2012-02-22T09:30:48Z</time>
      </trkpt>
      <trkpt lat="43.13983" lon="3.09805">
        <ele>134</ele>
        <time>2012-02-22T09:30:55Z</time>
      </trkpt>
      <trkpt lat="43.13982" lon="3.09818">
        <ele>135</ele>
        <time>2012-02-22T09:31:01Z</time>
      </trkpt>
      <trkpt lat="43.13988" lon="3.09834">
        <ele>134</ele>
        <time>2012-02-22T09:31:07Z</time>
      </trkpt>
      <trkpt lat="43.13992" lon="3.09856">
        <ele>138</ele>
        <time>2012-02-22T09:31:14Z</time>
      </trkpt>
      <trkpt lat="43.13996" lon="3.09875">
        <ele>141</ele>
        <time>2012-02-22T09:31:21Z</time>
      </trkpt>
      <trkpt lat="43.13999" lon="3.09889">
        <ele>145</ele>
        <time>2012-02-22T09:31:27Z</time>
      </trkpt>
      <trkpt lat="43.1401" lon="3.09908">
        <ele>145</ele>
        <time>2012-02-22T09:31:34Z</time>
      </trkpt>
      <trkpt lat="43.14022" lon="3.09924">
        <ele>145</ele>
        <time>2012-02-22T09:31:41Z</time>
      </trkpt>
      <trkpt lat="43.14023" lon="3.09936">
        <ele>146</ele>
        <time>2012-02-22T09:31:47Z</time>
      </trkpt>
      <trkpt lat="43.14023" lon="3.09956">
        <ele>147</ele>
        <time>2012-02-22T09:31:53Z</time>
      </trkpt>
      <trkpt lat="43.14031" lon="3.09968">
        <ele>148</ele>
        <time>2012-02-22T09:32:00Z</time>
      </trkpt>
      <trkpt lat="43.14042" lon="3.09964">
        <ele>150</ele>
        <time>2012-02-22T09:32:06Z</time>
      </trkpt>
      <trkpt lat="43.14053" lon="3.09955">
        <ele>150</ele>
        <time>2012-02-22T09:32:13Z</time>
      </trkpt>
      <trkpt lat="43.14063" lon="3.09946">
        <ele>149</ele>
        <time>2012-02-22T09:32:20Z</time>
      </trkpt>
      <trkpt lat="43.14073" lon="3.09946">
        <ele>149</ele>
        <time>2012-02-22T09:32:26Z</time>
      </trkpt>
      <trkpt lat="43.1408" lon="3.09935">
        <ele>150</ele>
        <time>2012-02-22T09:32:33Z</time>
      </trkpt>
      <trkpt lat="43.14087" lon="3.09922">
        <ele>152</ele>
        <time>2012-02-22T09:32:40Z</time>
      </trkpt>
      <trkpt lat="43.14094" lon="3.09912">
        <ele>152</ele>
        <time>2012-02-22T09:32:46Z</time>
      </trkpt>
      <trkpt lat="43.14102" lon="3.09902">
        <ele>150</ele>
        <time>2012-02-22T09:32:53Z</time>
      </trkpt>
      <trkpt lat="43.14102" lon="3.09893">
        <ele>152</ele>
        <time>2012-02-22T09:33:00Z</time>
      </trkpt>
      <trkpt lat="43.14098" lon="3.09882">
        <ele>153</ele>
        <time>2012-02-22T09:33:06Z</time>
      </trkpt>
      <trkpt lat="43.14092" lon="3.09866">
        <ele>154</ele>
        <time>2012-02-22T09:33:13Z</time>
      </trkpt>
      <trkpt lat="43.14092" lon="3.09855">
        <ele>156</ele>
        <time>2012-02-22T09:33:20Z</time>
      </trkpt>
      <trkpt lat="43.14095" lon="3.09842">
        <ele>157</ele>
        <time>2012-02-22T09:33:26Z</time>
      </trkpt>
      <trkpt lat="43.14097" lon="3.09834">
        <ele>159</ele>
        <time>2012-02-22T09:33:33Z</time>
      </trkpt>
      <trkpt lat="43.14099" lon="3.09826">
        <ele>162</ele>
        <time>2012-02-22T09:33:40Z</time>
      </trkpt>
      <trkpt lat="43.14106" lon="3.09819">
        <ele>165</ele>
        <time>2012-02-22T09:33:46Z</time>
      </trkpt>
      <trkpt lat="43.14114" lon="3.09809">
        <ele>169</ele>
        <time>2012-02-22T09:33:53Z</time>
      </trkpt>
      <trkpt lat="43.14118" lon="3.09792">
        <ele>169</ele>
        <time>2012-02-22T09:34:00Z</time>
      </trkpt>
      <trkpt lat="43.14122" lon="3.09782">
        <ele>170</ele>
        <time>2012-02-22T09:34:06Z</time>
      </trkpt>
      <trkpt lat="43.14129" lon="3.09772">
        <ele>171</ele>
        <time>2012-02-22T09:34:13Z</time>
      </trkpt>
      <trkpt lat="43.14133" lon="3.09764">
        <ele>173</ele>
        <time>2012-02-22T09:34:20Z</time>
      </trkpt>
      <trkpt lat="43.14134" lon="3.09753">
        <ele>173</ele>
        <time>2012-02-22T09:34:26Z</time>
      </trkpt>
      <trkpt lat="43.14133" lon="3.0974">
        <ele>173</ele>
        <time>2012-02-22T09:34:33Z</time>
      </trkpt>
      <trkpt lat="43.14134" lon="3.09723">
        <ele>173</ele>
        <time>2012-02-22T09:34:40Z</time>
      </trkpt>
      <trkpt lat="43.14134" lon="3.09709">
        <ele>172</ele>
        <time>2012-02-22T09:34:46Z</time>
      </trkpt>
      <trkpt lat="43.14135" lon="3.09694">
        <ele>172</ele>
        <time>2012-02-22T09:34:53Z</time>
      </trkpt>
      <trkpt lat="43.14135" lon="3.09679">
        <ele>174</ele>
        <time>2012-02-22T09:35:00Z</time>
      </trkpt>
      <trkpt lat="43.14134" lon="3.09668">
        <ele>175</ele>
        <time>2012-02-22T09:35:06Z</time>
      </trkpt>
      <trkpt lat="43.14134" lon="3.09657">
        <ele>178</ele>
        <time>2012-02-22T09:35:13Z</time>
      </trkpt>
      <trkpt lat="43.14135" lon="3.09645">
        <ele>181</ele>
        <time>2012-02-22T09:35:20Z</time>
      </trkpt>
      <trkpt lat="43.14139" lon="3.09635">
        <ele>181</ele>
        <time>2012-02-22T09:35:26Z</time>
      </trkpt>
      <trkpt lat="43.14142" lon="3.09625">
        <ele>182</ele>
        <time>2012-02-22T09:35:33Z</time>
      </trkpt>
      <trkpt lat="43.14145" lon="3.09609">
        <ele>183</ele>
        <time>2012-02-22T09:35:40Z</time>
      </trkpt>
      <trkpt lat="43.14147" lon="3.09594">
        <ele>184</ele>
        <time>2012-02-22T09:35:46Z</time>
      </trkpt>
      <trkpt lat="43.14143" lon="3.09581">
        <ele>184</ele>
        <time>2012-02-22T09:35:53Z</time>
      </trkpt>
      <trkpt lat="43.14133" lon="3.09569">
        <ele>186</ele>
        <time>2012-02-22T09:36:00Z</time>
      </trkpt>
      <trkpt lat="43.14127" lon="3.09558">
        <ele>189</ele>
        <time>2012-02-22T09:36:06Z</time>
      </trkpt>
      <trkpt lat="43.14118" lon="3.0955">
        <ele>190</ele>
        <time>2012-02-22T09:36:13Z</time>
      </trkpt>
      <trkpt lat="43.1411" lon="3.09541">
        <ele>190</ele>
        <time>2012-02-22T09:36:20Z</time>
      </trkpt>
      <trkpt lat="43.14103" lon="3.09536">
        <ele>191</ele>
        <time>2012-02-22T09:36:26Z</time>
      </trkpt>
      <trkpt lat="43.14094" lon="3.09529">
        <ele>193</ele>
        <time>2012-02-22T09:36:33Z</time>
      </trkpt>
      <trkpt lat="43.14083" lon="3.09522">
        <ele>194</ele>
        <time>2012-02-22T09:36:40Z</time>
      </trkpt>
      <trkpt lat="43.14074" lon="3.09516">
        <ele>196</ele>
        <time>2012-02-22T09:36:46Z</time>
      </trkpt>
      <trkpt lat="43.14065" lon="3.09507">
        <ele>197</ele>
        <time>2012-02-22T09:36:53Z</time>
      </trkpt>
      <trkpt lat="43.14055" lon="3.09502">
        <ele>197</ele>
        <time>2012-02-22T09:37:00Z</time>
      </trkpt>
      <trkpt lat="43.14048" lon="3.09497">
        <ele>198</ele>
        <time>2012-02-22T09:37:06Z</time>
      </trkpt>
      <trkpt lat="43.14038" lon="3.09488">
        <ele>200</ele>
        <time>2012-02-22T09:37:13Z</time>
      </trkpt>
      <trkpt lat="43.14029" lon="3.0948">
        <ele>199</ele>
        <time>2012-02-22T09:37:20Z</time>
      </trkpt>
      <trkpt lat="43.14022" lon="3.09473">
        <ele>198</ele>
        <time>2012-02-22T09:37:26Z</time>
      </trkpt>
      <trkpt lat="43.14026" lon="3.09461">
        <ele>199</ele>
        <time>2012-02-22T09:37:33Z</time>
      </trkpt>
      <trkpt lat="43.14037" lon="3.09463">
        <ele>198</ele>
        <time>2012-02-22T09:37:40Z</time>
      </trkpt>
      <trkpt lat="43.14045" lon="3.09467">
        <ele>197</ele>
        <time>2012-02-22T09:37:46Z</time>
      </trkpt>
      <trkpt lat="43.14059" lon="3.09471">
        <ele>197</ele>
        <time>2012-02-22T09:37:53Z</time>
      </trkpt>
      <trkpt lat="43.14076" lon="3.09476">
        <ele>197</ele>
        <time>2012-02-22T09:38:00Z</time>
      </trkpt>
      <trkpt lat="43.14086" lon="3.09475">
        <ele>199</ele>
        <time>2012-02-22T09:38:06Z</time>
      </trkpt>
      <trkpt lat="43.14097" lon="3.0948">
        <ele>200</ele>
        <time>2012-02-22T09:38:13Z</time>
      </trkpt>
      <trkpt lat="43.14113" lon="3.0949">
        <ele>200</ele>
        <time>2012-02-22T09:38:20Z</time>
      </trkpt>
      <trkpt lat="43.14127" lon="3.09498">
        <ele>199</ele>
        <time>2012-02-22T09:38:26Z</time>
      </trkpt>
      <trkpt lat="43.14147" lon="3.09511">
        <ele>198</ele>
        <time>2012-02-22T09:38:33Z</time>
      </trkpt>
      <trkpt lat="43.14167" lon="3.09522">
        <ele>198</ele>
        <time>2012-02-22T09:38:40Z</time>
      </trkpt>
      <trkpt lat="43.14183" lon="3.09528">
        <ele>198</ele>
        <time>2012-02-22T09:38:46Z</time>
      </trkpt>
      <trkpt lat="43.142" lon="3.0953">
        <ele>197</ele>
        <time>2012-02-22T09:38:53Z</time>
      </trkpt>
      <trkpt lat="43.1422" lon="3.09525">
        <ele>197</ele>
        <time>2012-02-22T09:39:00Z</time>
      </trkpt>
      <trkpt lat="43.14235" lon="3.0953">
        <ele>197</ele>
        <time>2012-02-22T09:39:06Z</time>
      </trkpt>
      <trkpt lat="43.14255" lon="3.09534">
        <ele>197</ele>
        <time>2012-02-22T09:39:13Z</time>
      </trkpt>
      <trkpt lat="43.14274" lon="3.09538">
        <ele>198</ele>
        <time>2012-02-22T09:39:20Z</time>
      </trkpt>
      <trkpt lat="43.1429" lon="3.09547">
        <ele>199</ele>
        <time>2012-02-22T09:39:26Z</time>
      </trkpt>
      <trkpt lat="43.14308" lon="3.09554">
        <ele>201</ele>
        <time>2012-02-22T09:39:33Z</time>
      </trkpt>
      <trkpt lat="43.14327" lon="3.09561">
        <ele>200</ele>
        <time>2012-02-22T09:39:40Z</time>
      </trkpt>
      <trkpt lat="43.14344" lon="3.09566">
        <ele>198</ele>
        <time>2012-02-22T09:39:46Z</time>
      </trkpt>
      <trkpt lat="43.14366" lon="3.09556">
        <ele>198</ele>
        <time>2012-02-22T09:39:53Z</time>
      </trkpt>
      <trkpt lat="43.14377" lon="3.09546">
        <ele>203</ele>
        <time>2012-02-22T09:40:00Z</time>
      </trkpt>
      <trkpt lat="43.14392" lon="3.09531">
        <ele>205</ele>
        <time>2012-02-22T09:40:06Z</time>
      </trkpt>
      <trkpt lat="43.14406" lon="3.09528">
        <ele>207</ele>
        <time>2012-02-22T09:40:13Z</time>
      </trkpt>
      <trkpt lat="43.14425" lon="3.0953">
        <ele>208</ele>
        <time>2012-02-22T09:40:20Z</time>
      </trkpt>
      <trkpt lat="43.1444" lon="3.09531">
        <ele>206</ele>
        <time>2012-02-22T09:40:26Z</time>
      </trkpt>
      <trkpt lat="43.14454" lon="3.09533">
        <ele>207</ele>
        <time>2012-02-22T09:40:33Z</time>
      </trkpt>
      <trkpt lat="43.14466" lon="3.09541">
        <ele>207</ele>
        <time>2012-02-22T09:40:40Z</time>
      </trkpt>
      <trkpt lat="43.14478" lon="3.09545">
        <ele>206</ele>
        <time>2012-02-22T09:40:46Z</time>
      </trkpt>
      <trkpt lat="43.14493" lon="3.0955">
        <ele>207</ele>
        <time>2012-02-22T09:40:53Z</time>
      </trkpt>
      <trkpt lat="43.14508" lon="3.09555">
        <ele>209</ele>
        <time>2012-02-22T09:41:00Z</time>
      </trkpt>
      <trkpt lat="43.14517" lon="3.09552">
        <ele>208</ele>
        <time>2012-02-22T09:41:06Z</time>
      </trkpt>
      <trkpt lat="43.14523" lon="3.09548">
        <ele>210</ele>
        <time>2012-02-22T09:41:13Z</time>
      </trkpt>
      <trkpt lat="43.14526" lon="3.09548">
        <ele>210</ele>
        <time>2012-02-22T09:41:20Z</time>
      </trkpt>
      <trkpt lat="43.14529" lon="3.09541">
        <ele>209</ele>
        <time>2012-02-22T09:41:26Z</time>
      </trkpt>
      <trkpt lat="43.1454" lon="3.09529">
        <ele>208</ele>
        <time>2012-02-22T09:41:33Z</time>
      </trkpt>
      <trkpt lat="43.14551" lon="3.09511">
        <ele>207</ele>
        <time>2012-02-22T09:41:40Z</time>
      </trkpt>
      <trkpt lat="43.14561" lon="3.09494">
        <ele>205</ele>
        <time>2012-02-22T09:41:46Z</time>
      </trkpt>
      <trkpt lat="43.14574" lon="3.09474">
        <ele>206</ele>
        <time>2012-02-22T09:41:53Z</time>
      </trkpt>
      <trkpt lat="43.14587" lon="3.09459">
        <ele>208</ele>
        <time>2012-02-22T09:42:00Z</time>
      </trkpt>
      <trkpt lat="43.14597" lon="3.09444">
        <ele>210</ele>
        <time>2012-02-22T09:42:06Z</time>
      </trkpt>
      <trkpt lat="43.14619" lon="3.0945">
        <ele>210</ele>
        <time>2012-02-22T09:42:13Z</time>
      </trkpt>
      <trkpt lat="43.14636" lon="3.09479">
        <ele>210</ele>
        <time>2012-02-22T09:42:20Z</time>
      </trkpt>
      <trkpt lat="43.14647" lon="3.09502">
        <ele>211</ele>
        <time>2012-02-22T09:42:26Z</time>
      </trkpt>
      <trkpt lat="43.14664" lon="3.09531">
        <ele>212</ele>
        <time>2012-02-22T09:42:33Z</time>
      </trkpt>
      <trkpt lat="43.14692" lon="3.09539">
        <ele>214</ele>
        <time>2012-02-22T09:42:40Z</time>
      </trkpt>
      <trkpt lat="43.14714" lon="3.09529">
        <ele>213</ele>
        <time>2012-02-22T09:42:46Z</time>
      </trkpt>
      <trkpt lat="43.14733" lon="3.09511">
        <ele>211</ele>
        <time>2012-02-22T09:42:53Z</time>
      </trkpt>
      <trkpt lat="43.14758" lon="3.095">
        <ele>209</ele>
        <time>2012-02-22T09:43:00Z</time>
      </trkpt>
      <trkpt lat="43.14776" lon="3.09499">
        <ele>209</ele>
        <time>2012-02-22T09:43:06Z</time>
      </trkpt>
      <trkpt lat="43.1479" lon="3.0951">
        <ele>209</ele>
        <time>2012-02-22T09:43:13Z</time>
      </trkpt>
      <trkpt lat="43.14785" lon="3.09543">
        <ele>210</ele>
        <time>2012-02-22T09:43:20Z</time>
      </trkpt>
      <trkpt lat="43.14777" lon="3.09572">
        <ele>211</ele>
        <time>2012-02-22T09:43:26Z</time>
      </trkpt>
      <trkpt lat="43.14768" lon="3.09612">
        <ele>210</ele>
        <time>2012-02-22T09:43:33Z</time>
      </trkpt>
      <trkpt lat="43.14762" lon="3.09656">
        <ele>210</ele>
        <time>2012-02-22T09:43:40Z</time>
      </trkpt>
      <trkpt lat="43.14778" lon="3.09694">
        <ele>208</ele>
        <time>2012-02-22T09:43:46Z</time>
      </trkpt>
      <trkpt lat="43.14809" lon="3.09739">
        <ele>204</ele>
        <time>2012-02-22T09:43:53Z</time>
      </trkpt>
      <trkpt lat="43.14841" lon="3.09758">
        <ele>202</ele>
        <time>2012-02-22T09:44:00Z</time>
      </trkpt>
      <trkpt lat="43.14867" lon="3.09755">
        <ele>199</ele>
        <time>2012-02-22T09:44:06Z</time>
      </trkpt>
      <trkpt lat="43.14891" lon="3.09766">
        <ele>197</ele>
        <time>2012-02-22T09:44:13Z</time>
      </trkpt>
      <trkpt lat="43.14892" lon="3.09801">
        <ele>196</ele>
        <time>2012-02-22T09:44:19Z</time>
      </trkpt>
      <trkpt lat="43.1488" lon="3.09812">
        <ele>196</ele>
        <time>2012-02-22T09:44:25Z</time>
      </trkpt>
      <trkpt lat="43.14873" lon="3.09828">
        <ele>196</ele>
        <time>2012-02-22T09:44:32Z</time>
      </trkpt>
      <trkpt lat="43.14865" lon="3.09846">
        <ele>196</ele>
        <time>2012-02-22T09:44:39Z</time>
      </trkpt>
      <trkpt lat="43.14854" lon="3.09857">
        <ele>198</ele>
        <time>2012-02-22T09:44:45Z</time>
      </trkpt>
      <trkpt lat="43.14842" lon="3.09865">
        <ele>199</ele>
        <time>2012-02-22T09:44:51Z</time>
      </trkpt>
      <trkpt lat="43.14828" lon="3.09871">
        <ele>201</ele>
        <time>2012-02-22T09:44:57Z</time>
      </trkpt>
      <trkpt lat="43.14817" lon="3.09879">
        <ele>202</ele>
        <time>2012-02-22T09:45:03Z</time>
      </trkpt>
      <trkpt lat="43.14819" lon="3.09889">
        <ele>204</ele>
        <time>2012-02-22T09:45:10Z</time>
      </trkpt>
      <trkpt lat="43.14831" lon="3.09891">
        <ele>205</ele>
        <time>2012-02-22T09:45:16Z</time>
      </trkpt>
      <trkpt lat="43.1484" lon="3.09893">
        <ele>205</ele>
        <time>2012-02-22T09:45:21Z</time>
      </trkpt>
      <trkpt lat="43.1485" lon="3.0989">
        <ele>206</ele>
        <time>2012-02-22T09:45:27Z</time>
      </trkpt>
      <trkpt lat="43.14864" lon="3.09894">
        <ele>206</ele>
        <time>2012-02-22T09:45:34Z</time>
      </trkpt>
      <trkpt lat="43.14873" lon="3.09894">
        <ele>210</ele>
        <time>2012-02-22T09:45:40Z</time>
      </trkpt>
      <trkpt lat="43.14883" lon="3.09899">
        <ele>211</ele>
        <time>2012-02-22T09:45:47Z</time>
      </trkpt>
      <trkpt lat="43.14891" lon="3.09902">
        <ele>213</ele>
        <time>2012-02-22T09:45:54Z</time>
      </trkpt>
      <trkpt lat="43.14897" lon="3.09909">
        <ele>214</ele>
        <time>2012-02-22T09:46:00Z</time>
      </trkpt>
      <trkpt lat="43.14907" lon="3.09923">
        <ele>212</ele>
        <time>2012-02-22T09:46:07Z</time>
      </trkpt>
      <trkpt lat="43.14914" lon="3.09934">
        <ele>213</ele>
        <time>2012-02-22T09:46:14Z</time>
      </trkpt>
      <trkpt lat="43.1492" lon="3.09942">
        <ele>215</ele>
        <time>2012-02-22T09:46:20Z</time>
      </trkpt>
      <trkpt lat="43.14922" lon="3.09951">
        <ele>216</ele>
        <time>2012-02-22T09:46:27Z</time>
      </trkpt>
      <trkpt lat="43.1493" lon="3.09961">
        <ele>217</ele>
        <time>2012-02-22T09:46:34Z</time>
      </trkpt>
      <trkpt lat="43.14937" lon="3.09966">
        <ele>217</ele>
        <time>2012-02-22T09:46:40Z</time>
      </trkpt>
      <trkpt lat="43.14944" lon="3.09964">
        <ele>219</ele>
        <time>2012-02-22T09:46:47Z</time>
      </trkpt>
      <trkpt lat="43.14943" lon="3.09951">
        <ele>218</ele>
        <time>2012-02-22T09:46:54Z</time>
      </trkpt>
      <trkpt lat="43.14941" lon="3.09941">
        <ele>216</ele>
        <time>2012-02-22T09:47:00Z</time>
      </trkpt>
      <trkpt lat="43.14937" lon="3.09928">
        <ele>217</ele>
        <time>2012-02-22T09:47:07Z</time>
      </trkpt>
      <trkpt lat="43.14938" lon="3.09913">
        <ele>217</ele>
        <time>2012-02-22T09:47:14Z</time>
      </trkpt>
      <trkpt lat="43.14942" lon="3.09901">
        <ele>217</ele>
        <time>2012-02-22T09:47:20Z</time>
      </trkpt>
      <trkpt lat="43.14954" lon="3.09894">
        <ele>221</ele>
        <time>2012-02-22T09:47:27Z</time>
      </trkpt>
      <trkpt lat="43.14961" lon="3.09907">
        <ele>223</ele>
        <time>2012-02-22T09:47:34Z</time>
      </trkpt>
      <trkpt lat="43.14966" lon="3.09921">
        <ele>225</ele>
        <time>2012-02-22T09:47:40Z</time>
      </trkpt>
      <trkpt lat="43.14971" lon="3.09936">
        <ele>226</ele>
        <time>2012-02-22T09:47:47Z</time>
      </trkpt>
      <trkpt lat="43.14976" lon="3.09944">
        <ele>227</ele>
        <time>2012-02-22T09:47:54Z</time>
      </trkpt>
      <trkpt lat="43.14985" lon="3.09952">
        <ele>227</ele>
        <time>2012-02-22T09:48:00Z</time>
      </trkpt>
      <trkpt lat="43.14993" lon="3.0996">
        <ele>228</ele>
        <time>2012-02-22T09:48:07Z</time>
      </trkpt>
      <trkpt lat="43.15005" lon="3.0997">
        <ele>229</ele>
        <time>2012-02-22T09:48:14Z</time>
      </trkpt>
      <trkpt lat="43.15014" lon="3.09979">
        <ele>229</ele>
        <time>2012-02-22T09:48:20Z</time>
      </trkpt>
      <trkpt lat="43.15024" lon="3.0999">
        <ele>229</ele>
        <time>2012-02-22T09:48:27Z</time>
      </trkpt>
      <trkpt lat="43.15035" lon="3.10009">
        <ele>229</ele>
        <time>2012-02-22T09:48:34Z</time>
      </trkpt>
      <trkpt lat="43.15047" lon="3.10022">
        <ele>229</ele>
        <time>2012-02-22T09:48:40Z</time>
      </trkpt>
      <trkpt lat="43.15063" lon="3.10033">
        <ele>230</ele>
        <time>2012-02-22T09:48:47Z</time>
      </trkpt>
      <trkpt lat="43.15082" lon="3.10053">
        <ele>230</ele>
        <time>2012-02-22T09:48:54Z</time>
      </trkpt>
      <trkpt lat="43.15101" lon="3.10084">
        <ele>228</ele>
        <time>2012-02-22T09:49:00Z</time>
      </trkpt>
      <trkpt lat="43.15119" lon="3.10129">
        <ele>227</ele>
        <time>2012-02-22T09:49:07Z</time>
      </trkpt>
      <trkpt lat="43.15115" lon="3.10152">
        <ele>227</ele>
        <time>2012-02-22T09:49:14Z</time>
      </trkpt>
      <trkpt lat="43.15107" lon="3.10161">
        <ele>228</ele>
        <time>2012-02-22T09:49:20Z</time>
      </trkpt>
      <trkpt lat="43.15092" lon="3.10169">
        <ele>230</ele>
        <time>2012-02-22T09:49:27Z</time>
      </trkpt>
      <trkpt lat="43.15078" lon="3.10171">
        <ele>230</ele>
        <time>2012-02-22T09:49:34Z</time>
      </trkpt>
      <trkpt lat="43.15067" lon="3.10178">
        <ele>229</ele>
        <time>2012-02-22T09:49:40Z</time>
      </trkpt>
      <trkpt lat="43.15061" lon="3.10193">
        <ele>229</ele>
        <time>2012-02-22T09:49:47Z</time>
      </trkpt>
      <trkpt lat="43.15073" lon="3.10203">
        <ele>229</ele>
        <time>2012-02-22T09:49:54Z</time>
      </trkpt>
      <trkpt lat="43.15084" lon="3.10206">
        <ele>230</ele>
        <time>2012-02-22T09:50:00Z</time>
      </trkpt>
      <trkpt lat="43.15093" lon="3.10209">
        <ele>232</ele>
        <time>2012-02-22T09:50:07Z</time>
      </trkpt>
      <trkpt lat="43.15104" lon="3.10215">
        <ele>236</ele>
        <time>2012-02-22T09:50:14Z</time>
      </trkpt>
      <trkpt lat="43.15113" lon="3.10221">
        <ele>238</ele>
        <time>2012-02-22T09:50:20Z</time>
      </trkpt>
      <trkpt lat="43.15122" lon="3.1023">
        <ele>239</ele>
        <time>2012-02-22T09:50:27Z</time>
      </trkpt>
      <trkpt lat="43.15135" lon="3.10238">
        <ele>239</ele>
        <time>2012-02-22T09:50:34Z</time>
      </trkpt>
      <trkpt lat="43.15143" lon="3.10247">
        <ele>238</ele>
        <time>2012-02-22T09:50:40Z</time>
      </trkpt>
      <trkpt lat="43.1515" lon="3.10259">
        <ele>238</ele>
        <time>2012-02-22T09:50:47Z</time>
      </trkpt>
      <trkpt lat="43.1516" lon="3.10276">
        <ele>240</ele>
        <time>2012-02-22T09:50:54Z</time>
      </trkpt>
      <trkpt lat="43.15166" lon="3.10289">
        <ele>243</ele>
        <time>2012-02-22T09:51:00Z</time>
      </trkpt>
      <trkpt lat="43.15173" lon="3.10302">
        <ele>243</ele>
        <time>2012-02-22T09:51:05Z</time>
      </trkpt>
      <trkpt lat="43.1518" lon="3.10313">
        <ele>243</ele>
        <time>2012-02-22T09:51:11Z</time>
      </trkpt>
      <trkpt lat="43.15189" lon="3.10326">
        <ele>243</ele>
        <time>2012-02-22T09:51:17Z</time>
      </trkpt>
      <trkpt lat="43.15198" lon="3.10338">
        <ele>245</ele>
        <time>2012-02-22T09:51:24Z</time>
      </trkpt>
      <trkpt lat="43.15204" lon="3.10351">
        <ele>247</ele>
        <time>2012-02-22T09:51:30Z</time>
      </trkpt>
      <trkpt lat="43.15207" lon="3.10366">
        <ele>247</ele>
        <time>2012-02-22T09:51:35Z</time>
      </trkpt>
      <trkpt lat="43.15193" lon="3.10373">
        <ele>245</ele>
        <time>2012-02-22T09:51:42Z</time>
      </trkpt>
      <trkpt lat="43.1518" lon="3.10367">
        <ele>246</ele>
        <time>2012-02-22T09:51:47Z</time>
      </trkpt>
      <trkpt lat="43.15161" lon="3.10368">
        <ele>246</ele>
        <time>2012-02-22T09:51:53Z</time>
      </trkpt>
      <trkpt lat="43.15146" lon="3.10371">
        <ele>244</ele>
        <time>2012-02-22T09:51:58Z</time>
      </trkpt>
      <trkpt lat="43.15125" lon="3.10375">
        <ele>242</ele>
        <time>2012-02-22T09:52:05Z</time>
      </trkpt>
      <trkpt lat="43.15109" lon="3.10379">
        <ele>242</ele>
        <time>2012-02-22T09:52:11Z</time>
      </trkpt>
      <trkpt lat="43.15089" lon="3.10391">
        <ele>242</ele>
        <time>2012-02-22T09:52:18Z</time>
      </trkpt>
      <trkpt lat="43.15065" lon="3.10401">
        <ele>243</ele>
        <time>2012-02-22T09:52:25Z</time>
      </trkpt>
      <trkpt lat="43.15042" lon="3.104">
        <ele>242</ele>
        <time>2012-02-22T09:52:31Z</time>
      </trkpt>
      <trkpt lat="43.15016" lon="3.10393">
        <ele>243</ele>
        <time>2012-02-22T09:52:38Z</time>
      </trkpt>
      <trkpt lat="43.14993" lon="3.10379">
        <ele>242</ele>
        <time>2012-02-22T09:52:45Z</time>
      </trkpt>
      <trkpt lat="43.14971" lon="3.10365">
        <ele>241</ele>
        <time>2012-02-22T09:52:51Z</time>
      </trkpt>
      <trkpt lat="43.14961" lon="3.1036">
        <ele>241</ele>
        <time>2012-02-22T09:52:56Z</time>
      </trkpt>
      <trkpt lat="43.14959" lon="3.10358">
        <ele>241</ele>
        <time>2012-02-22T09:53:02Z</time>
      </trkpt>
      <trkpt lat="43.14958" lon="3.10357">
        <ele>241</ele>
        <time>2012-02-22T09:53:07Z</time>
      </trkpt>
      <trkpt lat="43.14957" lon="3.10355">
        <ele>239</ele>
        <time>2012-02-22T09:53:12Z</time>
      </trkpt>
      <trkpt lat="43.14957" lon="3.10355">
        <ele>239</ele>
        <time>2012-02-22T09:53:19Z</time>
      </trkpt>
      <trkpt lat="43.14958" lon="3.10355">
        <ele>238</ele>
        <time>2012-02-22T09:53:25Z</time>
      </trkpt>
      <trkpt lat="43.14958" lon="3.10355">
        <ele>238</ele>
        <time>2012-02-22T09:53:32Z</time>
      </trkpt>
      <trkpt lat="43.14958" lon="3.10355">
        <ele>238</ele>
        <time>2012-02-22T09:53:39Z</time>
      </trkpt>
      <trkpt lat="43.14958" lon="3.10355">
        <ele>238</ele>
        <time>2012-02-22T09:53:45Z</time>
      </trkpt>
      <trkpt lat="43.14958" lon="3.10355">
        <ele>238</ele>
        <time>2012-02-22T09:53:52Z</time>
      </trkpt>
      <trkpt lat="43.14958" lon="3.10355">
        <ele>238</ele>
        <time>2012-02-22T09:53:59Z</time>
      </trkpt>
      <trkpt lat="43.14958" lon="3.10355">
        <ele>238</ele>
        <time>2012-02-22T09:54:05Z</time>
      </trkpt>
      <trkpt lat="43.14958" lon="3.10355">
        <ele>238</ele>
        <time>2012-02-22T09:54:12Z</time>
      </trkpt>
      <trkpt lat="43.14958" lon="3.10355">
        <ele>238</ele>
        <time>2012-02-22T09:54:19Z</time>
      </trkpt>
      <trkpt lat="43.14958" lon="3.10355">
        <ele>238</ele>
        <time>2012-02-22T09:54:25Z</time>
      </trkpt>
      <trkpt lat="43.14958" lon="3.10355">
        <ele>238</ele>
        <time>2012-02-22T09:54:32Z</time>
      </trkpt>
      <trkpt lat="43.14958" lon="3.10355">
        <ele>238</ele>
        <time>2012-02-22T09:54:39Z</time>
      </trkpt>
      <trkpt lat="43.14958" lon="3.10355">
        <ele>238</ele>
        <time>2012-02-22T09:54:45Z</time>
      </trkpt>
      <trkpt lat="43.14958" lon="3.10355">
        <ele>238</ele>
        <time>2012-02-22T09:54:52Z</time>
      </trkpt>
      <trkpt lat="43.14958" lon="3.10355">
        <ele>238</ele>
        <time>2012-02-22T09:54:59Z</time>
      </trkpt>
      <trkpt lat="43.14958" lon="3.10355">
        <ele>238</ele>
        <time>2012-02-22T09:55:05Z</time>
      </trkpt>
      <trkpt lat="43.14958" lon="3.10355">
        <ele>238</ele>
        <time>2012-02-22T09:55:12Z</time>
      </trkpt>
      <trkpt lat="43.14958" lon="3.10355">
        <ele>238</ele>
        <time>2012-02-22T09:55:19Z</time>
      </trkpt>
      <trkpt lat="43.14958" lon="3.10355">
        <ele>238</ele>
        <time>2012-02-22T09:55:25Z</time>
      </trkpt>
      <trkpt lat="43.14958" lon="3.10355">
        <ele>238</ele>
        <time>2012-02-22T09:55:32Z</time>
      </trkpt>
      <trkpt lat="43.14961" lon="3.10355">
        <ele>240</ele>
        <time>2012-02-22T09:55:39Z</time>
      </trkpt>
      <trkpt lat="43.14962" lon="3.10353">
        <ele>236</ele>
        <time>2012-02-22T09:55:45Z</time>
      </trkpt>
      <trkpt lat="43.14962" lon="3.10353">
        <ele>236</ele>
        <time>2012-02-22T09:55:52Z</time>
      </trkpt>
      <trkpt lat="43.14962" lon="3.10353">
        <ele>236</ele>
        <time>2012-02-22T09:55:59Z</time>
      </trkpt>
      <trkpt lat="43.14962" lon="3.10353">
        <ele>236</ele>
        <time>2012-02-22T09:56:05Z</time>
      </trkpt>
      <trkpt lat="43.14962" lon="3.10353">
        <ele>236</ele>
        <time>2012-02-22T09:56:12Z</time>
      </trkpt>
      <trkpt lat="43.14966" lon="3.10347">
        <ele>236</ele>
        <time>2012-02-22T09:56:19Z</time>
      </trkpt>
      <trkpt lat="43.1496" lon="3.10359">
        <ele>237</ele>
        <time>2012-02-22T09:56:25Z</time>
      </trkpt>
      <trkpt lat="43.14938" lon="3.10364">
        <ele>237</ele>
        <time>2012-02-22T09:56:32Z</time>
      </trkpt>
      <trkpt lat="43.14931" lon="3.10388">
        <ele>237</ele>
        <time>2012-02-22T09:56:39Z</time>
      </trkpt>
      <trkpt lat="43.14937" lon="3.1041">
        <ele>239</ele>
        <time>2012-02-22T09:56:45Z</time>
      </trkpt>
      <trkpt lat="43.14945" lon="3.10427">
        <ele>240</ele>
        <time>2012-02-22T09:56:50Z</time>
      </trkpt>
      <trkpt lat="43.14954" lon="3.10442">
        <ele>240</ele>
        <time>2012-02-22T09:56:55Z</time>
      </trkpt>
      <trkpt lat="43.14965" lon="3.10452">
        <ele>240</ele>
        <time>2012-02-22T09:57:00Z</time>
      </trkpt>
      <trkpt lat="43.14976" lon="3.10465">
        <ele>238</ele>
        <time>2012-02-22T09:57:06Z</time>
      </trkpt>
      <trkpt lat="43.14989" lon="3.10479">
        <ele>238</ele>
        <time>2012-02-22T09:57:12Z</time>
      </trkpt>
      <trkpt lat="43.15" lon="3.1049">
        <ele>238</ele>
        <time>2012-02-22T09:57:17Z</time>
      </trkpt>
      <trkpt lat="43.15012" lon="3.10506">
        <ele>239</ele>
        <time>2012-02-22T09:57:23Z</time>
      </trkpt>
      <trkpt lat="43.15023" lon="3.10523">
        <ele>242</ele>
        <time>2012-02-22T09:57:29Z</time>
      </trkpt>
      <trkpt lat="43.15033" lon="3.10541">
        <ele>242</ele>
        <time>2012-02-22T09:57:35Z</time>
      </trkpt>
      <trkpt lat="43.15045" lon="3.10556">
        <ele>244</ele>
        <time>2012-02-22T09:57:41Z</time>
      </trkpt>
      <trkpt lat="43.1505" lon="3.10569">
        <ele>244</ele>
        <time>2012-02-22T09:57:46Z</time>
      </trkpt>
      <trkpt lat="43.15059" lon="3.10587">
        <ele>245</ele>
        <time>2012-02-22T09:57:51Z</time>
      </trkpt>
      <trkpt lat="43.15065" lon="3.1061">
        <ele>248</ele>
        <time>2012-02-22T09:57:58Z</time>
      </trkpt>
      <trkpt lat="43.15071" lon="3.10641">
        <ele>249</ele>
        <time>2012-02-22T09:58:05Z</time>
      </trkpt>
      <trkpt lat="43.15071" lon="3.10664">
        <ele>249</ele>
        <time>2012-02-22T09:58:11Z</time>
      </trkpt>
      <trkpt lat="43.15068" lon="3.1069">
        <ele>249</ele>
        <time>2012-02-22T09:58:16Z</time>
      </trkpt>
      <trkpt lat="43.1506" lon="3.10716">
        <ele>248</ele>
        <time>2012-02-22T09:58:21Z</time>
      </trkpt>
      <trkpt lat="43.15044" lon="3.10734">
        <ele>245</ele>
        <time>2012-02-22T09:58:26Z</time>
      </trkpt>
      <trkpt lat="43.15004" lon="3.10754">
        <ele>240</ele>
        <time>2012-02-22T09:58:33Z</time>
      </trkpt>
      <trkpt lat="43.14975" lon="3.10761">
        <ele>240</ele>
        <time>2012-02-22T09:58:40Z</time>
      </trkpt>
      <trkpt lat="43.14952" lon="3.10767">
        <ele>238</ele>
        <time>2012-02-22T09:58:46Z</time>
      </trkpt>
      <trkpt lat="43.14933" lon="3.10765">
        <ele>236</ele>
        <time>2012-02-22T09:58:53Z</time>
      </trkpt>
      <trkpt lat="43.14929" lon="3.1076">
        <ele>235</ele>
        <time>2012-02-22T09:59:00Z</time>
      </trkpt>
      <trkpt lat="43.14925" lon="3.10757">
        <ele>236</ele>
        <time>2012-02-22T09:59:06Z</time>
      </trkpt>
      <trkpt lat="43.14925" lon="3.10762">
        <ele>235</ele>
        <time>2012-02-22T09:59:13Z</time>
      </trkpt>
      <trkpt lat="43.14925" lon="3.10764">
        <ele>235</ele>
        <time>2012-02-22T09:59:20Z</time>
      </trkpt>
      <trkpt lat="43.14925" lon="3.10764">
        <ele>235</ele>
        <time>2012-02-22T09:59:26Z</time>
      </trkpt>
      <trkpt lat="43.14925" lon="3.10764">
        <ele>235</ele>
        <time>2012-02-22T09:59:33Z</time>
      </trkpt>
      <trkpt lat="43.14922" lon="3.10763">
        <ele>234</ele>
        <time>2012-02-22T09:59:40Z</time>
      </trkpt>
      <trkpt lat="43.14922" lon="3.10763">
        <ele>234</ele>
        <time>2012-02-22T09:59:46Z</time>
      </trkpt>
      <trkpt lat="43.14922" lon="3.10763">
        <ele>234</ele>
        <time>2012-02-22T09:59:53Z</time>
      </trkpt>
      <trkpt lat="43.14922" lon="3.10763">
        <ele>234</ele>
        <time>2012-02-22T10:00:00Z</time>
      </trkpt>
      <trkpt lat="43.14922" lon="3.10763">
        <ele>234</ele>
        <time>2012-02-22T10:00:06Z</time>
      </trkpt>
      <trkpt lat="43.14922" lon="3.10763">
        <ele>234</ele>
        <time>2012-02-22T10:00:13Z</time>
      </trkpt>
      <trkpt lat="43.14922" lon="3.10763">
        <ele>234</ele>
        <time>2012-02-22T10:00:20Z</time>
      </trkpt>
      <trkpt lat="43.14922" lon="3.10763">
        <ele>234</ele>
        <time>2012-02-22T10:00:26Z</time>
      </trkpt>
      <trkpt lat="43.14922" lon="3.10763">
        <ele>234</ele>
        <time>2012-02-22T10:00:33Z</time>
      </trkpt>
      <trkpt lat="43.14922" lon="3.10763">
        <ele>234</ele>
        <time>2012-02-22T10:00:40Z</time>
      </trkpt>
      <trkpt lat="43.14922" lon="3.10763">
        <ele>234</ele>
        <time>2012-02-22T10:00:46Z</time>
      </trkpt>
      <trkpt lat="43.14922" lon="3.10763">
        <ele>234</ele>
        <time>2012-02-22T10:00:53Z</time>
      </trkpt>
      <trkpt lat="43.14922" lon="3.10763">
        <ele>234</ele>
        <time>2012-02-22T10:01:00Z</time>
      </trkpt>
      <trkpt lat="43.14922" lon="3.10763">
        <ele>234</ele>
        <time>2012-02-22T10:01:06Z</time>
      </trkpt>
      <trkpt lat="43.14922" lon="3.10763">
        <ele>234</ele>
        <time>2012-02-22T10:01:13Z</time>
      </trkpt>
      <trkpt lat="43.14922" lon="3.10763">
        <ele>234</ele>
        <time>2012-02-22T10:01:20Z</time>
      </trkpt>
      <trkpt lat="43.14922" lon="3.10763">
        <ele>234</ele>
        <time>2012-02-22T10:01:26Z</time>
      </trkpt>
      <trkpt lat="43.14922" lon="3.10763">
        <ele>234</ele>
        <time>2012-02-22T10:01:33Z</time>
      </trkpt>
      <trkpt lat="43.14922" lon="3.10763">
        <ele>234</ele>
        <time>2012-02-22T10:01:40Z</time>
      </trkpt>
      <trkpt lat="43.14922" lon="3.10763">
        <ele>234</ele>
        <time>2012-02-22T10:01:46Z</time>
      </trkpt>
      <trkpt lat="43.14922" lon="3.10763">
        <ele>234</ele>
        <time>2012-02-22T10:01:53Z</time>
      </trkpt>
      <trkpt lat="43.14922" lon="3.10763">
        <ele>234</ele>
        <time>2012-02-22T10:02:00Z</time>
      </trkpt>
      <trkpt lat="43.14922" lon="3.10763">
        <ele>234</ele>
        <time>2012-02-22T10:02:06Z</time>
      </trkpt>
      <trkpt lat="43.14922" lon="3.10763">
        <ele>234</ele>
        <time>2012-02-22T10:02:13Z</time>
      </trkpt>
      <trkpt lat="43.14922" lon="3.10763">
        <ele>234</ele>
        <time>2012-02-22T10:02:20Z</time>
      </trkpt>
      <trkpt lat="43.14922" lon="3.10763">
        <ele>234</ele>
        <time>2012-02-22T10:02:26Z</time>
      </trkpt>
      <trkpt lat="43.14922" lon="3.10763">
        <ele>234</ele>
        <time>2012-02-22T10:02:33Z</time>
      </trkpt>
      <trkpt lat="43.14922" lon="3.10763">
        <ele>234</ele>
        <time>2012-02-22T10:02:40Z</time>
      </trkpt>
      <trkpt lat="43.14922" lon="3.10763">
        <ele>234</ele>
        <time>2012-02-22T10:02:46Z</time>
      </trkpt>
      <trkpt lat="43.14922" lon="3.10763">
        <ele>234</ele>
        <time>2012-02-22T10:02:53Z</time>
      </trkpt>
      <trkpt lat="43.14922" lon="3.10763">
        <ele>234</ele>
        <time>2012-02-22T10:03:00Z</time>
      </trkpt>
      <trkpt lat="43.14922" lon="3.10763">
        <ele>234</ele>
        <time>2012-02-22T10:03:06Z</time>
      </trkpt>
      <trkpt lat="43.14923" lon="3.10763">
        <ele>234</ele>
        <time>2012-02-22T10:03:13Z</time>
      </trkpt>
      <trkpt lat="43.14923" lon="3.10763">
        <ele>234</ele>
        <time>2012-02-22T10:03:20Z</time>
      </trkpt>
      <trkpt lat="43.14923" lon="3.10763">
        <ele>234</ele>
        <time>2012-02-22T10:03:26Z</time>
      </trkpt>
      <trkpt lat="43.14923" lon="3.10763">
        <ele>234</ele>
        <time>2012-02-22T10:03:33Z</time>
      </trkpt>
      <trkpt lat="43.14923" lon="3.10763">
        <ele>234</ele>
        <time>2012-02-22T10:03:40Z</time>
      </trkpt>
      <trkpt lat="43.14923" lon="3.10763">
        <ele>234</ele>
        <time>2012-02-22T10:03:46Z</time>
      </trkpt>
      <trkpt lat="43.14923" lon="3.10763">
        <ele>234</ele>
        <time>2012-02-22T10:03:53Z</time>
      </trkpt>
      <trkpt lat="43.14923" lon="3.10763">
        <ele>234</ele>
        <time>2012-02-22T10:04:00Z</time>
      </trkpt>
      <trkpt lat="43.14923" lon="3.10763">
        <ele>234</ele>
        <time>2012-02-22T10:04:06Z</time>
      </trkpt>
      <trkpt lat="43.14923" lon="3.10763">
        <ele>234</ele>
        <time>2012-02-22T10:04:13Z</time>
      </trkpt>
      <trkpt lat="43.14924" lon="3.10765">
        <ele>235</ele>
        <time>2012-02-22T10:04:20Z</time>
      </trkpt>
      <trkpt lat="43.14924" lon="3.10766">
        <ele>235</ele>
        <time>2012-02-22T10:04:26Z</time>
      </trkpt>
      <trkpt lat="43.14924" lon="3.10766">
        <ele>235</ele>
        <time>2012-02-22T10:04:33Z</time>
      </trkpt>
      <trkpt lat="43.14924" lon="3.10766">
        <ele>235</ele>
        <time>2012-02-22T10:04:40Z</time>
      </trkpt>
      <trkpt lat="43.14927" lon="3.10763">
        <ele>234</ele>
        <time>2012-02-22T10:04:46Z</time>
      </trkpt>
      <trkpt lat="43.14927" lon="3.10763">
        <ele>234</ele>
        <time>2012-02-22T10:04:53Z</time>
      </trkpt>
      <trkpt lat="43.14927" lon="3.10763">
        <ele>234</ele>
        <time>2012-02-22T10:05:00Z</time>
      </trkpt>
      <trkpt lat="43.14927" lon="3.10763">
        <ele>234</ele>
        <time>2012-02-22T10:05:06Z</time>
      </trkpt>
      <trkpt lat="43.14927" lon="3.10763">
        <ele>234</ele>
        <time>2012-02-22T10:05:13Z</time>
      </trkpt>
      <trkpt lat="43.14927" lon="3.10763">
        <ele>234</ele>
        <time>2012-02-22T10:05:20Z</time>
      </trkpt>
      <trkpt lat="43.14927" lon="3.10763">
        <ele>234</ele>
        <time>2012-02-22T10:05:26Z</time>
      </trkpt>
      <trkpt lat="43.14927" lon="3.10763">
        <ele>234</ele>
        <time>2012-02-22T10:05:33Z</time>
      </trkpt>
      <trkpt lat="43.14927" lon="3.10763">
        <ele>234</ele>
        <time>2012-02-22T10:05:40Z</time>
      </trkpt>
      <trkpt lat="43.14927" lon="3.10763">
        <ele>234</ele>
        <time>2012-02-22T10:05:46Z</time>
      </trkpt>
      <trkpt lat="43.14927" lon="3.10758">
        <ele>244</ele>
        <time>2012-02-22T10:05:53Z</time>
      </trkpt>
      <trkpt lat="43.14936" lon="3.10754">
        <ele>249</ele>
        <time>2012-02-22T10:06:00Z</time>
      </trkpt>
      <trkpt lat="43.14957" lon="3.10757">
        <ele>243</ele>
        <time>2012-02-22T10:06:06Z</time>
      </trkpt>
      <trkpt lat="43.14978" lon="3.10756">
        <ele>245</ele>
        <time>2012-02-22T10:06:13Z</time>
      </trkpt>
      <trkpt lat="43.14991" lon="3.10754">
        <ele>245</ele>
        <time>2012-02-22T10:06:20Z</time>
      </trkpt>
      <trkpt lat="43.15003" lon="3.10742">
        <ele>246</ele>
        <time>2012-02-22T10:06:26Z</time>
      </trkpt>
      <trkpt lat="43.15024" lon="3.1074">
        <ele>247</ele>
        <time>2012-02-22T10:06:33Z</time>
      </trkpt>
      <trkpt lat="43.1504" lon="3.10729">
        <ele>244</ele>
        <time>2012-02-22T10:06:40Z</time>
      </trkpt>
      <trkpt lat="43.1505" lon="3.10726">
        <ele>244</ele>
        <time>2012-02-22T10:06:46Z</time>
      </trkpt>
      <trkpt lat="43.15062" lon="3.10722">
        <ele>244</ele>
        <time>2012-02-22T10:06:53Z</time>
      </trkpt>
      <trkpt lat="43.15065" lon="3.10709">
        <ele>243</ele>
        <time>2012-02-22T10:07:00Z</time>
      </trkpt>
      <trkpt lat="43.15067" lon="3.10691">
        <ele>243</ele>
        <time>2012-02-22T10:07:06Z</time>
      </trkpt>
      <trkpt lat="43.15072" lon="3.1067">
        <ele>243</ele>
        <time>2012-02-22T10:07:13Z</time>
      </trkpt>
      <trkpt lat="43.15075" lon="3.10647">
        <ele>243</ele>
        <time>2012-02-22T10:07:20Z</time>
      </trkpt>
      <trkpt lat="43.15075" lon="3.10625">
        <ele>242</ele>
        <time>2012-02-22T10:07:26Z</time>
      </trkpt>
      <trkpt lat="43.15069" lon="3.10599">
        <ele>239</ele>
        <time>2012-02-22T10:07:33Z</time>
      </trkpt>
      <trkpt lat="43.15057" lon="3.10572">
        <ele>239</ele>
        <time>2012-02-22T10:07:40Z</time>
      </trkpt>
      <trkpt lat="43.15057" lon="3.10552">
        <ele>238</ele>
        <time>2012-02-22T10:07:46Z</time>
      </trkpt>
      <trkpt lat="43.15075" lon="3.10551">
        <ele>239</ele>
        <time>2012-02-22T10:07:53Z</time>
      </trkpt>
      <trkpt lat="43.15092" lon="3.10547">
        <ele>239</ele>
        <time>2012-02-22T10:08:00Z</time>
      </trkpt>
      <trkpt lat="43.15104" lon="3.10542">
        <ele>239</ele>
        <time>2012-02-22T10:08:05Z</time>
      </trkpt>
      <trkpt lat="43.15116" lon="3.10532">
        <ele>240</ele>
        <time>2012-02-22T10:08:10Z</time>
      </trkpt>
      <trkpt lat="43.15136" lon="3.10518">
        <ele>240</ele>
        <time>2012-02-22T10:08:17Z</time>
      </trkpt>
      <trkpt lat="43.15152" lon="3.10503">
        <ele>241</ele>
        <time>2012-02-22T10:08:23Z</time>
      </trkpt>
      <trkpt lat="43.15168" lon="3.10491">
        <ele>242</ele>
        <time>2012-02-22T10:08:30Z</time>
      </trkpt>
      <trkpt lat="43.15183" lon="3.1048">
        <ele>243</ele>
        <time>2012-02-22T10:08:37Z</time>
      </trkpt>
      <trkpt lat="43.15193" lon="3.10478">
        <ele>244</ele>
        <time>2012-02-22T10:08:42Z</time>
      </trkpt>
      <trkpt lat="43.15205" lon="3.10474">
        <ele>244</ele>
        <time>2012-02-22T10:08:47Z</time>
      </trkpt>
      <trkpt lat="43.15219" lon="3.10469">
        <ele>245</ele>
        <time>2012-02-22T10:08:54Z</time>
      </trkpt>
      <trkpt lat="43.15229" lon="3.10461">
        <ele>246</ele>
        <time>2012-02-22T10:09:00Z</time>
      </trkpt>
      <trkpt lat="43.15245" lon="3.10455">
        <ele>246</ele>
        <time>2012-02-22T10:09:07Z</time>
      </trkpt>
      <trkpt lat="43.15257" lon="3.10449">
        <ele>246</ele>
        <time>2012-02-22T10:09:14Z</time>
      </trkpt>
      <trkpt lat="43.15272" lon="3.10454">
        <ele>246</ele>
        <time>2012-02-22T10:09:20Z</time>
      </trkpt>
      <trkpt lat="43.1529" lon="3.10457">
        <ele>246</ele>
        <time>2012-02-22T10:09:27Z</time>
      </trkpt>
      <trkpt lat="43.15307" lon="3.10461">
        <ele>247</ele>
        <time>2012-02-22T10:09:34Z</time>
      </trkpt>
      <trkpt lat="43.15323" lon="3.10466">
        <ele>247</ele>
        <time>2012-02-22T10:09:40Z</time>
      </trkpt>
      <trkpt lat="43.15338" lon="3.10463">
        <ele>246</ele>
        <time>2012-02-22T10:09:47Z</time>
      </trkpt>
      <trkpt lat="43.15349" lon="3.10467">
        <ele>250</ele>
        <time>2012-02-22T10:09:54Z</time>
      </trkpt>
      <trkpt lat="43.15361" lon="3.10473">
        <ele>252</ele>
        <time>2012-02-22T10:10:00Z</time>
      </trkpt>
      <trkpt lat="43.15374" lon="3.10479">
        <ele>253</ele>
        <time>2012-02-22T10:10:05Z</time>
      </trkpt>
      <trkpt lat="43.15387" lon="3.10484">
        <ele>254</ele>
        <time>2012-02-22T10:10:11Z</time>
      </trkpt>
      <trkpt lat="43.15394" lon="3.10494">
        <ele>256</ele>
        <time>2012-02-22T10:10:16Z</time>
      </trkpt>
      <trkpt lat="43.15402" lon="3.10508">
        <ele>256</ele>
        <time>2012-02-22T10:10:23Z</time>
      </trkpt>
      <trkpt lat="43.1541" lon="3.1052">
        <ele>256</ele>
        <time>2012-02-22T10:10:30Z</time>
      </trkpt>
      <trkpt lat="43.15416" lon="3.10534">
        <ele>253</ele>
        <time>2012-02-22T10:10:36Z</time>
      </trkpt>
      <trkpt lat="43.15427" lon="3.10548">
        <ele>252</ele>
        <time>2012-02-22T10:10:43Z</time>
      </trkpt>
      <trkpt lat="43.15438" lon="3.10568">
        <ele>250</ele>
        <time>2012-02-22T10:10:50Z</time>
      </trkpt>
      <trkpt lat="43.15447" lon="3.10583">
        <ele>249</ele>
        <time>2012-02-22T10:10:56Z</time>
      </trkpt>
      <trkpt lat="43.15454" lon="3.10595">
        <ele>251</ele>
        <time>2012-02-22T10:11:03Z</time>
      </trkpt>
      <trkpt lat="43.15459" lon="3.10615">
        <ele>250</ele>
        <time>2012-02-22T10:11:10Z</time>
      </trkpt>
      <trkpt lat="43.15467" lon="3.10633">
        <ele>252</ele>
        <time>2012-02-22T10:11:16Z</time>
      </trkpt>
      <trkpt lat="43.15471" lon="3.10653">
        <ele>250</ele>
        <time>2012-02-22T10:11:23Z</time>
      </trkpt>
      <trkpt lat="43.15476" lon="3.10668">
        <ele>250</ele>
        <time>2012-02-22T10:11:30Z</time>
      </trkpt>
      <trkpt lat="43.15484" lon="3.10673">
        <ele>249</ele>
        <time>2012-02-22T10:11:36Z</time>
      </trkpt>
      <trkpt lat="43.15486" lon="3.10688">
        <ele>247</ele>
        <time>2012-02-22T10:11:43Z</time>
      </trkpt>
      <trkpt lat="43.1549" lon="3.10698">
        <ele>247</ele>
        <time>2012-02-22T10:11:48Z</time>
      </trkpt>
      <trkpt lat="43.15497" lon="3.10701">
        <ele>244</ele>
        <time>2012-02-22T10:11:53Z</time>
      </trkpt>
      <trkpt lat="43.15506" lon="3.10703">
        <ele>238</ele>
        <time>2012-02-22T10:11:59Z</time>
      </trkpt>
      <trkpt lat="43.15512" lon="3.10695">
        <ele>233</ele>
        <time>2012-02-22T10:12:06Z</time>
      </trkpt>
      <trkpt lat="43.15518" lon="3.10681">
        <ele>233</ele>
        <time>2012-02-22T10:12:12Z</time>
      </trkpt>
      <trkpt lat="43.15524" lon="3.10667">
        <ele>233</ele>
        <time>2012-02-22T10:12:18Z</time>
      </trkpt>
      <trkpt lat="43.15526" lon="3.1065">
        <ele>232</ele>
        <time>2012-02-22T10:12:23Z</time>
      </trkpt>
      <trkpt lat="43.15528" lon="3.1063">
        <ele>229</ele>
        <time>2012-02-22T10:12:29Z</time>
      </trkpt>
      <trkpt lat="43.15536" lon="3.10611">
        <ele>228</ele>
        <time>2012-02-22T10:12:36Z</time>
      </trkpt>
      <trkpt lat="43.15552" lon="3.10599">
        <ele>228</ele>
        <time>2012-02-22T10:12:43Z</time>
      </trkpt>
      <trkpt lat="43.15563" lon="3.106">
        <ele>228</ele>
        <time>2012-02-22T10:12:49Z</time>
      </trkpt>
      <trkpt lat="43.15566" lon="3.10606">
        <ele>230</ele>
        <time>2012-02-22T10:12:56Z</time>
      </trkpt>
      <trkpt lat="43.15567" lon="3.1062">
        <ele>228</ele>
        <time>2012-02-22T10:13:02Z</time>
      </trkpt>
      <trkpt lat="43.15564" lon="3.10629">
        <ele>228</ele>
        <time>2012-02-22T10:13:07Z</time>
      </trkpt>
      <trkpt lat="43.15561" lon="3.10648">
        <ele>229</ele>
        <time>2012-02-22T10:13:13Z</time>
      </trkpt>
      <trkpt lat="43.15566" lon="3.10693">
        <ele>228</ele>
        <time>2012-02-22T10:13:20Z</time>
      </trkpt>
      <trkpt lat="43.15577" lon="3.10747">
        <ele>224</ele>
        <time>2012-02-22T10:13:26Z</time>
      </trkpt>
      <trkpt lat="43.1559" lon="3.10795">
        <ele>221</ele>
        <time>2012-02-22T10:13:32Z</time>
      </trkpt>
      <trkpt lat="43.15593" lon="3.1085">
        <ele>220</ele>
        <time>2012-02-22T10:13:39Z</time>
      </trkpt>
      <trkpt lat="43.15584" lon="3.10884">
        <ele>215</ele>
        <time>2012-02-22T10:13:45Z</time>
      </trkpt>
      <trkpt lat="43.15575" lon="3.10912">
        <ele>209</ele>
        <time>2012-02-22T10:13:52Z</time>
      </trkpt>
      <trkpt lat="43.1556" lon="3.10919">
        <ele>201</ele>
        <time>2012-02-22T10:13:59Z</time>
      </trkpt>
      <trkpt lat="43.15538" lon="3.10906">
        <ele>199</ele>
        <time>2012-02-22T10:14:05Z</time>
      </trkpt>
      <trkpt lat="43.15512" lon="3.1088">
        <ele>199</ele>
        <time>2012-02-22T10:14:12Z</time>
      </trkpt>
      <trkpt lat="43.15478" lon="3.10855">
        <ele>198</ele>
        <time>2012-02-22T10:14:19Z</time>
      </trkpt>
      <trkpt lat="43.15443" lon="3.10839">
        <ele>194</ele>
        <time>2012-02-22T10:14:25Z</time>
      </trkpt>
      <trkpt lat="43.15408" lon="3.10835">
        <ele>189</ele>
        <time>2012-02-22T10:14:32Z</time>
      </trkpt>
      <trkpt lat="43.15383" lon="3.10869">
        <ele>187</ele>
        <time>2012-02-22T10:14:39Z</time>
      </trkpt>
      <trkpt lat="43.15357" lon="3.10903">
        <ele>183</ele>
        <time>2012-02-22T10:14:45Z</time>
      </trkpt>
      <trkpt lat="43.1533" lon="3.1096">
        <ele>182</ele>
        <time>2012-02-22T10:14:52Z</time>
      </trkpt>
      <trkpt lat="43.15312" lon="3.11018">
        <ele>181</ele>
        <time>2012-02-22T10:14:59Z</time>
      </trkpt>
      <trkpt lat="43.15302" lon="3.11061">
        <ele>176</ele>
        <time>2012-02-22T10:15:05Z</time>
      </trkpt>
      <trkpt lat="43.15287" lon="3.11088">
        <ele>172</ele>
        <time>2012-02-22T10:15:11Z</time>
      </trkpt>
      <trkpt lat="43.15273" lon="3.11109">
        <ele>170</ele>
        <time>2012-02-22T10:15:18Z</time>
      </trkpt>
      <trkpt lat="43.15256" lon="3.1112">
        <ele>170</ele>
        <time>2012-02-22T10:15:23Z</time>
      </trkpt>
      <trkpt lat="43.15236" lon="3.11129">
        <ele>169</ele>
        <time>2012-02-22T10:15:30Z</time>
      </trkpt>
      <trkpt lat="43.15219" lon="3.11131">
        <ele>169</ele>
        <time>2012-02-22T10:15:36Z</time>
      </trkpt>
      <trkpt lat="43.15201" lon="3.11131">
        <ele>168</ele>
        <time>2012-02-22T10:15:42Z</time>
      </trkpt>
      <trkpt lat="43.15179" lon="3.11136">
        <ele>167</ele>
        <time>2012-02-22T10:15:49Z</time>
      </trkpt>
      <trkpt lat="43.15163" lon="3.11145">
        <ele>166</ele>
        <time>2012-02-22T10:15:55Z</time>
      </trkpt>
      <trkpt lat="43.15144" lon="3.1115">
        <ele>164</ele>
        <time>2012-02-22T10:16:01Z</time>
      </trkpt>
      <trkpt lat="43.15122" lon="3.11153">
        <ele>164</ele>
        <time>2012-02-22T10:16:08Z</time>
      </trkpt>
      <trkpt lat="43.15092" lon="3.11136">
        <ele>165</ele>
        <time>2012-02-22T10:16:15Z</time>
      </trkpt>
      <trkpt lat="43.15069" lon="3.11109">
        <ele>164</ele>
        <time>2012-02-22T10:16:21Z</time>
      </trkpt>
      <trkpt lat="43.15037" lon="3.11081">
        <ele>164</ele>
        <time>2012-02-22T10:16:28Z</time>
      </trkpt>
      <trkpt lat="43.14978" lon="3.11082">
        <ele>160</ele>
        <time>2012-02-22T10:16:35Z</time>
      </trkpt>
      <trkpt lat="43.14928" lon="3.11092">
        <ele>158</ele>
        <time>2012-02-22T10:16:41Z</time>
      </trkpt>
      <trkpt lat="43.14901" lon="3.11079">
        <ele>156</ele>
        <time>2012-02-22T10:16:47Z</time>
      </trkpt>
      <trkpt lat="43.14863" lon="3.11068">
        <ele>153</ele>
        <time>2012-02-22T10:16:54Z</time>
      </trkpt>
      <trkpt lat="43.14826" lon="3.11063">
        <ele>150</ele>
        <time>2012-02-22T10:16:59Z</time>
      </trkpt>
      <trkpt lat="43.14795" lon="3.11041">
        <ele>149</ele>
        <time>2012-02-22T10:17:05Z</time>
      </trkpt>
      <trkpt lat="43.14772" lon="3.10996">
        <ele>143</ele>
        <time>2012-02-22T10:17:11Z</time>
      </trkpt>
      <trkpt lat="43.14748" lon="3.10978">
        <ele>142</ele>
        <time>2012-02-22T10:17:17Z</time>
      </trkpt>
      <trkpt lat="43.14715" lon="3.11003">
        <ele>140</ele>
        <time>2012-02-22T10:17:24Z</time>
      </trkpt>
      <trkpt lat="43.14698" lon="3.11047">
        <ele>138</ele>
        <time>2012-02-22T10:17:31Z</time>
      </trkpt>
      <trkpt lat="43.1468" lon="3.11089">
        <ele>137</ele>
        <time>2012-02-22T10:17:37Z</time>
      </trkpt>
      <trkpt lat="43.14627" lon="3.11137">
        <ele>134</ele>
        <time>2012-02-22T10:17:44Z</time>
      </trkpt>
      <trkpt lat="43.14579" lon="3.11184">
        <ele>132</ele>
        <time>2012-02-22T10:17:51Z</time>
      </trkpt>
      <trkpt lat="43.14539" lon="3.11227">
        <ele>129</ele>
        <time>2012-02-22T10:17:57Z</time>
      </trkpt>
      <trkpt lat="43.1449" lon="3.11274">
        <ele>125</ele>
        <time>2012-02-22T10:18:04Z</time>
      </trkpt>
      <trkpt lat="43.14448" lon="3.11329">
        <ele>123</ele>
        <time>2012-02-22T10:18:11Z</time>
      </trkpt>
      <trkpt lat="43.14398" lon="3.11355">
        <ele>120</ele>
        <time>2012-02-22T10:18:17Z</time>
      </trkpt>
      <trkpt lat="43.14346" lon="3.11373">
        <ele>119</ele>
        <time>2012-02-22T10:18:24Z</time>
      </trkpt>
      <trkpt lat="43.14316" lon="3.11422">
        <ele>117</ele>
        <time>2012-02-22T10:18:31Z</time>
      </trkpt>
      <trkpt lat="43.14299" lon="3.1146">
        <ele>116</ele>
        <time>2012-02-22T10:18:37Z</time>
      </trkpt>
      <trkpt lat="43.14275" lon="3.11495">
        <ele>116</ele>
        <time>2012-02-22T10:18:44Z</time>
      </trkpt>
      <trkpt lat="43.14253" lon="3.11516">
        <ele>115</ele>
        <time>2012-02-22T10:18:51Z</time>
      </trkpt>
      <trkpt lat="43.14234" lon="3.11534">
        <ele>114</ele>
        <time>2012-02-22T10:18:57Z</time>
      </trkpt>
      <trkpt lat="43.14217" lon="3.11555">
        <ele>114</ele>
        <time>2012-02-22T10:19:04Z</time>
      </trkpt>
      <trkpt lat="43.14209" lon="3.11586">
        <ele>116</ele>
        <time>2012-02-22T10:19:11Z</time>
      </trkpt>
      <trkpt lat="43.14201" lon="3.11626">
        <ele>116</ele>
        <time>2012-02-22T10:19:17Z</time>
      </trkpt>
      <trkpt lat="43.14181" lon="3.11648">
        <ele>116</ele>
        <time>2012-02-22T10:19:24Z</time>
      </trkpt>
      <trkpt lat="43.14156" lon="3.11664">
        <ele>118</ele>
        <time>2012-02-22T10:19:31Z</time>
      </trkpt>
      <trkpt lat="43.1414" lon="3.11672">
        <ele>119</ele>
        <time>2012-02-22T10:19:37Z</time>
      </trkpt>
      <trkpt lat="43.14117" lon="3.11687">
        <ele>119</ele>
        <time>2012-02-22T10:19:44Z</time>
      </trkpt>
      <trkpt lat="43.14099" lon="3.11714">
        <ele>119</ele>
        <time>2012-02-22T10:19:51Z</time>
      </trkpt>
      <trkpt lat="43.14088" lon="3.11735">
        <ele>119</ele>
        <time>2012-02-22T10:19:57Z</time>
      </trkpt>
      <trkpt lat="43.1407" lon="3.11762">
        <ele>117</ele>
        <time>2012-02-22T10:20:04Z</time>
      </trkpt>
      <trkpt lat="43.14051" lon="3.11793">
        <ele>117</ele>
        <time>2012-02-22T10:20:11Z</time>
      </trkpt>
      <trkpt lat="43.14034" lon="3.11827">
        <ele>115</ele>
        <time>2012-02-22T10:20:17Z</time>
      </trkpt>
      <trkpt lat="43.14007" lon="3.11843">
        <ele>115</ele>
        <time>2012-02-22T10:20:24Z</time>
      </trkpt>
      <trkpt lat="43.13974" lon="3.11851">
        <ele>116</ele>
        <time>2012-02-22T10:20:31Z</time>
      </trkpt>
      <trkpt lat="43.13957" lon="3.11826">
        <ele>113</ele>
        <time>2012-02-22T10:20:37Z</time>
      </trkpt>
      <trkpt lat="43.13958" lon="3.11793">
        <ele>111</ele>
        <time>2012-02-22T10:20:44Z</time>
      </trkpt>
      <trkpt lat="43.13955" lon="3.11762">
        <ele>112</ele>
        <time>2012-02-22T10:20:51Z</time>
      </trkpt>
      <trkpt lat="43.13942" lon="3.11742">
        <ele>114</ele>
        <time>2012-02-22T10:20:57Z</time>
      </trkpt>
      <trkpt lat="43.13923" lon="3.1175">
        <ele>115</ele>
        <time>2012-02-22T10:21:04Z</time>
      </trkpt>
      <trkpt lat="43.13897" lon="3.11754">
        <ele>117</ele>
        <time>2012-02-22T10:21:11Z</time>
      </trkpt>
      <trkpt lat="43.13875" lon="3.11753">
        <ele>117</ele>
        <time>2012-02-22T10:21:17Z</time>
      </trkpt>
      <trkpt lat="43.13857" lon="3.11741">
        <ele>118</ele>
        <time>2012-02-22T10:21:23Z</time>
      </trkpt>
      <trkpt lat="43.13841" lon="3.11724">
        <ele>123</ele>
        <time>2012-02-22T10:21:30Z</time>
      </trkpt>
      <trkpt lat="43.13826" lon="3.11701">
        <ele>123</ele>
        <time>2012-02-22T10:21:36Z</time>
      </trkpt>
      <trkpt lat="43.1381" lon="3.11674">
        <ele>125</ele>
        <time>2012-02-22T10:21:43Z</time>
      </trkpt>
      <trkpt lat="43.13796" lon="3.11648">
        <ele>122</ele>
        <time>2012-02-22T10:21:50Z</time>
      </trkpt>
      <trkpt lat="43.13779" lon="3.11624">
        <ele>120</ele>
        <time>2012-02-22T10:21:56Z</time>
      </trkpt>
      <trkpt lat="43.1374" lon="3.11622">
        <ele>117</ele>
        <time>2012-02-22T10:22:03Z</time>
      </trkpt>
      <trkpt lat="43.13711" lon="3.11621">
        <ele>116</ele>
        <time>2012-02-22T10:22:10Z</time>
      </trkpt>
      <trkpt lat="43.13698" lon="3.11638">
        <ele>115</ele>
        <time>2012-02-22T10:22:16Z</time>
      </trkpt>
      <trkpt lat="43.13664" lon="3.11662">
        <ele>113</ele>
        <time>2012-02-22T10:22:23Z</time>
      </trkpt>
      <trkpt lat="43.1364" lon="3.11696">
        <ele>109</ele>
        <time>2012-02-22T10:22:30Z</time>
      </trkpt>
      <trkpt lat="43.13624" lon="3.11736">
        <ele>109</ele>
        <time>2012-02-22T10:22:36Z</time>
      </trkpt>
      <trkpt lat="43.13612" lon="3.11787">
        <ele>111</ele>
        <time>2012-02-22T10:22:43Z</time>
      </trkpt>
      <trkpt lat="43.136" lon="3.11819">
        <ele>110</ele>
        <time>2012-02-22T10:22:48Z</time>
      </trkpt>
      <trkpt lat="43.13585" lon="3.11854">
        <ele>108</ele>
        <time>2012-02-22T10:22:54Z</time>
      </trkpt>
      <trkpt lat="43.13547" lon="3.11878">
        <ele>105</ele>
        <time>2012-02-22T10:23:01Z</time>
      </trkpt>
      <trkpt lat="43.13515" lon="3.11865">
        <ele>102</ele>
        <time>2012-02-22T10:23:08Z</time>
      </trkpt>
      <trkpt lat="43.13487" lon="3.11863">
        <ele>101</ele>
        <time>2012-02-22T10:23:14Z</time>
      </trkpt>
      <trkpt lat="43.13451" lon="3.1186">
        <ele>99</ele>
        <time>2012-02-22T10:23:21Z</time>
      </trkpt>
      <trkpt lat="43.13444" lon="3.11843">
        <ele>94</ele>
        <time>2012-02-22T10:23:28Z</time>
      </trkpt>
      <trkpt lat="43.13462" lon="3.11847">
        <ele>92</ele>
        <time>2012-02-22T10:23:34Z</time>
      </trkpt>
      <trkpt lat="43.13491" lon="3.11841">
        <ele>92</ele>
        <time>2012-02-22T10:23:41Z</time>
      </trkpt>
      <trkpt lat="43.13506" lon="3.11798">
        <ele>90</ele>
        <time>2012-02-22T10:23:48Z</time>
      </trkpt>
      <trkpt lat="43.13508" lon="3.11761">
        <ele>86</ele>
        <time>2012-02-22T10:23:54Z</time>
      </trkpt>
      <trkpt lat="43.13517" lon="3.11725">
        <ele>89</ele>
        <time>2012-02-22T10:24:01Z</time>
      </trkpt>
      <trkpt lat="43.13495" lon="3.1169">
        <ele>88</ele>
        <time>2012-02-22T10:24:08Z</time>
      </trkpt>
      <trkpt lat="43.13486" lon="3.11646">
        <ele>84</ele>
        <time>2012-02-22T10:24:14Z</time>
      </trkpt>
      <trkpt lat="43.1348" lon="3.1159">
        <ele>81</ele>
        <time>2012-02-22T10:24:21Z</time>
      </trkpt>
      <trkpt lat="43.13467" lon="3.1153">
        <ele>78</ele>
        <time>2012-02-22T10:24:28Z</time>
      </trkpt>
      <trkpt lat="43.13456" lon="3.11503">
        <ele>77</ele>
        <time>2012-02-22T10:24:34Z</time>
      </trkpt>
      <trkpt lat="43.13447" lon="3.1153">
        <ele>77</ele>
        <time>2012-02-22T10:24:41Z</time>
      </trkpt>
      <trkpt lat="43.1344" lon="3.11558">
        <ele>79</ele>
        <time>2012-02-22T10:24:48Z</time>
      </trkpt>
      <trkpt lat="43.13437" lon="3.11586">
        <ele>78</ele>
        <time>2012-02-22T10:24:54Z</time>
      </trkpt>
      <trkpt lat="43.13426" lon="3.1161">
        <ele>77</ele>
        <time>2012-02-22T10:25:01Z</time>
      </trkpt>
      <trkpt lat="43.13416" lon="3.11635">
        <ele>77</ele>
        <time>2012-02-22T10:25:08Z</time>
      </trkpt>
      <trkpt lat="43.13406" lon="3.11661">
        <ele>79</ele>
        <time>2012-02-22T10:25:14Z</time>
      </trkpt>
      <trkpt lat="43.13394" lon="3.11696">
        <ele>80</ele>
        <time>2012-02-22T10:25:21Z</time>
      </trkpt>
      <trkpt lat="43.13377" lon="3.1172">
        <ele>78</ele>
        <time>2012-02-22T10:25:28Z</time>
      </trkpt>
      <trkpt lat="43.13361" lon="3.11732">
        <ele>78</ele>
        <time>2012-02-22T10:25:34Z</time>
      </trkpt>
      <trkpt lat="43.13334" lon="3.11742">
        <ele>77</ele>
        <time>2012-02-22T10:25:41Z</time>
      </trkpt>
      <trkpt lat="43.1331" lon="3.11752">
        <ele>76</ele>
        <time>2012-02-22T10:25:48Z</time>
      </trkpt>
      <trkpt lat="43.13289" lon="3.11767">
        <ele>77</ele>
        <time>2012-02-22T10:25:54Z</time>
      </trkpt>
      <trkpt lat="43.13268" lon="3.11782">
        <ele>79</ele>
        <time>2012-02-22T10:26:01Z</time>
      </trkpt>
      <trkpt lat="43.13245" lon="3.11803">
        <ele>80</ele>
        <time>2012-02-22T10:26:08Z</time>
      </trkpt>
      <trkpt lat="43.13225" lon="3.11828">
        <ele>81</ele>
        <time>2012-02-22T10:26:14Z</time>
      </trkpt>
      <trkpt lat="43.13209" lon="3.11845">
        <ele>80</ele>
        <time>2012-02-22T10:26:21Z</time>
      </trkpt>
      <trkpt lat="43.13198" lon="3.11837">
        <ele>82</ele>
        <time>2012-02-22T10:26:28Z</time>
      </trkpt>
      <trkpt lat="43.13197" lon="3.11822">
        <ele>83</ele>
        <time>2012-02-22T10:26:34Z</time>
      </trkpt>
      <trkpt lat="43.13203" lon="3.11801">
        <ele>86</ele>
        <time>2012-02-22T10:26:41Z</time>
      </trkpt>
      <trkpt lat="43.13214" lon="3.11781">
        <ele>87</ele>
        <time>2012-02-22T10:26:48Z</time>
      </trkpt>
      <trkpt lat="43.13226" lon="3.11763">
        <ele>90</ele>
        <time>2012-02-22T10:26:54Z</time>
      </trkpt>
      <trkpt lat="43.13232" lon="3.11745">
        <ele>91</ele>
        <time>2012-02-22T10:27:01Z</time>
      </trkpt>
      <trkpt lat="43.13235" lon="3.11724">
        <ele>93</ele>
        <time>2012-02-22T10:27:08Z</time>
      </trkpt>
      <trkpt lat="43.13238" lon="3.117">
        <ele>92</ele>
        <time>2012-02-22T10:27:14Z</time>
      </trkpt>
      <trkpt lat="43.13243" lon="3.11679">
        <ele>92</ele>
        <time>2012-02-22T10:27:21Z</time>
      </trkpt>
      <trkpt lat="43.13245" lon="3.11665">
        <ele>90</ele>
        <time>2012-02-22T10:27:28Z</time>
      </trkpt>
      <trkpt lat="43.13253" lon="3.11649">
        <ele>89</ele>
        <time>2012-02-22T10:27:33Z</time>
      </trkpt>
      <trkpt lat="43.13261" lon="3.1163">
        <ele>91</ele>
        <time>2012-02-22T10:27:40Z</time>
      </trkpt>
      <trkpt lat="43.13265" lon="3.11615">
        <ele>91</ele>
        <time>2012-02-22T10:27:47Z</time>
      </trkpt>
      <trkpt lat="43.13268" lon="3.11599">
        <ele>91</ele>
        <time>2012-02-22T10:27:52Z</time>
      </trkpt>
      <trkpt lat="43.13273" lon="3.1158">
        <ele>93</ele>
        <time>2012-02-22T10:27:59Z</time>
      </trkpt>
      <trkpt lat="43.13276" lon="3.11562">
        <ele>92</ele>
        <time>2012-02-22T10:28:06Z</time>
      </trkpt>
      <trkpt lat="43.1328" lon="3.11548">
        <ele>92</ele>
        <time>2012-02-22T10:28:12Z</time>
      </trkpt>
      <trkpt lat="43.13281" lon="3.11531">
        <ele>93</ele>
        <time>2012-02-22T10:28:19Z</time>
      </trkpt>
      <trkpt lat="43.13284" lon="3.11511">
        <ele>94</ele>
        <time>2012-02-22T10:28:26Z</time>
      </trkpt>
      <trkpt lat="43.13286" lon="3.11497">
        <ele>94</ele>
        <time>2012-02-22T10:28:32Z</time>
      </trkpt>
      <trkpt lat="43.13288" lon="3.1148">
        <ele>95</ele>
        <time>2012-02-22T10:28:39Z</time>
      </trkpt>
      <trkpt lat="43.13291" lon="3.1146">
        <ele>95</ele>
        <time>2012-02-22T10:28:46Z</time>
      </trkpt>
      <trkpt lat="43.13293" lon="3.11444">
        <ele>95</ele>
        <time>2012-02-22T10:28:52Z</time>
      </trkpt>
      <trkpt lat="43.13297" lon="3.11427">
        <ele>95</ele>
        <time>2012-02-22T10:28:59Z</time>
      </trkpt>
      <trkpt lat="43.13308" lon="3.11406">
        <ele>98</ele>
        <time>2012-02-22T10:29:06Z</time>
      </trkpt>
      <trkpt lat="43.13314" lon="3.11391">
        <ele>101</ele>
        <time>2012-02-22T10:29:12Z</time>
      </trkpt>
      <trkpt lat="43.13322" lon="3.11371">
        <ele>102</ele>
        <time>2012-02-22T10:29:19Z</time>
      </trkpt>
      <trkpt lat="43.1333" lon="3.11351">
        <ele>103</ele>
        <time>2012-02-22T10:29:26Z</time>
      </trkpt>
      <trkpt lat="43.13338" lon="3.11339">
        <ele>105</ele>
        <time>2012-02-22T10:29:32Z</time>
      </trkpt>
      <trkpt lat="43.13352" lon="3.11325">
        <ele>105</ele>
        <time>2012-02-22T10:29:39Z</time>
      </trkpt>
      <trkpt lat="43.13364" lon="3.11315">
        <ele>106</ele>
        <time>2012-02-22T10:29:46Z</time>
      </trkpt>
      <trkpt lat="43.13373" lon="3.11305">
        <ele>107</ele>
        <time>2012-02-22T10:29:52Z</time>
      </trkpt>
      <trkpt lat="43.13382" lon="3.1129">
        <ele>108</ele>
        <time>2012-02-22T10:29:59Z</time>
      </trkpt>
      <trkpt lat="43.13392" lon="3.11274">
        <ele>109</ele>
        <time>2012-02-22T10:30:06Z</time>
      </trkpt>
      <trkpt lat="43.13401" lon="3.11258">
        <ele>108</ele>
        <time>2012-02-22T10:30:12Z</time>
      </trkpt>
      <trkpt lat="43.13411" lon="3.11237">
        <ele>109</ele>
        <time>2012-02-22T10:30:19Z</time>
      </trkpt>
      <trkpt lat="43.13419" lon="3.11217">
        <ele>109</ele>
        <time>2012-02-22T10:30:26Z</time>
      </trkpt>
      <trkpt lat="43.13426" lon="3.11201">
        <ele>109</ele>
        <time>2012-02-22T10:30:32Z</time>
      </trkpt>
      <trkpt lat="43.13431" lon="3.11182">
        <ele>111</ele>
        <time>2012-02-22T10:30:39Z</time>
      </trkpt>
      <trkpt lat="43.13443" lon="3.11165">
        <ele>113</ele>
        <time>2012-02-22T10:30:46Z</time>
      </trkpt>
      <trkpt lat="43.13453" lon="3.11155">
        <ele>114</ele>
        <time>2012-02-22T10:30:52Z</time>
      </trkpt>
      <trkpt lat="43.13467" lon="3.11144">
        <ele>117</ele>
        <time>2012-02-22T10:30:59Z</time>
      </trkpt>
      <trkpt lat="43.13475" lon="3.11136">
        <ele>120</ele>
        <time>2012-02-22T10:31:06Z</time>
      </trkpt>
      <trkpt lat="43.13478" lon="3.11128">
        <ele>117</ele>
        <time>2012-02-22T10:31:12Z</time>
      </trkpt>
      <trkpt lat="43.13472" lon="3.11113">
        <ele>117</ele>
        <time>2012-02-22T10:31:19Z</time>
      </trkpt>
      <trkpt lat="43.13457" lon="3.11108">
        <ele>117</ele>
        <time>2012-02-22T10:31:26Z</time>
      </trkpt>
      <trkpt lat="43.13443" lon="3.11109">
        <ele>117</ele>
        <time>2012-02-22T10:31:32Z</time>
      </trkpt>
      <trkpt lat="43.13422" lon="3.11108">
        <ele>117</ele>
        <time>2012-02-22T10:31:39Z</time>
      </trkpt>
      <trkpt lat="43.13396" lon="3.11104">
        <ele>117</ele>
        <time>2012-02-22T10:31:46Z</time>
      </trkpt>
      <trkpt lat="43.13376" lon="3.11119">
        <ele>119</ele>
        <time>2012-02-22T10:31:52Z</time>
      </trkpt>
      <trkpt lat="43.13347" lon="3.11144">
        <ele>114</ele>
        <time>2012-02-22T10:31:59Z</time>
      </trkpt>
      <trkpt lat="43.13324" lon="3.11159">
        <ele>114</ele>
        <time>2012-02-22T10:32:06Z</time>
      </trkpt>
      <trkpt lat="43.13308" lon="3.11167">
        <ele>112</ele>
        <time>2012-02-22T10:32:12Z</time>
      </trkpt>
      <trkpt lat="43.13282" lon="3.11163">
        <ele>113</ele>
        <time>2012-02-22T10:32:19Z</time>
      </trkpt>
      <trkpt lat="43.13264" lon="3.11171">
        <ele>113</ele>
        <time>2012-02-22T10:32:26Z</time>
      </trkpt>
      <trkpt lat="43.13249" lon="3.11197">
        <ele>113</ele>
        <time>2012-02-22T10:32:32Z</time>
      </trkpt>
      <trkpt lat="43.13239" lon="3.11243">
        <ele>111</ele>
        <time>2012-02-22T10:32:39Z</time>
      </trkpt>
      <trkpt lat="43.1322" lon="3.1126">
        <ele>109</ele>
        <time>2012-02-22T10:32:46Z</time>
      </trkpt>
      <trkpt lat="43.13205" lon="3.11272">
        <ele>110</ele>
        <time>2012-02-22T10:32:52Z</time>
      </trkpt>
      <trkpt lat="43.13186" lon="3.11297">
        <ele>112</ele>
        <time>2012-02-22T10:32:59Z</time>
      </trkpt>
      <trkpt lat="43.13188" lon="3.11322">
        <ele>113</ele>
        <time>2012-02-22T10:33:06Z</time>
      </trkpt>
      <trkpt lat="43.13191" lon="3.11344">
        <ele>113</ele>
        <time>2012-02-22T10:33:11Z</time>
      </trkpt>
      <trkpt lat="43.13183" lon="3.11373">
        <ele>112</ele>
        <time>2012-02-22T10:33:18Z</time>
      </trkpt>
      <trkpt lat="43.13178" lon="3.11392">
        <ele>111</ele>
        <time>2012-02-22T10:33:25Z</time>
      </trkpt>
      <trkpt lat="43.13179" lon="3.11413">
        <ele>110</ele>
        <time>2012-02-22T10:33:31Z</time>
      </trkpt>
      <trkpt lat="43.13183" lon="3.11443">
        <ele>111</ele>
        <time>2012-02-22T10:33:38Z</time>
      </trkpt>
      <trkpt lat="43.13179" lon="3.11469">
        <ele>110</ele>
        <time>2012-02-22T10:33:45Z</time>
      </trkpt>
      <trkpt lat="43.13184" lon="3.11488">
        <ele>105</ele>
        <time>2012-02-22T10:33:51Z</time>
      </trkpt>
      <trkpt lat="43.13188" lon="3.11512">
        <ele>98</ele>
        <time>2012-02-22T10:33:58Z</time>
      </trkpt>
      <trkpt lat="43.13186" lon="3.11535">
        <ele>94</ele>
        <time>2012-02-22T10:34:05Z</time>
      </trkpt>
      <trkpt lat="43.13172" lon="3.11537">
        <ele>88</ele>
        <time>2012-02-22T10:34:11Z</time>
      </trkpt>
      <trkpt lat="43.13154" lon="3.1152">
        <ele>85</ele>
        <time>2012-02-22T10:34:18Z</time>
      </trkpt>
      <trkpt lat="43.13142" lon="3.11497">
        <ele>75</ele>
        <time>2012-02-22T10:34:25Z</time>
      </trkpt>
      <trkpt lat="43.13133" lon="3.1148">
        <ele>74</ele>
        <time>2012-02-22T10:34:31Z</time>
      </trkpt>
      <trkpt lat="43.13112" lon="3.11468">
        <ele>74</ele>
        <time>2012-02-22T10:34:38Z</time>
      </trkpt>
      <trkpt lat="43.13095" lon="3.11475">
        <ele>76</ele>
        <time>2012-02-22T10:34:45Z</time>
      </trkpt>
      <trkpt lat="43.1308" lon="3.11472">
        <ele>77</ele>
        <time>2012-02-22T10:34:51Z</time>
      </trkpt>
      <trkpt lat="43.13061" lon="3.11467">
        <ele>76</ele>
        <time>2012-02-22T10:34:57Z</time>
      </trkpt>
      <trkpt lat="43.13035" lon="3.11472">
        <ele>76</ele>
        <time>2012-02-22T10:35:04Z</time>
      </trkpt>
      <trkpt lat="43.13013" lon="3.1148">
        <ele>76</ele>
        <time>2012-02-22T10:35:10Z</time>
      </trkpt>
      <trkpt lat="43.12995" lon="3.11501">
        <ele>75</ele>
        <time>2012-02-22T10:35:17Z</time>
      </trkpt>
      <trkpt lat="43.1297" lon="3.11514">
        <ele>72</ele>
        <time>2012-02-22T10:35:24Z</time>
      </trkpt>
      <trkpt lat="43.12951" lon="3.11531">
        <ele>71</ele>
        <time>2012-02-22T10:35:30Z</time>
      </trkpt>
      <trkpt lat="43.12936" lon="3.11555">
        <ele>72</ele>
        <time>2012-02-22T10:35:37Z</time>
      </trkpt>
      <trkpt lat="43.12919" lon="3.11583">
        <ele>72</ele>
        <time>2012-02-22T10:35:44Z</time>
      </trkpt>
      <trkpt lat="43.12906" lon="3.11603">
        <ele>72</ele>
        <time>2012-02-22T10:35:50Z</time>
      </trkpt>
      <trkpt lat="43.12889" lon="3.11592">
        <ele>71</ele>
        <time>2012-02-22T10:35:57Z</time>
      </trkpt>
      <trkpt lat="43.12871" lon="3.11575">
        <ele>71</ele>
        <time>2012-02-22T10:36:04Z</time>
      </trkpt>
      <trkpt lat="43.12857" lon="3.11557">
        <ele>72</ele>
        <time>2012-02-22T10:36:10Z</time>
      </trkpt>
      <trkpt lat="43.12841" lon="3.11539">
        <ele>73</ele>
        <time>2012-02-22T10:36:17Z</time>
      </trkpt>
      <trkpt lat="43.12817" lon="3.11538">
        <ele>72</ele>
        <time>2012-02-22T10:36:24Z</time>
      </trkpt>
      <trkpt lat="43.12801" lon="3.11533">
        <ele>72</ele>
        <time>2012-02-22T10:36:30Z</time>
      </trkpt>
      <trkpt lat="43.12779" lon="3.11514">
        <ele>74</ele>
        <time>2012-02-22T10:36:37Z</time>
      </trkpt>
      <trkpt lat="43.12749" lon="3.11512">
        <ele>71</ele>
        <time>2012-02-22T10:36:44Z</time>
      </trkpt>
      <trkpt lat="43.12726" lon="3.11518">
        <ele>70</ele>
        <time>2012-02-22T10:36:50Z</time>
      </trkpt>
      <trkpt lat="43.12699" lon="3.11526">
        <ele>71</ele>
        <time>2012-02-22T10:36:57Z</time>
      </trkpt>
      <trkpt lat="43.12662" lon="3.11541">
        <ele>71</ele>
        <time>2012-02-22T10:37:04Z</time>
      </trkpt>
      <trkpt lat="43.12611" lon="3.11543">
        <ele>69</ele>
        <time>2012-02-22T10:37:10Z</time>
      </trkpt>
      <trkpt lat="43.12562" lon="3.11524">
        <ele>67</ele>
        <time>2012-02-22T10:37:17Z</time>
      </trkpt>
      <trkpt lat="43.12538" lon="3.11496">
        <ele>68</ele>
        <time>2012-02-22T10:37:24Z</time>
      </trkpt>
      <trkpt lat="43.1252" lon="3.1147">
        <ele>69</ele>
        <time>2012-02-22T10:37:30Z</time>
      </trkpt>
      <trkpt lat="43.12501" lon="3.11409">
        <ele>67</ele>
        <time>2012-02-22T10:37:37Z</time>
      </trkpt>
      <trkpt lat="43.12496" lon="3.11363">
        <ele>67</ele>
        <time>2012-02-22T10:37:44Z</time>
      </trkpt>
      <trkpt lat="43.12486" lon="3.11334">
        <ele>66</ele>
        <time>2012-02-22T10:37:50Z</time>
      </trkpt>
      <trkpt lat="43.12471" lon="3.11295">
        <ele>66</ele>
        <time>2012-02-22T10:37:57Z</time>
      </trkpt>
      <trkpt lat="43.12458" lon="3.11247">
        <ele>65</ele>
        <time>2012-02-22T10:38:04Z</time>
      </trkpt>
      <trkpt lat="43.1245" lon="3.11209">
        <ele>64</ele>
        <time>2012-02-22T10:38:10Z</time>
      </trkpt>
      <trkpt lat="43.12435" lon="3.11168">
        <ele>63</ele>
        <time>2012-02-22T10:38:17Z</time>
      </trkpt>
      <trkpt lat="43.12417" lon="3.11127">
        <ele>63</ele>
        <time>2012-02-22T10:38:24Z</time>
      </trkpt>
      <trkpt lat="43.12403" lon="3.11096">
        <ele>65</ele>
        <time>2012-02-22T10:38:30Z</time>
      </trkpt>
      <trkpt lat="43.12389" lon="3.11063">
        <ele>64</ele>
        <time>2012-02-22T10:38:37Z</time>
      </trkpt>
      <trkpt lat="43.12375" lon="3.11025">
        <ele>62</ele>
        <time>2012-02-22T10:38:44Z</time>
      </trkpt>
      <trkpt lat="43.12363" lon="3.10996">
        <ele>61</ele>
        <time>2012-02-22T10:38:50Z</time>
      </trkpt>
      <trkpt lat="43.12349" lon="3.10964">
        <ele>60</ele>
        <time>2012-02-22T10:38:57Z</time>
      </trkpt>
      <trkpt lat="43.12332" lon="3.10931">
        <ele>60</ele>
        <time>2012-02-22T10:39:04Z</time>
      </trkpt>
      <trkpt lat="43.12318" lon="3.10899">
        <ele>61</ele>
        <time>2012-02-22T10:39:10Z</time>
      </trkpt>
      <trkpt lat="43.12304" lon="3.10862">
        <ele>61</ele>
        <time>2012-02-22T10:39:17Z</time>
      </trkpt>
      <trkpt lat="43.12286" lon="3.10826">
        <ele>62</ele>
        <time>2012-02-22T10:39:24Z</time>
      </trkpt>
      <trkpt lat="43.12272" lon="3.10797">
        <ele>61</ele>
        <time>2012-02-22T10:39:30Z</time>
      </trkpt>
      <trkpt lat="43.12257" lon="3.10758">
        <ele>60</ele>
        <time>2012-02-22T10:39:37Z</time>
      </trkpt>
      <trkpt lat="43.12237" lon="3.10716">
        <ele>61</ele>
        <time>2012-02-22T10:39:44Z</time>
      </trkpt>
      <trkpt lat="43.12222" lon="3.10686">
        <ele>60</ele>
        <time>2012-02-22T10:39:50Z</time>
      </trkpt>
      <trkpt lat="43.12203" lon="3.10651">
        <ele>58</ele>
        <time>2012-02-22T10:39:57Z</time>
      </trkpt>
      <trkpt lat="43.12183" lon="3.10617">
        <ele>56</ele>
        <time>2012-02-22T10:40:04Z</time>
      </trkpt>
      <trkpt lat="43.12172" lon="3.10586">
        <ele>57</ele>
        <time>2012-02-22T10:40:10Z</time>
      </trkpt>
      <trkpt lat="43.12178" lon="3.10583">
        <ele>56</ele>
        <time>2012-02-22T10:40:17Z</time>
      </trkpt>
      <trkpt lat="43.12176" lon="3.1059">
        <ele>55</ele>
        <time>2012-02-22T10:40:24Z</time>
      </trkpt>
      <trkpt lat="43.12161" lon="3.10586">
        <ele>54</ele>
        <time>2012-02-22T10:40:30Z</time>
      </trkpt>
      <trkpt lat="43.12137" lon="3.10578">
        <ele>56</ele>
        <time>2012-02-22T10:40:37Z</time>
      </trkpt>
      <trkpt lat="43.12112" lon="3.1057">
        <ele>53</ele>
        <time>2012-02-22T10:40:44Z</time>
      </trkpt>
      <trkpt lat="43.12083" lon="3.10562">
        <ele>53</ele>
        <time>2012-02-22T10:40:50Z</time>
      </trkpt>
      <trkpt lat="43.12049" lon="3.10553">
        <ele>54</ele>
        <time>2012-02-22T10:40:57Z</time>
      </trkpt>
      <trkpt lat="43.12015" lon="3.10535">
        <ele>53</ele>
        <time>2012-02-22T10:41:04Z</time>
      </trkpt>
      <trkpt lat="43.11987" lon="3.10516">
        <ele>53</ele>
        <time>2012-02-22T10:41:10Z</time>
      </trkpt>
      <trkpt lat="43.11954" lon="3.10494">
        <ele>52</ele>
        <time>2012-02-22T10:41:17Z</time>
      </trkpt>
      <trkpt lat="43.11921" lon="3.10474">
        <ele>53</ele>
        <time>2012-02-22T10:41:24Z</time>
      </trkpt>
      <trkpt lat="43.11902" lon="3.10459">
        <ele>53</ele>
        <time>2012-02-22T10:41:30Z</time>
      </trkpt>
      <trkpt lat="43.11897" lon="3.10434">
        <ele>53</ele>
        <time>2012-02-22T10:41:37Z</time>
      </trkpt>
      <trkpt lat="43.11912" lon="3.104">
        <ele>54</ele>
        <time>2012-02-22T10:41:44Z</time>
      </trkpt>
      <trkpt lat="43.11929" lon="3.10372">
        <ele>54</ele>
        <time>2012-02-22T10:41:50Z</time>
      </trkpt>
      <trkpt lat="43.11946" lon="3.10347">
        <ele>55</ele>
        <time>2012-02-22T10:41:57Z</time>
      </trkpt>
      <trkpt lat="43.11963" lon="3.10314">
        <ele>55</ele>
        <time>2012-02-22T10:42:04Z</time>
      </trkpt>
      <trkpt lat="43.11975" lon="3.10293">
        <ele>57</ele>
        <time>2012-02-22T10:42:10Z</time>
      </trkpt>
      <trkpt lat="43.11991" lon="3.10268">
        <ele>57</ele>
        <time>2012-02-22T10:42:17Z</time>
      </trkpt>
      <trkpt lat="43.11991" lon="3.10251">
        <ele>56</ele>
        <time>2012-02-22T10:42:24Z</time>
      </trkpt>
      <trkpt lat="43.11977" lon="3.10242">
        <ele>57</ele>
        <time>2012-02-22T10:42:30Z</time>
      </trkpt>
      <trkpt lat="43.11957" lon="3.10262">
        <ele>57</ele>
        <time>2012-02-22T10:42:37Z</time>
      </trkpt>
      <trkpt lat="43.11936" lon="3.10293">
        <ele>56</ele>
        <time>2012-02-22T10:42:44Z</time>
      </trkpt>
      <trkpt lat="43.11919" lon="3.10318">
        <ele>54</ele>
        <time>2012-02-22T10:42:50Z</time>
      </trkpt>
      <trkpt lat="43.119" lon="3.10348">
        <ele>53</ele>
        <time>2012-02-22T10:42:57Z</time>
      </trkpt>
      <trkpt lat="43.11875" lon="3.10379">
        <ele>53</ele>
        <time>2012-02-22T10:43:04Z</time>
      </trkpt>
      <trkpt lat="43.11852" lon="3.10402">
        <ele>54</ele>
        <time>2012-02-22T10:43:10Z</time>
      </trkpt>
      <trkpt lat="43.11823" lon="3.10426">
        <ele>54</ele>
        <time>2012-02-22T10:43:17Z</time>
      </trkpt>
      <trkpt lat="43.11789" lon="3.10421">
        <ele>54</ele>
        <time>2012-02-22T10:43:24Z</time>
      </trkpt>
      <trkpt lat="43.11761" lon="3.1041">
        <ele>54</ele>
        <time>2012-02-22T10:43:30Z</time>
      </trkpt>
      <trkpt lat="43.11729" lon="3.10389">
        <ele>52</ele>
        <time>2012-02-22T10:43:37Z</time>
      </trkpt>
      <trkpt lat="43.11695" lon="3.10362">
        <ele>53</ele>
        <time>2012-02-22T10:43:44Z</time>
      </trkpt>
      <trkpt lat="43.11666" lon="3.10345">
        <ele>53</ele>
        <time>2012-02-22T10:43:50Z</time>
      </trkpt>
      <trkpt lat="43.11637" lon="3.10309">
        <ele>54</ele>
        <time>2012-02-22T10:43:57Z</time>
      </trkpt>
      <trkpt lat="43.11626" lon="3.10259">
        <ele>57</ele>
        <time>2012-02-22T10:44:04Z</time>
      </trkpt>
      <trkpt lat="43.11619" lon="3.1022">
        <ele>58</ele>
        <time>2012-02-22T10:44:10Z</time>
      </trkpt>
      <trkpt lat="43.11618" lon="3.1018">
        <ele>59</ele>
        <time>2012-02-22T10:44:17Z</time>
      </trkpt>
      <trkpt lat="43.11611" lon="3.10143">
        <ele>59</ele>
        <time>2012-02-22T10:44:24Z</time>
      </trkpt>
      <trkpt lat="43.11602" lon="3.10119">
        <ele>59</ele>
        <time>2012-02-22T10:44:30Z</time>
      </trkpt>
      <trkpt lat="43.11587" lon="3.10088">
        <ele>59</ele>
        <time>2012-02-22T10:44:37Z</time>
      </trkpt>
      <trkpt lat="43.11573" lon="3.10055">
        <ele>59</ele>
        <time>2012-02-22T10:44:44Z</time>
      </trkpt>
      <trkpt lat="43.11559" lon="3.10019">
        <ele>60</ele>
        <time>2012-02-22T10:44:50Z</time>
      </trkpt>
      <trkpt lat="43.11551" lon="3.09982">
        <ele>63</ele>
        <time>2012-02-22T10:44:57Z</time>
      </trkpt>
      <trkpt lat="43.11545" lon="3.09939">
        <ele>64</ele>
        <time>2012-02-22T10:45:04Z</time>
      </trkpt>
      <trkpt lat="43.11541" lon="3.09902">
        <ele>64</ele>
        <time>2012-02-22T10:45:10Z</time>
      </trkpt>
      <trkpt lat="43.11537" lon="3.09861">
        <ele>63</ele>
        <time>2012-02-22T10:45:17Z</time>
      </trkpt>
      <trkpt lat="43.11534" lon="3.09815">
        <ele>61</ele>
        <time>2012-02-22T10:45:24Z</time>
      </trkpt>
      <trkpt lat="43.11532" lon="3.09777">
        <ele>61</ele>
        <time>2012-02-22T10:45:30Z</time>
      </trkpt>
      <trkpt lat="43.11531" lon="3.09739">
        <ele>59</ele>
        <time>2012-02-22T10:45:37Z</time>
      </trkpt>
      <trkpt lat="43.11531" lon="3.09701">
        <ele>60</ele>
        <time>2012-02-22T10:45:44Z</time>
      </trkpt>
      <trkpt lat="43.11528" lon="3.0967">
        <ele>62</ele>
        <time>2012-02-22T10:45:50Z</time>
      </trkpt>
      <trkpt lat="43.11523" lon="3.09628">
        <ele>60</ele>
        <time>2012-02-22T10:45:57Z</time>
      </trkpt>
      <trkpt lat="43.11535" lon="3.09593">
        <ele>58</ele>
        <time>2012-02-22T10:46:04Z</time>
      </trkpt>
      <trkpt lat="43.11546" lon="3.09567">
        <ele>58</ele>
        <time>2012-02-22T10:46:10Z</time>
      </trkpt>
      <trkpt lat="43.11558" lon="3.0953">
        <ele>56</ele>
        <time>2012-02-22T10:46:17Z</time>
      </trkpt>
      <trkpt lat="43.11566" lon="3.09498">
        <ele>57</ele>
        <time>2012-02-22T10:46:24Z</time>
      </trkpt>
      <trkpt lat="43.11561" lon="3.09467">
        <ele>58</ele>
        <time>2012-02-22T10:46:30Z</time>
      </trkpt>
      <trkpt lat="43.11544" lon="3.09438">
        <ele>60</ele>
        <time>2012-02-22T10:46:37Z</time>
      </trkpt>
      <trkpt lat="43.11522" lon="3.09409">
        <ele>59</ele>
        <time>2012-02-22T10:46:44Z</time>
      </trkpt>
      <trkpt lat="43.11505" lon="3.09387">
        <ele>57</ele>
        <time>2012-02-22T10:46:50Z</time>
      </trkpt>
      <trkpt lat="43.11488" lon="3.0936">
        <ele>53</ele>
        <time>2012-02-22T10:46:57Z</time>
      </trkpt>
      <trkpt lat="43.11468" lon="3.09329">
        <ele>51</ele>
        <time>2012-02-22T10:47:04Z</time>
      </trkpt>
      <trkpt lat="43.11455" lon="3.09302">
        <ele>50</ele>
        <time>2012-02-22T10:47:10Z</time>
      </trkpt>
      <trkpt lat="43.11454" lon="3.0926">
        <ele>45</ele>
        <time>2012-02-22T10:47:17Z</time>
      </trkpt>
      <trkpt lat="43.11448" lon="3.09247">
        <ele>48</ele>
        <time>2012-02-22T10:47:24Z</time>
      </trkpt>
      <trkpt lat="43.11435" lon="3.09228">
        <ele>48</ele>
        <time>2012-02-22T10:47:30Z</time>
      </trkpt>
      <trkpt lat="43.11415" lon="3.09206">
        <ele>48</ele>
        <time>2012-02-22T10:47:37Z</time>
      </trkpt>
      <trkpt lat="43.11388" lon="3.09198">
        <ele>49</ele>
        <time>2012-02-22T10:47:44Z</time>
      </trkpt>
      <trkpt lat="43.11364" lon="3.09187">
        <ele>50</ele>
        <time>2012-02-22T10:47:50Z</time>
      </trkpt>
      <trkpt lat="43.11336" lon="3.09179">
        <ele>51</ele>
        <time>2012-02-22T10:47:57Z</time>
      </trkpt>
      <trkpt lat="43.11307" lon="3.09167">
        <ele>50</ele>
        <time>2012-02-22T10:48:04Z</time>
      </trkpt>
      <trkpt lat="43.11284" lon="3.09158">
        <ele>50</ele>
        <time>2012-02-22T10:48:10Z</time>
      </trkpt>
      <trkpt lat="43.11255" lon="3.09146">
        <ele>52</ele>
        <time>2012-02-22T10:48:17Z</time>
      </trkpt>
      <trkpt lat="43.11226" lon="3.09134">
        <ele>52</ele>
        <time>2012-02-22T10:48:24Z</time>
      </trkpt>
      <trkpt lat="43.11202" lon="3.09126">
        <ele>53</ele>
        <time>2012-02-22T10:48:30Z</time>
      </trkpt>
      <trkpt lat="43.11171" lon="3.09114">
        <ele>53</ele>
        <time>2012-02-22T10:48:37Z</time>
      </trkpt>
      <trkpt lat="43.1114" lon="3.09102">
        <ele>54</ele>
        <time>2012-02-22T10:48:44Z</time>
      </trkpt>
      <trkpt lat="43.11115" lon="3.09092">
        <ele>53</ele>
        <time>2012-02-22T10:48:50Z</time>
      </trkpt>
      <trkpt lat="43.11085" lon="3.09083">
        <ele>52</ele>
        <time>2012-02-22T10:48:57Z</time>
      </trkpt>
      <trkpt lat="43.11055" lon="3.09072">
        <ele>52</ele>
        <time>2012-02-22T10:49:04Z</time>
      </trkpt>
      <trkpt lat="43.1103" lon="3.09063">
        <ele>51</ele>
        <time>2012-02-22T10:49:10Z</time>
      </trkpt>
      <trkpt lat="43.11001" lon="3.0905">
        <ele>53</ele>
        <time>2012-02-22T10:49:17Z</time>
      </trkpt>
      <trkpt lat="43.10972" lon="3.09039">
        <ele>53</ele>
        <time>2012-02-22T10:49:24Z</time>
      </trkpt>
      <trkpt lat="43.10951" lon="3.09033">
        <ele>52</ele>
        <time>2012-02-22T10:49:30Z</time>
      </trkpt>
      <trkpt lat="43.10927" lon="3.09024">
        <ele>52</ele>
        <time>2012-02-22T10:49:37Z</time>
      </trkpt>
      <trkpt lat="43.10905" lon="3.09017">
        <ele>52</ele>
        <time>2012-02-22T10:49:44Z</time>
      </trkpt>
      <trkpt lat="43.10889" lon="3.09037">
        <ele>49</ele>
        <time>2012-02-22T10:49:50Z</time>
      </trkpt>
      <trkpt lat="43.10881" lon="3.09055">
        <ele>48</ele>
        <time>2012-02-22T10:49:57Z</time>
      </trkpt>
      <trkpt lat="43.10877" lon="3.09057">
        <ele>49</ele>
        <time>2012-02-22T10:50:04Z</time>
      </trkpt>
      <trkpt lat="43.10877" lon="3.09057">
        <ele>50</ele>
        <time>2012-02-22T10:50:10Z</time>
      </trkpt>
      <trkpt lat="43.10877" lon="3.09057">
        <ele>50</ele>
        <time>2012-02-22T10:50:17Z</time>
      </trkpt>
      <trkpt lat="43.10877" lon="3.09057">
        <ele>50</ele>
        <time>2012-02-22T10:50:24Z</time>
      </trkpt>
      <trkpt lat="43.10877" lon="3.09057">
        <ele>50</ele>
        <time>2012-02-22T10:50:30Z</time>
      </trkpt>
      <trkpt lat="43.10879" lon="3.09055">
        <ele>48</ele>
        <time>2012-02-22T10:50:37Z</time>
      </trkpt>
      <trkpt lat="43.10879" lon="3.09055">
        <ele>48</ele>
        <time>2012-02-22T10:50:44Z</time>
      </trkpt>
      <trkpt lat="43.10879" lon="3.09055">
        <ele>48</ele>
        <time>2012-02-22T10:50:50Z</time>
      </trkpt>
      <trkpt lat="43.10879" lon="3.09055">
        <ele>48</ele>
        <time>2012-02-22T10:50:58Z</time>
      </trkpt>
      <trkpt lat="43.10879" lon="3.09055">
        <ele>48</ele>
        <time>2012-02-22T10:51:02Z</time>
      </trkpt>
    </trkseg>
  </trk>
</gpx>